<?xml version="1.0" encoding="UTF-8" standalone="no" ?>
<gpx xmlns="http://www.topografix.com/GPX/1/1" xmlns:xsi="http://www.w3.org/2001/XMLSchema-instance" xsi:schemaLocation="http://www.topografix.com/GPX/1/1 http://www.topografix.com/GPX/1/1/gpx.xsd" version="1.1" creator="VisuGPX - https://www.visugpx.com">
  <metadata>
    <name>Séance VTT jeunes USSH du 27/11/11</name>
    <desc><![CDATA[Entrainement]]></desc>
  </metadata>
  <trk>
    <name><![CDATA[Séance VTT jeunes USSH du 27/11/11_1]]></name>
    <trkseg>
      <trkpt lat="47.2371" lon="-1.61169">
        <ele>-105.5</ele>
        <time>2011-11-26T13:32:05Z</time>
      </trkpt>
      <trkpt lat="47.23709" lon="-1.61182">
        <ele>-87.25</ele>
        <time>2011-11-26T13:32:22Z</time>
      </trkpt>
      <trkpt lat="47.237" lon="-1.61183">
        <ele>-90</ele>
        <time>2011-11-26T13:32:38Z</time>
      </trkpt>
      <trkpt lat="47.23709" lon="-1.61182">
        <ele>-85.5</ele>
        <time>2011-11-26T13:33:41Z</time>
      </trkpt>
      <trkpt lat="47.23708" lon="-1.61196">
        <ele>-86.75</ele>
        <time>2011-11-26T13:35:24Z</time>
      </trkpt>
      <trkpt lat="47.23702" lon="-1.61212">
        <ele>-88.5</ele>
        <time>2011-11-26T13:36:10Z</time>
      </trkpt>
      <trkpt lat="47.23703" lon="-1.61225">
        <ele>-90.25</ele>
        <time>2011-11-26T13:36:12Z</time>
      </trkpt>
      <trkpt lat="47.23698" lon="-1.61238">
        <ele>-90.75</ele>
        <time>2011-11-26T13:36:16Z</time>
      </trkpt>
      <trkpt lat="47.23689" lon="-1.61235">
        <ele>-87.75</ele>
        <time>2011-11-26T13:36:20Z</time>
      </trkpt>
      <trkpt lat="47.23684" lon="-1.6125">
        <ele>-89.5</ele>
        <time>2011-11-26T13:36:27Z</time>
      </trkpt>
      <trkpt lat="47.2369" lon="-1.61268">
        <ele>-91.5</ele>
        <time>2011-11-26T13:36:30Z</time>
      </trkpt>
      <trkpt lat="47.23697" lon="-1.61282">
        <ele>-92.5</ele>
        <time>2011-11-26T13:36:33Z</time>
      </trkpt>
      <trkpt lat="47.23703" lon="-1.61296">
        <ele>-89.75</ele>
        <time>2011-11-26T13:36:36Z</time>
      </trkpt>
      <trkpt lat="47.23709" lon="-1.61305">
        <ele>-89.5</ele>
        <time>2011-11-26T13:36:39Z</time>
      </trkpt>
      <trkpt lat="47.23719" lon="-1.6131">
        <ele>-92.5</ele>
        <time>2011-11-26T13:36:43Z</time>
      </trkpt>
      <trkpt lat="47.23731" lon="-1.61312">
        <ele>-91.75</ele>
        <time>2011-11-26T13:36:46Z</time>
      </trkpt>
      <trkpt lat="47.23742" lon="-1.61317">
        <ele>-89</ele>
        <time>2011-11-26T13:36:48Z</time>
      </trkpt>
      <trkpt lat="47.23753" lon="-1.61326">
        <ele>-87</ele>
        <time>2011-11-26T13:36:51Z</time>
      </trkpt>
      <trkpt lat="47.23761" lon="-1.61335">
        <ele>-86.25</ele>
        <time>2011-11-26T13:36:53Z</time>
      </trkpt>
      <trkpt lat="47.2377" lon="-1.61349">
        <ele>-86</ele>
        <time>2011-11-26T13:36:56Z</time>
      </trkpt>
      <trkpt lat="47.23775" lon="-1.61363">
        <ele>-85.75</ele>
        <time>2011-11-26T13:36:59Z</time>
      </trkpt>
      <trkpt lat="47.23781" lon="-1.61375">
        <ele>-84.75</ele>
        <time>2011-11-26T13:37:02Z</time>
      </trkpt>
      <trkpt lat="47.23783" lon="-1.61394">
        <ele>-86</ele>
        <time>2011-11-26T13:37:05Z</time>
      </trkpt>
      <trkpt lat="47.23781" lon="-1.61408">
        <ele>-86</ele>
        <time>2011-11-26T13:37:08Z</time>
      </trkpt>
      <trkpt lat="47.23778" lon="-1.61421">
        <ele>-84.25</ele>
        <time>2011-11-26T13:37:10Z</time>
      </trkpt>
      <trkpt lat="47.23776" lon="-1.61434">
        <ele>-81.25</ele>
        <time>2011-11-26T13:37:12Z</time>
      </trkpt>
      <trkpt lat="47.23775" lon="-1.61453">
        <ele>-79.25</ele>
        <time>2011-11-26T13:37:15Z</time>
      </trkpt>
      <trkpt lat="47.23773" lon="-1.61469">
        <ele>-80.75</ele>
        <time>2011-11-26T13:37:18Z</time>
      </trkpt>
      <trkpt lat="47.23765" lon="-1.61482">
        <ele>-83</ele>
        <time>2011-11-26T13:37:22Z</time>
      </trkpt>
      <trkpt lat="47.23758" lon="-1.61492">
        <ele>-83.75</ele>
        <time>2011-11-26T13:37:25Z</time>
      </trkpt>
      <trkpt lat="47.23754" lon="-1.61507">
        <ele>-83.25</ele>
        <time>2011-11-26T13:37:28Z</time>
      </trkpt>
      <trkpt lat="47.23749" lon="-1.61519">
        <ele>-86.25</ele>
        <time>2011-11-26T13:37:31Z</time>
      </trkpt>
      <trkpt lat="47.23749" lon="-1.61539">
        <ele>-94.25</ele>
        <time>2011-11-26T13:37:35Z</time>
      </trkpt>
      <trkpt lat="47.23755" lon="-1.6155">
        <ele>-99.25</ele>
        <time>2011-11-26T13:37:38Z</time>
      </trkpt>
      <trkpt lat="47.23765" lon="-1.61557">
        <ele>-102</ele>
        <time>2011-11-26T13:37:41Z</time>
      </trkpt>
      <trkpt lat="47.23771" lon="-1.61569">
        <ele>-100</ele>
        <time>2011-11-26T13:37:46Z</time>
      </trkpt>
      <trkpt lat="47.23771" lon="-1.61582">
        <ele>-100.5</ele>
        <time>2011-11-26T13:37:50Z</time>
      </trkpt>
      <trkpt lat="47.2377" lon="-1.61596">
        <ele>-99.5</ele>
        <time>2011-11-26T13:37:53Z</time>
      </trkpt>
      <trkpt lat="47.23762" lon="-1.61609">
        <ele>-101</ele>
        <time>2011-11-26T13:37:57Z</time>
      </trkpt>
      <trkpt lat="47.23755" lon="-1.61622">
        <ele>-104.5</ele>
        <time>2011-11-26T13:38:04Z</time>
      </trkpt>
      <trkpt lat="47.2375" lon="-1.61637">
        <ele>-112.75</ele>
        <time>2011-11-26T13:38:08Z</time>
      </trkpt>
      <trkpt lat="47.23746" lon="-1.61654">
        <ele>-114.5</ele>
        <time>2011-11-26T13:38:12Z</time>
      </trkpt>
      <trkpt lat="47.23747" lon="-1.61672">
        <ele>-115.5</ele>
        <time>2011-11-26T13:38:15Z</time>
      </trkpt>
      <trkpt lat="47.23749" lon="-1.61688">
        <ele>-113</ele>
        <time>2011-11-26T13:38:17Z</time>
      </trkpt>
      <trkpt lat="47.23751" lon="-1.61703">
        <ele>-109.75</ele>
        <time>2011-11-26T13:38:20Z</time>
      </trkpt>
      <trkpt lat="47.23752" lon="-1.61721">
        <ele>-104</ele>
        <time>2011-11-26T13:38:23Z</time>
      </trkpt>
      <trkpt lat="47.23754" lon="-1.61738">
        <ele>-98.25</ele>
        <time>2011-11-26T13:38:26Z</time>
      </trkpt>
      <trkpt lat="47.23759" lon="-1.61754">
        <ele>-96</ele>
        <time>2011-11-26T13:38:29Z</time>
      </trkpt>
      <trkpt lat="47.23763" lon="-1.61772">
        <ele>-94.5</ele>
        <time>2011-11-26T13:38:32Z</time>
      </trkpt>
      <trkpt lat="47.23765" lon="-1.61785">
        <ele>-95</ele>
        <time>2011-11-26T13:38:35Z</time>
      </trkpt>
      <trkpt lat="47.2377" lon="-1.61797">
        <ele>-95</ele>
        <time>2011-11-26T13:38:37Z</time>
      </trkpt>
      <trkpt lat="47.23775" lon="-1.61815">
        <ele>-95.25</ele>
        <time>2011-11-26T13:38:40Z</time>
      </trkpt>
      <trkpt lat="47.23782" lon="-1.61831">
        <ele>-94.75</ele>
        <time>2011-11-26T13:38:43Z</time>
      </trkpt>
      <trkpt lat="47.2379" lon="-1.61846">
        <ele>-93.25</ele>
        <time>2011-11-26T13:38:46Z</time>
      </trkpt>
      <trkpt lat="47.23796" lon="-1.61857">
        <ele>-93.25</ele>
        <time>2011-11-26T13:38:49Z</time>
      </trkpt>
      <trkpt lat="47.23802" lon="-1.6187">
        <ele>-93.75</ele>
        <time>2011-11-26T13:38:52Z</time>
      </trkpt>
      <trkpt lat="47.23808" lon="-1.61883">
        <ele>-92.25</ele>
        <time>2011-11-26T13:38:55Z</time>
      </trkpt>
      <trkpt lat="47.23817" lon="-1.61898">
        <ele>-89.5</ele>
        <time>2011-11-26T13:38:58Z</time>
      </trkpt>
      <trkpt lat="47.23824" lon="-1.61906">
        <ele>-87.75</ele>
        <time>2011-11-26T13:39:01Z</time>
      </trkpt>
      <trkpt lat="47.23831" lon="-1.61915">
        <ele>-87.5</ele>
        <time>2011-11-26T13:39:03Z</time>
      </trkpt>
      <trkpt lat="47.23839" lon="-1.61925">
        <ele>-86.75</ele>
        <time>2011-11-26T13:39:05Z</time>
      </trkpt>
      <trkpt lat="47.23847" lon="-1.61935">
        <ele>-84.75</ele>
        <time>2011-11-26T13:39:08Z</time>
      </trkpt>
      <trkpt lat="47.23856" lon="-1.61944">
        <ele>-84.25</ele>
        <time>2011-11-26T13:39:13Z</time>
      </trkpt>
      <trkpt lat="47.23864" lon="-1.61951">
        <ele>-85.25</ele>
        <time>2011-11-26T13:39:16Z</time>
      </trkpt>
      <trkpt lat="47.23875" lon="-1.6196">
        <ele>-88.25</ele>
        <time>2011-11-26T13:39:19Z</time>
      </trkpt>
      <trkpt lat="47.23883" lon="-1.61965">
        <ele>-90.25</ele>
        <time>2011-11-26T13:39:21Z</time>
      </trkpt>
      <trkpt lat="47.23892" lon="-1.61968">
        <ele>-91.75</ele>
        <time>2011-11-26T13:39:23Z</time>
      </trkpt>
      <trkpt lat="47.23902" lon="-1.61972">
        <ele>-92.5</ele>
        <time>2011-11-26T13:39:25Z</time>
      </trkpt>
      <trkpt lat="47.23912" lon="-1.61978">
        <ele>-92.5</ele>
        <time>2011-11-26T13:39:27Z</time>
      </trkpt>
      <trkpt lat="47.23922" lon="-1.61983">
        <ele>-93</ele>
        <time>2011-11-26T13:39:29Z</time>
      </trkpt>
      <trkpt lat="47.23934" lon="-1.61987">
        <ele>-95.75</ele>
        <time>2011-11-26T13:39:33Z</time>
      </trkpt>
      <trkpt lat="47.23945" lon="-1.61993">
        <ele>-99.25</ele>
        <time>2011-11-26T13:39:36Z</time>
      </trkpt>
      <trkpt lat="47.23954" lon="-1.62002">
        <ele>-103.25</ele>
        <time>2011-11-26T13:39:39Z</time>
      </trkpt>
      <trkpt lat="47.23965" lon="-1.6201">
        <ele>-106.75</ele>
        <time>2011-11-26T13:39:43Z</time>
      </trkpt>
      <trkpt lat="47.23975" lon="-1.62018">
        <ele>-107.75</ele>
        <time>2011-11-26T13:39:46Z</time>
      </trkpt>
      <trkpt lat="47.23982" lon="-1.62027">
        <ele>-109</ele>
        <time>2011-11-26T13:39:49Z</time>
      </trkpt>
      <trkpt lat="47.23987" lon="-1.62039">
        <ele>-109.75</ele>
        <time>2011-11-26T13:39:52Z</time>
      </trkpt>
      <trkpt lat="47.23992" lon="-1.62052">
        <ele>-111.5</ele>
        <time>2011-11-26T13:39:56Z</time>
      </trkpt>
      <trkpt lat="47.23996" lon="-1.62067">
        <ele>-112.25</ele>
        <time>2011-11-26T13:39:59Z</time>
      </trkpt>
      <trkpt lat="47.23999" lon="-1.62083">
        <ele>-109.25</ele>
        <time>2011-11-26T13:40:02Z</time>
      </trkpt>
      <trkpt lat="47.24003" lon="-1.62097">
        <ele>-108.5</ele>
        <time>2011-11-26T13:40:05Z</time>
      </trkpt>
      <trkpt lat="47.24005" lon="-1.6211">
        <ele>-107.75</ele>
        <time>2011-11-26T13:40:07Z</time>
      </trkpt>
      <trkpt lat="47.24006" lon="-1.62124">
        <ele>-104.25</ele>
        <time>2011-11-26T13:40:09Z</time>
      </trkpt>
      <trkpt lat="47.24006" lon="-1.62141">
        <ele>-97.5</ele>
        <time>2011-11-26T13:40:12Z</time>
      </trkpt>
      <trkpt lat="47.24008" lon="-1.62158">
        <ele>-94</ele>
        <time>2011-11-26T13:40:15Z</time>
      </trkpt>
      <trkpt lat="47.24009" lon="-1.62173">
        <ele>-94</ele>
        <time>2011-11-26T13:40:18Z</time>
      </trkpt>
      <trkpt lat="47.24011" lon="-1.62187">
        <ele>-95.25</ele>
        <time>2011-11-26T13:40:20Z</time>
      </trkpt>
      <trkpt lat="47.24012" lon="-1.62203">
        <ele>-97</ele>
        <time>2011-11-26T13:40:23Z</time>
      </trkpt>
      <trkpt lat="47.24011" lon="-1.62219">
        <ele>-98</ele>
        <time>2011-11-26T13:40:26Z</time>
      </trkpt>
      <trkpt lat="47.2401" lon="-1.62235">
        <ele>-93</ele>
        <time>2011-11-26T13:40:28Z</time>
      </trkpt>
      <trkpt lat="47.24011" lon="-1.62252">
        <ele>-87</ele>
        <time>2011-11-26T13:40:31Z</time>
      </trkpt>
      <trkpt lat="47.24012" lon="-1.62265">
        <ele>-85.25</ele>
        <time>2011-11-26T13:40:33Z</time>
      </trkpt>
      <trkpt lat="47.24015" lon="-1.62279">
        <ele>-85.25</ele>
        <time>2011-11-26T13:40:35Z</time>
      </trkpt>
      <trkpt lat="47.24016" lon="-1.62296">
        <ele>-87.25</ele>
        <time>2011-11-26T13:40:38Z</time>
      </trkpt>
      <trkpt lat="47.24014" lon="-1.62313">
        <ele>-90.25</ele>
        <time>2011-11-26T13:40:41Z</time>
      </trkpt>
      <trkpt lat="47.24004" lon="-1.62318">
        <ele>-103</ele>
        <time>2011-11-26T13:40:47Z</time>
      </trkpt>
      <trkpt lat="47.23994" lon="-1.62323">
        <ele>-102.25</ele>
        <time>2011-11-26T13:40:50Z</time>
      </trkpt>
      <trkpt lat="47.23988" lon="-1.62335">
        <ele>-99.25</ele>
        <time>2011-11-26T13:40:53Z</time>
      </trkpt>
      <trkpt lat="47.2399" lon="-1.62352">
        <ele>-94.5</ele>
        <time>2011-11-26T13:40:55Z</time>
      </trkpt>
      <trkpt lat="47.23994" lon="-1.62371">
        <ele>-90.75</ele>
        <time>2011-11-26T13:40:58Z</time>
      </trkpt>
      <trkpt lat="47.23997" lon="-1.62387">
        <ele>-91</ele>
        <time>2011-11-26T13:41:00Z</time>
      </trkpt>
      <trkpt lat="47.24" lon="-1.62403">
        <ele>-93.5</ele>
        <time>2011-11-26T13:41:02Z</time>
      </trkpt>
      <trkpt lat="47.24003" lon="-1.6242">
        <ele>-95.75</ele>
        <time>2011-11-26T13:41:04Z</time>
      </trkpt>
      <trkpt lat="47.24003" lon="-1.62439">
        <ele>-96.25</ele>
        <time>2011-11-26T13:41:06Z</time>
      </trkpt>
      <trkpt lat="47.24006" lon="-1.62455">
        <ele>-95.5</ele>
        <time>2011-11-26T13:41:09Z</time>
      </trkpt>
      <trkpt lat="47.24015" lon="-1.62467">
        <ele>-93.75</ele>
        <time>2011-11-26T13:41:12Z</time>
      </trkpt>
      <trkpt lat="47.24024" lon="-1.62479">
        <ele>-92.5</ele>
        <time>2011-11-26T13:41:15Z</time>
      </trkpt>
      <trkpt lat="47.24032" lon="-1.62489">
        <ele>-89.75</ele>
        <time>2011-11-26T13:41:18Z</time>
      </trkpt>
      <trkpt lat="47.2404" lon="-1.62499">
        <ele>-87</ele>
        <time>2011-11-26T13:41:20Z</time>
      </trkpt>
      <trkpt lat="47.24048" lon="-1.62511">
        <ele>-86.75</ele>
        <time>2011-11-26T13:41:23Z</time>
      </trkpt>
      <trkpt lat="47.24055" lon="-1.62524">
        <ele>-88.25</ele>
        <time>2011-11-26T13:41:26Z</time>
      </trkpt>
      <trkpt lat="47.24061" lon="-1.62535">
        <ele>-88.25</ele>
        <time>2011-11-26T13:41:29Z</time>
      </trkpt>
      <trkpt lat="47.24069" lon="-1.62544">
        <ele>-89.25</ele>
        <time>2011-11-26T13:41:32Z</time>
      </trkpt>
      <trkpt lat="47.24079" lon="-1.6255">
        <ele>-92</ele>
        <time>2011-11-26T13:41:36Z</time>
      </trkpt>
      <trkpt lat="47.2409" lon="-1.62556">
        <ele>-94.25</ele>
        <time>2011-11-26T13:41:40Z</time>
      </trkpt>
      <trkpt lat="47.24095" lon="-1.62568">
        <ele>-94.25</ele>
        <time>2011-11-26T13:41:43Z</time>
      </trkpt>
      <trkpt lat="47.24094" lon="-1.62582">
        <ele>-91.5</ele>
        <time>2011-11-26T13:41:46Z</time>
      </trkpt>
      <trkpt lat="47.24089" lon="-1.626">
        <ele>-89.75</ele>
        <time>2011-11-26T13:41:50Z</time>
      </trkpt>
      <trkpt lat="47.24085" lon="-1.62613">
        <ele>-87.25</ele>
        <time>2011-11-26T13:41:52Z</time>
      </trkpt>
      <trkpt lat="47.24078" lon="-1.62625">
        <ele>-85.5</ele>
        <time>2011-11-26T13:41:55Z</time>
      </trkpt>
      <trkpt lat="47.24074" lon="-1.62637">
        <ele>-87</ele>
        <time>2011-11-26T13:41:58Z</time>
      </trkpt>
      <trkpt lat="47.24069" lon="-1.62648">
        <ele>-91.25</ele>
        <time>2011-11-26T13:42:02Z</time>
      </trkpt>
      <trkpt lat="47.24064" lon="-1.6266">
        <ele>-90.25</ele>
        <time>2011-11-26T13:42:06Z</time>
      </trkpt>
      <trkpt lat="47.2406" lon="-1.62674">
        <ele>-78.75</ele>
        <time>2011-11-26T13:42:15Z</time>
      </trkpt>
      <trkpt lat="47.24067" lon="-1.6269">
        <ele>-80.25</ele>
        <time>2011-11-26T13:42:20Z</time>
      </trkpt>
      <trkpt lat="47.24075" lon="-1.62698">
        <ele>-81</ele>
        <time>2011-11-26T13:42:22Z</time>
      </trkpt>
      <trkpt lat="47.24082" lon="-1.62708">
        <ele>-84</ele>
        <time>2011-11-26T13:42:26Z</time>
      </trkpt>
      <trkpt lat="47.2409" lon="-1.62716">
        <ele>-83.5</ele>
        <time>2011-11-26T13:42:36Z</time>
      </trkpt>
      <trkpt lat="47.24097" lon="-1.62727">
        <ele>-84</ele>
        <time>2011-11-26T13:42:52Z</time>
      </trkpt>
      <trkpt lat="47.241" lon="-1.6274">
        <ele>-86</ele>
        <time>2011-11-26T13:42:58Z</time>
      </trkpt>
      <trkpt lat="47.24103" lon="-1.62753">
        <ele>-88</ele>
        <time>2011-11-26T13:43:04Z</time>
      </trkpt>
      <trkpt lat="47.24106" lon="-1.62766">
        <ele>-86.25</ele>
        <time>2011-11-26T13:44:04Z</time>
      </trkpt>
      <trkpt lat="47.24113" lon="-1.62776">
        <ele>-92</ele>
        <time>2011-11-26T13:44:09Z</time>
      </trkpt>
      <trkpt lat="47.24121" lon="-1.62788">
        <ele>-94</ele>
        <time>2011-11-26T13:44:13Z</time>
      </trkpt>
      <trkpt lat="47.24126" lon="-1.628">
        <ele>-93.25</ele>
        <time>2011-11-26T13:44:16Z</time>
      </trkpt>
      <trkpt lat="47.24131" lon="-1.62812">
        <ele>-92.5</ele>
        <time>2011-11-26T13:44:19Z</time>
      </trkpt>
      <trkpt lat="47.24137" lon="-1.62827">
        <ele>-93.5</ele>
        <time>2011-11-26T13:44:22Z</time>
      </trkpt>
      <trkpt lat="47.24143" lon="-1.62839">
        <ele>-94.75</ele>
        <time>2011-11-26T13:44:24Z</time>
      </trkpt>
      <trkpt lat="47.24149" lon="-1.62852">
        <ele>-95.5</ele>
        <time>2011-11-26T13:44:26Z</time>
      </trkpt>
      <trkpt lat="47.24155" lon="-1.62867">
        <ele>-93.5</ele>
        <time>2011-11-26T13:44:30Z</time>
      </trkpt>
      <trkpt lat="47.24158" lon="-1.6288">
        <ele>-92.25</ele>
        <time>2011-11-26T13:44:32Z</time>
      </trkpt>
      <trkpt lat="47.24162" lon="-1.62894">
        <ele>-91.25</ele>
        <time>2011-11-26T13:44:34Z</time>
      </trkpt>
      <trkpt lat="47.24167" lon="-1.62907">
        <ele>-89.75</ele>
        <time>2011-11-26T13:44:36Z</time>
      </trkpt>
      <trkpt lat="47.24174" lon="-1.62923">
        <ele>-90.75</ele>
        <time>2011-11-26T13:44:38Z</time>
      </trkpt>
      <trkpt lat="47.24179" lon="-1.62938">
        <ele>-93</ele>
        <time>2011-11-26T13:44:41Z</time>
      </trkpt>
      <trkpt lat="47.24183" lon="-1.62954">
        <ele>-96.75</ele>
        <time>2011-11-26T13:44:44Z</time>
      </trkpt>
      <trkpt lat="47.24188" lon="-1.62967">
        <ele>-99.5</ele>
        <time>2011-11-26T13:44:47Z</time>
      </trkpt>
      <trkpt lat="47.24193" lon="-1.62987">
        <ele>-100.5</ele>
        <time>2011-11-26T13:44:50Z</time>
      </trkpt>
      <trkpt lat="47.24195" lon="-1.63004">
        <ele>-99.75</ele>
        <time>2011-11-26T13:44:53Z</time>
      </trkpt>
      <trkpt lat="47.24197" lon="-1.63021">
        <ele>-98.75</ele>
        <time>2011-11-26T13:44:55Z</time>
      </trkpt>
      <trkpt lat="47.24199" lon="-1.63037">
        <ele>-97.75</ele>
        <time>2011-11-26T13:44:57Z</time>
      </trkpt>
      <trkpt lat="47.242" lon="-1.63054">
        <ele>-96</ele>
        <time>2011-11-26T13:44:59Z</time>
      </trkpt>
      <trkpt lat="47.24202" lon="-1.63072">
        <ele>-93.75</ele>
        <time>2011-11-26T13:45:01Z</time>
      </trkpt>
      <trkpt lat="47.24205" lon="-1.63093">
        <ele>-92.25</ele>
        <time>2011-11-26T13:45:03Z</time>
      </trkpt>
      <trkpt lat="47.24209" lon="-1.63111">
        <ele>-91.5</ele>
        <time>2011-11-26T13:45:06Z</time>
      </trkpt>
      <trkpt lat="47.24214" lon="-1.63124">
        <ele>-90.5</ele>
        <time>2011-11-26T13:45:08Z</time>
      </trkpt>
      <trkpt lat="47.2422" lon="-1.63141">
        <ele>-91</ele>
        <time>2011-11-26T13:45:11Z</time>
      </trkpt>
      <trkpt lat="47.24227" lon="-1.63155">
        <ele>-90.5</ele>
        <time>2011-11-26T13:45:14Z</time>
      </trkpt>
      <trkpt lat="47.24234" lon="-1.63165">
        <ele>-89</ele>
        <time>2011-11-26T13:45:16Z</time>
      </trkpt>
      <trkpt lat="47.24242" lon="-1.63176">
        <ele>-88.25</ele>
        <time>2011-11-26T13:45:19Z</time>
      </trkpt>
      <trkpt lat="47.2425" lon="-1.63191">
        <ele>-88.25</ele>
        <time>2011-11-26T13:45:22Z</time>
      </trkpt>
      <trkpt lat="47.24259" lon="-1.632">
        <ele>-90.75</ele>
        <time>2011-11-26T13:45:25Z</time>
      </trkpt>
      <trkpt lat="47.24268" lon="-1.63205">
        <ele>-95.5</ele>
        <time>2011-11-26T13:45:28Z</time>
      </trkpt>
      <trkpt lat="47.24276" lon="-1.63213">
        <ele>-100</ele>
        <time>2011-11-26T13:45:31Z</time>
      </trkpt>
      <trkpt lat="47.24282" lon="-1.63225">
        <ele>-105</ele>
        <time>2011-11-26T13:45:35Z</time>
      </trkpt>
      <trkpt lat="47.24289" lon="-1.63234">
        <ele>-108</ele>
        <time>2011-11-26T13:45:39Z</time>
      </trkpt>
      <trkpt lat="47.24296" lon="-1.63243">
        <ele>-106.5</ele>
        <time>2011-11-26T13:45:42Z</time>
      </trkpt>
      <trkpt lat="47.24303" lon="-1.63255">
        <ele>-104.75</ele>
        <time>2011-11-26T13:45:45Z</time>
      </trkpt>
      <trkpt lat="47.24312" lon="-1.63268">
        <ele>-103.75</ele>
        <time>2011-11-26T13:45:49Z</time>
      </trkpt>
      <trkpt lat="47.2432" lon="-1.63278">
        <ele>-102</ele>
        <time>2011-11-26T13:45:54Z</time>
      </trkpt>
      <trkpt lat="47.24327" lon="-1.63287">
        <ele>-101.5</ele>
        <time>2011-11-26T13:46:03Z</time>
      </trkpt>
      <trkpt lat="47.24335" lon="-1.63297">
        <ele>-102.25</ele>
        <time>2011-11-26T13:46:09Z</time>
      </trkpt>
      <trkpt lat="47.24342" lon="-1.6331">
        <ele>-102.25</ele>
        <time>2011-11-26T13:46:12Z</time>
      </trkpt>
      <trkpt lat="47.24349" lon="-1.6332">
        <ele>-102</ele>
        <time>2011-11-26T13:46:15Z</time>
      </trkpt>
      <trkpt lat="47.24359" lon="-1.63332">
        <ele>-102</ele>
        <time>2011-11-26T13:46:18Z</time>
      </trkpt>
      <trkpt lat="47.24366" lon="-1.63345">
        <ele>-102.25</ele>
        <time>2011-11-26T13:46:21Z</time>
      </trkpt>
      <trkpt lat="47.24373" lon="-1.63354">
        <ele>-101.5</ele>
        <time>2011-11-26T13:46:29Z</time>
      </trkpt>
      <trkpt lat="47.24374" lon="-1.63367">
        <ele>-80.25</ele>
        <time>2011-11-26T13:47:45Z</time>
      </trkpt>
      <trkpt lat="47.24371" lon="-1.63384">
        <ele>-82.5</ele>
        <time>2011-11-26T13:47:51Z</time>
      </trkpt>
      <trkpt lat="47.24365" lon="-1.634">
        <ele>-80.75</ele>
        <time>2011-11-26T13:47:54Z</time>
      </trkpt>
      <trkpt lat="47.24366" lon="-1.63414">
        <ele>-80.5</ele>
        <time>2011-11-26T13:48:01Z</time>
      </trkpt>
      <trkpt lat="47.24375" lon="-1.63418">
        <ele>-77.25</ele>
        <time>2011-11-26T13:48:10Z</time>
      </trkpt>
      <trkpt lat="47.24383" lon="-1.63428">
        <ele>-73.25</ele>
        <time>2011-11-26T13:49:59Z</time>
      </trkpt>
      <trkpt lat="47.24387" lon="-1.63444">
        <ele>-75.25</ele>
        <time>2011-11-26T13:50:03Z</time>
      </trkpt>
      <trkpt lat="47.24392" lon="-1.63459">
        <ele>-76.5</ele>
        <time>2011-11-26T13:50:05Z</time>
      </trkpt>
      <trkpt lat="47.24395" lon="-1.63474">
        <ele>-77.75</ele>
        <time>2011-11-26T13:50:08Z</time>
      </trkpt>
      <trkpt lat="47.24397" lon="-1.63492">
        <ele>-77</ele>
        <time>2011-11-26T13:50:12Z</time>
      </trkpt>
      <trkpt lat="47.24396" lon="-1.63508">
        <ele>-76.5</ele>
        <time>2011-11-26T13:50:15Z</time>
      </trkpt>
      <trkpt lat="47.24391" lon="-1.63522">
        <ele>-75.75</ele>
        <time>2011-11-26T13:50:18Z</time>
      </trkpt>
      <trkpt lat="47.24383" lon="-1.63539">
        <ele>-75.5</ele>
        <time>2011-11-26T13:50:21Z</time>
      </trkpt>
      <trkpt lat="47.2438" lon="-1.63554">
        <ele>-77</ele>
        <time>2011-11-26T13:50:24Z</time>
      </trkpt>
      <trkpt lat="47.24379" lon="-1.6357">
        <ele>-77.25</ele>
        <time>2011-11-26T13:50:27Z</time>
      </trkpt>
      <trkpt lat="47.24385" lon="-1.63581">
        <ele>-90.75</ele>
        <time>2011-11-26T13:50:35Z</time>
      </trkpt>
      <trkpt lat="47.24389" lon="-1.63599">
        <ele>-97.5</ele>
        <time>2011-11-26T13:50:39Z</time>
      </trkpt>
      <trkpt lat="47.24391" lon="-1.63617">
        <ele>-100.25</ele>
        <time>2011-11-26T13:50:42Z</time>
      </trkpt>
      <trkpt lat="47.24392" lon="-1.6363">
        <ele>-98.5</ele>
        <time>2011-11-26T13:50:44Z</time>
      </trkpt>
      <trkpt lat="47.24393" lon="-1.63645">
        <ele>-95.75</ele>
        <time>2011-11-26T13:50:46Z</time>
      </trkpt>
      <trkpt lat="47.24394" lon="-1.63663">
        <ele>-91</ele>
        <time>2011-11-26T13:50:49Z</time>
      </trkpt>
      <trkpt lat="47.24395" lon="-1.6368">
        <ele>-85.25</ele>
        <time>2011-11-26T13:50:51Z</time>
      </trkpt>
      <trkpt lat="47.24394" lon="-1.63694">
        <ele>-81.75</ele>
        <time>2011-11-26T13:50:53Z</time>
      </trkpt>
      <trkpt lat="47.24391" lon="-1.63707">
        <ele>-80.5</ele>
        <time>2011-11-26T13:50:55Z</time>
      </trkpt>
      <trkpt lat="47.24388" lon="-1.63725">
        <ele>-79</ele>
        <time>2011-11-26T13:50:58Z</time>
      </trkpt>
      <trkpt lat="47.24389" lon="-1.63742">
        <ele>-76.75</ele>
        <time>2011-11-26T13:51:02Z</time>
      </trkpt>
      <trkpt lat="47.24396" lon="-1.63749">
        <ele>-77.75</ele>
        <time>2011-11-26T13:51:15Z</time>
      </trkpt>
      <trkpt lat="47.24404" lon="-1.63743">
        <ele>-80</ele>
        <time>2011-11-26T13:51:24Z</time>
      </trkpt>
      <trkpt lat="47.24413" lon="-1.63739">
        <ele>-79.75</ele>
        <time>2011-11-26T13:51:28Z</time>
      </trkpt>
      <trkpt lat="47.24424" lon="-1.63741">
        <ele>-79.5</ele>
        <time>2011-11-26T13:51:32Z</time>
      </trkpt>
      <trkpt lat="47.24433" lon="-1.63746">
        <ele>-81.5</ele>
        <time>2011-11-26T13:51:36Z</time>
      </trkpt>
      <trkpt lat="47.24442" lon="-1.63753">
        <ele>-84.5</ele>
        <time>2011-11-26T13:51:40Z</time>
      </trkpt>
      <trkpt lat="47.24447" lon="-1.63769">
        <ele>-86.75</ele>
        <time>2011-11-26T13:51:47Z</time>
      </trkpt>
      <trkpt lat="47.24444" lon="-1.63782">
        <ele>-86.75</ele>
        <time>2011-11-26T13:51:49Z</time>
      </trkpt>
      <trkpt lat="47.24439" lon="-1.63804">
        <ele>-85.5</ele>
        <time>2011-11-26T13:51:51Z</time>
      </trkpt>
      <trkpt lat="47.24434" lon="-1.63825">
        <ele>-83.5</ele>
        <time>2011-11-26T13:51:54Z</time>
      </trkpt>
      <trkpt lat="47.24429" lon="-1.63841">
        <ele>-81</ele>
        <time>2011-11-26T13:51:56Z</time>
      </trkpt>
      <trkpt lat="47.24427" lon="-1.63856">
        <ele>-77.5</ele>
        <time>2011-11-26T13:51:58Z</time>
      </trkpt>
      <trkpt lat="47.24429" lon="-1.6387">
        <ele>-73.25</ele>
        <time>2011-11-26T13:52:00Z</time>
      </trkpt>
      <trkpt lat="47.24432" lon="-1.63884">
        <ele>-69.75</ele>
        <time>2011-11-26T13:52:02Z</time>
      </trkpt>
      <trkpt lat="47.24437" lon="-1.63899">
        <ele>-68.25</ele>
        <time>2011-11-26T13:52:04Z</time>
      </trkpt>
      <trkpt lat="47.24442" lon="-1.63914">
        <ele>-68</ele>
        <time>2011-11-26T13:52:07Z</time>
      </trkpt>
      <trkpt lat="47.24447" lon="-1.63928">
        <ele>-67.5</ele>
        <time>2011-11-26T13:52:09Z</time>
      </trkpt>
      <trkpt lat="47.2445" lon="-1.6394">
        <ele>-67.25</ele>
        <time>2011-11-26T13:52:11Z</time>
      </trkpt>
      <trkpt lat="47.24455" lon="-1.63957">
        <ele>-67.75</ele>
        <time>2011-11-26T13:52:14Z</time>
      </trkpt>
      <trkpt lat="47.2446" lon="-1.63971">
        <ele>-66.75</ele>
        <time>2011-11-26T13:52:16Z</time>
      </trkpt>
      <trkpt lat="47.24465" lon="-1.63986">
        <ele>-65.75</ele>
        <time>2011-11-26T13:52:19Z</time>
      </trkpt>
      <trkpt lat="47.2447" lon="-1.64001">
        <ele>-66</ele>
        <time>2011-11-26T13:52:21Z</time>
      </trkpt>
      <trkpt lat="47.24474" lon="-1.64013">
        <ele>-66.75</ele>
        <time>2011-11-26T13:52:23Z</time>
      </trkpt>
      <trkpt lat="47.24478" lon="-1.64031">
        <ele>-69.25</ele>
        <time>2011-11-26T13:52:26Z</time>
      </trkpt>
      <trkpt lat="47.24483" lon="-1.64047">
        <ele>-73</ele>
        <time>2011-11-26T13:52:29Z</time>
      </trkpt>
      <trkpt lat="47.24488" lon="-1.64059">
        <ele>-75.25</ele>
        <time>2011-11-26T13:52:31Z</time>
      </trkpt>
      <trkpt lat="47.24493" lon="-1.64071">
        <ele>-77.5</ele>
        <time>2011-11-26T13:52:34Z</time>
      </trkpt>
      <trkpt lat="47.24499" lon="-1.64081">
        <ele>-77.75</ele>
        <time>2011-11-26T13:52:36Z</time>
      </trkpt>
      <trkpt lat="47.24506" lon="-1.64093">
        <ele>-77</ele>
        <time>2011-11-26T13:52:38Z</time>
      </trkpt>
      <trkpt lat="47.24511" lon="-1.64104">
        <ele>-77.25</ele>
        <time>2011-11-26T13:52:40Z</time>
      </trkpt>
      <trkpt lat="47.24516" lon="-1.64116">
        <ele>-77.5</ele>
        <time>2011-11-26T13:52:42Z</time>
      </trkpt>
      <trkpt lat="47.24521" lon="-1.64128">
        <ele>-78</ele>
        <time>2011-11-26T13:52:45Z</time>
      </trkpt>
      <trkpt lat="47.24527" lon="-1.64138">
        <ele>-79</ele>
        <time>2011-11-26T13:52:47Z</time>
      </trkpt>
      <trkpt lat="47.24534" lon="-1.64154">
        <ele>-79.75</ele>
        <time>2011-11-26T13:52:50Z</time>
      </trkpt>
      <trkpt lat="47.24542" lon="-1.64169">
        <ele>-81</ele>
        <time>2011-11-26T13:52:53Z</time>
      </trkpt>
      <trkpt lat="47.24549" lon="-1.64184">
        <ele>-80.25</ele>
        <time>2011-11-26T13:52:55Z</time>
      </trkpt>
      <trkpt lat="47.24557" lon="-1.642">
        <ele>-79.5</ele>
        <time>2011-11-26T13:52:58Z</time>
      </trkpt>
      <trkpt lat="47.24563" lon="-1.64212">
        <ele>-79.5</ele>
        <time>2011-11-26T13:53:00Z</time>
      </trkpt>
      <trkpt lat="47.2457" lon="-1.64227">
        <ele>-80.5</ele>
        <time>2011-11-26T13:53:03Z</time>
      </trkpt>
      <trkpt lat="47.24576" lon="-1.6424">
        <ele>-80.75</ele>
        <time>2011-11-26T13:53:06Z</time>
      </trkpt>
      <trkpt lat="47.24583" lon="-1.64252">
        <ele>-81.25</ele>
        <time>2011-11-26T13:53:09Z</time>
      </trkpt>
      <trkpt lat="47.24592" lon="-1.64256">
        <ele>-80.25</ele>
        <time>2011-11-26T13:53:23Z</time>
      </trkpt>
      <trkpt lat="47.24598" lon="-1.64268">
        <ele>-83</ele>
        <time>2011-11-26T13:53:29Z</time>
      </trkpt>
      <trkpt lat="47.24604" lon="-1.64278">
        <ele>-83.75</ele>
        <time>2011-11-26T13:53:32Z</time>
      </trkpt>
      <trkpt lat="47.24611" lon="-1.64295">
        <ele>-82.5</ele>
        <time>2011-11-26T13:53:36Z</time>
      </trkpt>
      <trkpt lat="47.24618" lon="-1.64307">
        <ele>-81.5</ele>
        <time>2011-11-26T13:53:39Z</time>
      </trkpt>
      <trkpt lat="47.2463" lon="-1.64312">
        <ele>-79.25</ele>
        <time>2011-11-26T13:53:43Z</time>
      </trkpt>
      <trkpt lat="47.24641" lon="-1.64306">
        <ele>-79.75</ele>
        <time>2011-11-26T13:53:47Z</time>
      </trkpt>
      <trkpt lat="47.24652" lon="-1.643">
        <ele>-80</ele>
        <time>2011-11-26T13:53:51Z</time>
      </trkpt>
      <trkpt lat="47.2466" lon="-1.64291">
        <ele>-81.25</ele>
        <time>2011-11-26T13:53:55Z</time>
      </trkpt>
      <trkpt lat="47.24669" lon="-1.6428">
        <ele>-82.25</ele>
        <time>2011-11-26T13:54:00Z</time>
      </trkpt>
      <trkpt lat="47.24679" lon="-1.64271">
        <ele>-83</ele>
        <time>2011-11-26T13:54:04Z</time>
      </trkpt>
      <trkpt lat="47.24687" lon="-1.64264">
        <ele>-83</ele>
        <time>2011-11-26T13:54:07Z</time>
      </trkpt>
      <trkpt lat="47.24695" lon="-1.64256">
        <ele>-83.25</ele>
        <time>2011-11-26T13:54:10Z</time>
      </trkpt>
      <trkpt lat="47.24705" lon="-1.64248">
        <ele>-84</ele>
        <time>2011-11-26T13:54:14Z</time>
      </trkpt>
      <trkpt lat="47.24714" lon="-1.64239">
        <ele>-84</ele>
        <time>2011-11-26T13:54:18Z</time>
      </trkpt>
      <trkpt lat="47.24723" lon="-1.64229">
        <ele>-85</ele>
        <time>2011-11-26T13:54:22Z</time>
      </trkpt>
      <trkpt lat="47.24732" lon="-1.6422">
        <ele>-85</ele>
        <time>2011-11-26T13:54:25Z</time>
      </trkpt>
      <trkpt lat="47.24741" lon="-1.64214">
        <ele>-85</ele>
        <time>2011-11-26T13:54:29Z</time>
      </trkpt>
      <trkpt lat="47.24751" lon="-1.64209">
        <ele>-85.75</ele>
        <time>2011-11-26T13:54:34Z</time>
      </trkpt>
      <trkpt lat="47.24762" lon="-1.64207">
        <ele>-85.75</ele>
        <time>2011-11-26T13:54:38Z</time>
      </trkpt>
      <trkpt lat="47.24773" lon="-1.64205">
        <ele>-85.75</ele>
        <time>2011-11-26T13:54:42Z</time>
      </trkpt>
      <trkpt lat="47.24782" lon="-1.64206">
        <ele>-86.25</ele>
        <time>2011-11-26T13:54:45Z</time>
      </trkpt>
      <trkpt lat="47.24793" lon="-1.64206">
        <ele>-87</ele>
        <time>2011-11-26T13:54:49Z</time>
      </trkpt>
      <trkpt lat="47.24802" lon="-1.64207">
        <ele>-87</ele>
        <time>2011-11-26T13:55:27Z</time>
      </trkpt>
      <trkpt lat="47.24811" lon="-1.64209">
        <ele>-87.25</ele>
        <time>2011-11-26T13:55:50Z</time>
      </trkpt>
      <trkpt lat="47.24813" lon="-1.64223">
        <ele>-88</ele>
        <time>2011-11-26T13:56:06Z</time>
      </trkpt>
      <trkpt lat="47.24812" lon="-1.64236">
        <ele>-89</ele>
        <time>2011-11-26T13:56:19Z</time>
      </trkpt>
      <trkpt lat="47.24804" lon="-1.64227">
        <ele>-90</ele>
        <time>2011-11-26T13:56:25Z</time>
      </trkpt>
      <trkpt lat="47.24807" lon="-1.6424">
        <ele>-90</ele>
        <time>2011-11-26T13:56:34Z</time>
      </trkpt>
      <trkpt lat="47.24798" lon="-1.64232">
        <ele>-90.75</ele>
        <time>2011-11-26T13:56:43Z</time>
      </trkpt>
      <trkpt lat="47.24795" lon="-1.64216">
        <ele>-91</ele>
        <time>2011-11-26T13:56:47Z</time>
      </trkpt>
      <trkpt lat="47.24803" lon="-1.64223">
        <ele>-91</ele>
        <time>2011-11-26T13:57:02Z</time>
      </trkpt>
      <trkpt lat="47.248" lon="-1.64237">
        <ele>-91</ele>
        <time>2011-11-26T13:57:11Z</time>
      </trkpt>
      <trkpt lat="47.24804" lon="-1.64223">
        <ele>-91</ele>
        <time>2011-11-26T13:57:24Z</time>
      </trkpt>
      <trkpt lat="47.24805" lon="-1.64209">
        <ele>-90</ele>
        <time>2011-11-26T13:57:30Z</time>
      </trkpt>
      <trkpt lat="47.24812" lon="-1.64217">
        <ele>-90.25</ele>
        <time>2011-11-26T13:58:18Z</time>
      </trkpt>
      <trkpt lat="47.24814" lon="-1.64231">
        <ele>-90</ele>
        <time>2011-11-26T13:58:32Z</time>
      </trkpt>
      <trkpt lat="47.2481" lon="-1.64244">
        <ele>-90.5</ele>
        <time>2011-11-26T13:58:46Z</time>
      </trkpt>
      <trkpt lat="47.24802" lon="-1.64238">
        <ele>-89</ele>
        <time>2011-11-26T13:58:51Z</time>
      </trkpt>
      <trkpt lat="47.24798" lon="-1.64224">
        <ele>-89</ele>
        <time>2011-11-26T13:58:55Z</time>
      </trkpt>
      <trkpt lat="47.24796" lon="-1.64211">
        <ele>-89</ele>
        <time>2011-11-26T13:58:59Z</time>
      </trkpt>
      <trkpt lat="47.24806" lon="-1.64213">
        <ele>-88</ele>
        <time>2011-11-26T13:59:09Z</time>
      </trkpt>
      <trkpt lat="47.24802" lon="-1.64226">
        <ele>-88</ele>
        <time>2011-11-26T13:59:21Z</time>
      </trkpt>
      <trkpt lat="47.24801" lon="-1.64211">
        <ele>-89.25</ele>
        <time>2011-11-26T13:59:30Z</time>
      </trkpt>
      <trkpt lat="47.2481" lon="-1.64218">
        <ele>-90</ele>
        <time>2011-11-26T14:01:52Z</time>
      </trkpt>
      <trkpt lat="47.24811" lon="-1.64233">
        <ele>-90</ele>
        <time>2011-11-26T14:01:58Z</time>
      </trkpt>
      <trkpt lat="47.24801" lon="-1.64232">
        <ele>-88</ele>
        <time>2011-11-26T14:02:08Z</time>
      </trkpt>
      <trkpt lat="47.24797" lon="-1.64219">
        <ele>-88</ele>
        <time>2011-11-26T14:02:13Z</time>
      </trkpt>
      <trkpt lat="47.24801" lon="-1.64207">
        <ele>-89</ele>
        <time>2011-11-26T14:02:21Z</time>
      </trkpt>
      <trkpt lat="47.24809" lon="-1.64214">
        <ele>-90.75</ele>
        <time>2011-11-26T14:02:31Z</time>
      </trkpt>
      <trkpt lat="47.24811" lon="-1.64227">
        <ele>-90</ele>
        <time>2011-11-26T14:02:37Z</time>
      </trkpt>
      <trkpt lat="47.24808" lon="-1.64242">
        <ele>-90.25</ele>
        <time>2011-11-26T14:02:42Z</time>
      </trkpt>
      <trkpt lat="47.248" lon="-1.6423">
        <ele>-89.75</ele>
        <time>2011-11-26T14:02:46Z</time>
      </trkpt>
      <trkpt lat="47.24805" lon="-1.64218">
        <ele>-90</ele>
        <time>2011-11-26T14:02:52Z</time>
      </trkpt>
      <trkpt lat="47.24799" lon="-1.6423">
        <ele>-90</ele>
        <time>2011-11-26T14:03:01Z</time>
      </trkpt>
      <trkpt lat="47.24802" lon="-1.64243">
        <ele>-90</ele>
        <time>2011-11-26T14:03:06Z</time>
      </trkpt>
      <trkpt lat="47.24804" lon="-1.6423">
        <ele>-90</ele>
        <time>2011-11-26T14:03:12Z</time>
      </trkpt>
      <trkpt lat="47.24807" lon="-1.64217">
        <ele>-89</ele>
        <time>2011-11-26T14:03:23Z</time>
      </trkpt>
      <trkpt lat="47.24817" lon="-1.64218">
        <ele>-89.75</ele>
        <time>2011-11-26T14:03:30Z</time>
      </trkpt>
      <trkpt lat="47.24827" lon="-1.64222">
        <ele>-90</ele>
        <time>2011-11-26T14:03:34Z</time>
      </trkpt>
      <trkpt lat="47.24836" lon="-1.64226">
        <ele>-90</ele>
        <time>2011-11-26T14:03:37Z</time>
      </trkpt>
      <trkpt lat="47.24846" lon="-1.64227">
        <ele>-90</ele>
        <time>2011-11-26T14:03:40Z</time>
      </trkpt>
      <trkpt lat="47.24857" lon="-1.64227">
        <ele>-90</ele>
        <time>2011-11-26T14:03:43Z</time>
      </trkpt>
      <trkpt lat="47.24867" lon="-1.64228">
        <ele>-90.25</ele>
        <time>2011-11-26T14:03:46Z</time>
      </trkpt>
      <trkpt lat="47.24877" lon="-1.64229">
        <ele>-90.75</ele>
        <time>2011-11-26T14:03:48Z</time>
      </trkpt>
      <trkpt lat="47.24887" lon="-1.6423">
        <ele>-91</ele>
        <time>2011-11-26T14:03:50Z</time>
      </trkpt>
      <trkpt lat="47.24899" lon="-1.6423">
        <ele>-91</ele>
        <time>2011-11-26T14:03:53Z</time>
      </trkpt>
      <trkpt lat="47.2491" lon="-1.64229">
        <ele>-91.5</ele>
        <time>2011-11-26T14:03:56Z</time>
      </trkpt>
      <trkpt lat="47.24921" lon="-1.64235">
        <ele>-92</ele>
        <time>2011-11-26T14:04:00Z</time>
      </trkpt>
      <trkpt lat="47.24929" lon="-1.64247">
        <ele>-92.75</ele>
        <time>2011-11-26T14:04:04Z</time>
      </trkpt>
      <trkpt lat="47.24933" lon="-1.64261">
        <ele>-95.5</ele>
        <time>2011-11-26T14:04:08Z</time>
      </trkpt>
      <trkpt lat="47.24937" lon="-1.64277">
        <ele>-98.75</ele>
        <time>2011-11-26T14:04:12Z</time>
      </trkpt>
      <trkpt lat="47.24942" lon="-1.64295">
        <ele>-100</ele>
        <time>2011-11-26T14:04:16Z</time>
      </trkpt>
      <trkpt lat="47.24946" lon="-1.64308">
        <ele>-99.25</ele>
        <time>2011-11-26T14:04:18Z</time>
      </trkpt>
      <trkpt lat="47.24951" lon="-1.64326">
        <ele>-97.25</ele>
        <time>2011-11-26T14:04:21Z</time>
      </trkpt>
      <trkpt lat="47.24954" lon="-1.64344">
        <ele>-97.25</ele>
        <time>2011-11-26T14:04:24Z</time>
      </trkpt>
      <trkpt lat="47.24957" lon="-1.64359">
        <ele>-97.5</ele>
        <time>2011-11-26T14:04:26Z</time>
      </trkpt>
      <trkpt lat="47.24961" lon="-1.64375">
        <ele>-97.25</ele>
        <time>2011-11-26T14:04:29Z</time>
      </trkpt>
      <trkpt lat="47.24964" lon="-1.64389">
        <ele>-97</ele>
        <time>2011-11-26T14:04:31Z</time>
      </trkpt>
      <trkpt lat="47.24969" lon="-1.64406">
        <ele>-96.5</ele>
        <time>2011-11-26T14:04:34Z</time>
      </trkpt>
      <trkpt lat="47.24973" lon="-1.64424">
        <ele>-96.5</ele>
        <time>2011-11-26T14:04:37Z</time>
      </trkpt>
      <trkpt lat="47.24977" lon="-1.64439">
        <ele>-96.75</ele>
        <time>2011-11-26T14:04:39Z</time>
      </trkpt>
      <trkpt lat="47.24983" lon="-1.64457">
        <ele>-96.25</ele>
        <time>2011-11-26T14:04:42Z</time>
      </trkpt>
      <trkpt lat="47.24987" lon="-1.64473">
        <ele>-96</ele>
        <time>2011-11-26T14:04:44Z</time>
      </trkpt>
      <trkpt lat="47.2499" lon="-1.64486">
        <ele>-96</ele>
        <time>2011-11-26T14:04:46Z</time>
      </trkpt>
      <trkpt lat="47.24994" lon="-1.64499">
        <ele>-96</ele>
        <time>2011-11-26T14:04:48Z</time>
      </trkpt>
      <trkpt lat="47.24998" lon="-1.64511">
        <ele>-95.75</ele>
        <time>2011-11-26T14:04:50Z</time>
      </trkpt>
      <trkpt lat="47.25004" lon="-1.64527">
        <ele>-94</ele>
        <time>2011-11-26T14:04:52Z</time>
      </trkpt>
      <trkpt lat="47.25009" lon="-1.64542">
        <ele>-92.5</ele>
        <time>2011-11-26T14:04:55Z</time>
      </trkpt>
      <trkpt lat="47.25014" lon="-1.64558">
        <ele>-92.75</ele>
        <time>2011-11-26T14:04:58Z</time>
      </trkpt>
      <trkpt lat="47.25018" lon="-1.64572">
        <ele>-92.75</ele>
        <time>2011-11-26T14:05:02Z</time>
      </trkpt>
      <trkpt lat="47.25025" lon="-1.64582">
        <ele>-91</ele>
        <time>2011-11-26T14:05:07Z</time>
      </trkpt>
      <trkpt lat="47.25036" lon="-1.64577">
        <ele>-91.5</ele>
        <time>2011-11-26T14:05:12Z</time>
      </trkpt>
      <trkpt lat="47.25044" lon="-1.6457">
        <ele>-91.75</ele>
        <time>2011-11-26T14:05:15Z</time>
      </trkpt>
      <trkpt lat="47.25055" lon="-1.64561">
        <ele>-91.5</ele>
        <time>2011-11-26T14:05:18Z</time>
      </trkpt>
      <trkpt lat="47.25063" lon="-1.64553">
        <ele>-91.5</ele>
        <time>2011-11-26T14:05:20Z</time>
      </trkpt>
      <trkpt lat="47.25072" lon="-1.64545">
        <ele>-92.5</ele>
        <time>2011-11-26T14:05:23Z</time>
      </trkpt>
      <trkpt lat="47.25082" lon="-1.64534">
        <ele>-94.5</ele>
        <time>2011-11-26T14:05:26Z</time>
      </trkpt>
      <trkpt lat="47.2509" lon="-1.64526">
        <ele>-96.25</ele>
        <time>2011-11-26T14:05:29Z</time>
      </trkpt>
      <trkpt lat="47.25099" lon="-1.64533">
        <ele>-96.25</ele>
        <time>2011-11-26T14:05:33Z</time>
      </trkpt>
      <trkpt lat="47.25101" lon="-1.64547">
        <ele>-96.25</ele>
        <time>2011-11-26T14:05:35Z</time>
      </trkpt>
      <trkpt lat="47.25102" lon="-1.64562">
        <ele>-96.75</ele>
        <time>2011-11-26T14:05:38Z</time>
      </trkpt>
      <trkpt lat="47.25103" lon="-1.64577">
        <ele>-97</ele>
        <time>2011-11-26T14:05:40Z</time>
      </trkpt>
      <trkpt lat="47.25104" lon="-1.64593">
        <ele>-97</ele>
        <time>2011-11-26T14:05:42Z</time>
      </trkpt>
      <trkpt lat="47.25105" lon="-1.64608">
        <ele>-96.5</ele>
        <time>2011-11-26T14:05:44Z</time>
      </trkpt>
      <trkpt lat="47.25105" lon="-1.64622">
        <ele>-96</ele>
        <time>2011-11-26T14:05:46Z</time>
      </trkpt>
      <trkpt lat="47.25104" lon="-1.64638">
        <ele>-96.25</ele>
        <time>2011-11-26T14:05:48Z</time>
      </trkpt>
      <trkpt lat="47.25103" lon="-1.64654">
        <ele>-96.75</ele>
        <time>2011-11-26T14:05:51Z</time>
      </trkpt>
      <trkpt lat="47.25101" lon="-1.64667">
        <ele>-97</ele>
        <time>2011-11-26T14:05:53Z</time>
      </trkpt>
      <trkpt lat="47.25099" lon="-1.64681">
        <ele>-97</ele>
        <time>2011-11-26T14:05:55Z</time>
      </trkpt>
      <trkpt lat="47.25097" lon="-1.64696">
        <ele>-97</ele>
        <time>2011-11-26T14:05:57Z</time>
      </trkpt>
      <trkpt lat="47.25095" lon="-1.64712">
        <ele>-97</ele>
        <time>2011-11-26T14:05:59Z</time>
      </trkpt>
      <trkpt lat="47.25092" lon="-1.64731">
        <ele>-96.75</ele>
        <time>2011-11-26T14:06:02Z</time>
      </trkpt>
      <trkpt lat="47.2509" lon="-1.64753">
        <ele>-95.5</ele>
        <time>2011-11-26T14:06:04Z</time>
      </trkpt>
      <trkpt lat="47.25088" lon="-1.64774">
        <ele>-93.75</ele>
        <time>2011-11-26T14:06:06Z</time>
      </trkpt>
      <trkpt lat="47.25085" lon="-1.64791">
        <ele>-92.5</ele>
        <time>2011-11-26T14:06:08Z</time>
      </trkpt>
      <trkpt lat="47.25083" lon="-1.64808">
        <ele>-92.25</ele>
        <time>2011-11-26T14:06:11Z</time>
      </trkpt>
      <trkpt lat="47.2509" lon="-1.64821">
        <ele>-91.75</ele>
        <time>2011-11-26T14:06:15Z</time>
      </trkpt>
      <trkpt lat="47.25099" lon="-1.64827">
        <ele>-92</ele>
        <time>2011-11-26T14:06:18Z</time>
      </trkpt>
      <trkpt lat="47.25108" lon="-1.64834">
        <ele>-92.25</ele>
        <time>2011-11-26T14:06:23Z</time>
      </trkpt>
      <trkpt lat="47.25117" lon="-1.6484">
        <ele>-92.5</ele>
        <time>2011-11-26T14:06:29Z</time>
      </trkpt>
      <trkpt lat="47.25126" lon="-1.64849">
        <ele>-93</ele>
        <time>2011-11-26T14:06:34Z</time>
      </trkpt>
      <trkpt lat="47.25135" lon="-1.64856">
        <ele>-93.25</ele>
        <time>2011-11-26T14:06:38Z</time>
      </trkpt>
      <trkpt lat="47.25145" lon="-1.64863">
        <ele>-94</ele>
        <time>2011-11-26T14:06:43Z</time>
      </trkpt>
      <trkpt lat="47.25153" lon="-1.64871">
        <ele>-94</ele>
        <time>2011-11-26T14:06:47Z</time>
      </trkpt>
      <trkpt lat="47.25159" lon="-1.64883">
        <ele>-94.75</ele>
        <time>2011-11-26T14:06:51Z</time>
      </trkpt>
      <trkpt lat="47.25163" lon="-1.64895">
        <ele>-95</ele>
        <time>2011-11-26T14:06:55Z</time>
      </trkpt>
      <trkpt lat="47.25168" lon="-1.64911">
        <ele>-94.75</ele>
        <time>2011-11-26T14:06:59Z</time>
      </trkpt>
      <trkpt lat="47.25171" lon="-1.64924">
        <ele>-95.25</ele>
        <time>2011-11-26T14:07:02Z</time>
      </trkpt>
      <trkpt lat="47.25175" lon="-1.64939">
        <ele>-96.5</ele>
        <time>2011-11-26T14:07:07Z</time>
      </trkpt>
      <trkpt lat="47.25177" lon="-1.64954">
        <ele>-97.25</ele>
        <time>2011-11-26T14:07:11Z</time>
      </trkpt>
      <trkpt lat="47.25175" lon="-1.64972">
        <ele>-98.5</ele>
        <time>2011-11-26T14:07:14Z</time>
      </trkpt>
      <trkpt lat="47.25173" lon="-1.64989">
        <ele>-100.5</ele>
        <time>2011-11-26T14:07:18Z</time>
      </trkpt>
      <trkpt lat="47.25172" lon="-1.65005">
        <ele>-102</ele>
        <time>2011-11-26T14:07:21Z</time>
      </trkpt>
      <trkpt lat="47.25172" lon="-1.6502">
        <ele>-104.25</ele>
        <time>2011-11-26T14:07:24Z</time>
      </trkpt>
      <trkpt lat="47.25172" lon="-1.65033">
        <ele>-105</ele>
        <time>2011-11-26T14:07:26Z</time>
      </trkpt>
      <trkpt lat="47.25173" lon="-1.65048">
        <ele>-105</ele>
        <time>2011-11-26T14:07:29Z</time>
      </trkpt>
      <trkpt lat="47.25173" lon="-1.65066">
        <ele>-104.5</ele>
        <time>2011-11-26T14:07:32Z</time>
      </trkpt>
      <trkpt lat="47.25174" lon="-1.65087">
        <ele>-103.25</ele>
        <time>2011-11-26T14:07:35Z</time>
      </trkpt>
      <trkpt lat="47.25174" lon="-1.65103">
        <ele>-100.5</ele>
        <time>2011-11-26T14:07:37Z</time>
      </trkpt>
      <trkpt lat="47.25173" lon="-1.65119">
        <ele>-98.25</ele>
        <time>2011-11-26T14:07:39Z</time>
      </trkpt>
      <trkpt lat="47.25169" lon="-1.65135">
        <ele>-98.25</ele>
        <time>2011-11-26T14:07:42Z</time>
      </trkpt>
      <trkpt lat="47.25166" lon="-1.6515">
        <ele>-98.75</ele>
        <time>2011-11-26T14:07:44Z</time>
      </trkpt>
      <trkpt lat="47.25163" lon="-1.65162">
        <ele>-99</ele>
        <time>2011-11-26T14:07:46Z</time>
      </trkpt>
      <trkpt lat="47.2516" lon="-1.65181">
        <ele>-97.75</ele>
        <time>2011-11-26T14:07:49Z</time>
      </trkpt>
      <trkpt lat="47.25156" lon="-1.65199">
        <ele>-96.25</ele>
        <time>2011-11-26T14:07:52Z</time>
      </trkpt>
      <trkpt lat="47.25156" lon="-1.65213">
        <ele>-95.5</ele>
        <time>2011-11-26T14:07:54Z</time>
      </trkpt>
      <trkpt lat="47.25158" lon="-1.65228">
        <ele>-95</ele>
        <time>2011-11-26T14:07:57Z</time>
      </trkpt>
      <trkpt lat="47.25161" lon="-1.65246">
        <ele>-95.25</ele>
        <time>2011-11-26T14:08:00Z</time>
      </trkpt>
      <trkpt lat="47.25161" lon="-1.65265">
        <ele>-95.75</ele>
        <time>2011-11-26T14:08:03Z</time>
      </trkpt>
      <trkpt lat="47.2516" lon="-1.65278">
        <ele>-95</ele>
        <time>2011-11-26T14:08:05Z</time>
      </trkpt>
      <trkpt lat="47.25157" lon="-1.65295">
        <ele>-94</ele>
        <time>2011-11-26T14:08:07Z</time>
      </trkpt>
      <trkpt lat="47.25153" lon="-1.65316">
        <ele>-92.5</ele>
        <time>2011-11-26T14:08:10Z</time>
      </trkpt>
      <trkpt lat="47.25149" lon="-1.65334">
        <ele>-91</ele>
        <time>2011-11-26T14:08:12Z</time>
      </trkpt>
      <trkpt lat="47.25145" lon="-1.65351">
        <ele>-90.25</ele>
        <time>2011-11-26T14:08:14Z</time>
      </trkpt>
      <trkpt lat="47.25141" lon="-1.65368">
        <ele>-90</ele>
        <time>2011-11-26T14:08:16Z</time>
      </trkpt>
      <trkpt lat="47.25136" lon="-1.65386">
        <ele>-90</ele>
        <time>2011-11-26T14:08:18Z</time>
      </trkpt>
      <trkpt lat="47.2513" lon="-1.65402">
        <ele>-89.75</ele>
        <time>2011-11-26T14:08:20Z</time>
      </trkpt>
      <trkpt lat="47.25123" lon="-1.65417">
        <ele>-89.25</ele>
        <time>2011-11-26T14:08:22Z</time>
      </trkpt>
      <trkpt lat="47.25115" lon="-1.65438">
        <ele>-88</ele>
        <time>2011-11-26T14:08:24Z</time>
      </trkpt>
      <trkpt lat="47.25109" lon="-1.65458">
        <ele>-87</ele>
        <time>2011-11-26T14:08:27Z</time>
      </trkpt>
      <trkpt lat="47.25106" lon="-1.65476">
        <ele>-86.5</ele>
        <time>2011-11-26T14:08:29Z</time>
      </trkpt>
      <trkpt lat="47.25104" lon="-1.65495">
        <ele>-85.75</ele>
        <time>2011-11-26T14:08:31Z</time>
      </trkpt>
      <trkpt lat="47.25102" lon="-1.65515">
        <ele>-85</ele>
        <time>2011-11-26T14:08:33Z</time>
      </trkpt>
      <trkpt lat="47.25098" lon="-1.65534">
        <ele>-84</ele>
        <time>2011-11-26T14:08:35Z</time>
      </trkpt>
      <trkpt lat="47.25093" lon="-1.65552">
        <ele>-82.5</ele>
        <time>2011-11-26T14:08:37Z</time>
      </trkpt>
      <trkpt lat="47.25085" lon="-1.65573">
        <ele>-81.25</ele>
        <time>2011-11-26T14:08:39Z</time>
      </trkpt>
      <trkpt lat="47.25078" lon="-1.65597">
        <ele>-81</ele>
        <time>2011-11-26T14:08:42Z</time>
      </trkpt>
      <trkpt lat="47.25074" lon="-1.65615">
        <ele>-81.5</ele>
        <time>2011-11-26T14:08:44Z</time>
      </trkpt>
      <trkpt lat="47.25072" lon="-1.65629">
        <ele>-82.75</ele>
        <time>2011-11-26T14:08:46Z</time>
      </trkpt>
      <trkpt lat="47.25071" lon="-1.65642">
        <ele>-83.75</ele>
        <time>2011-11-26T14:08:48Z</time>
      </trkpt>
      <trkpt lat="47.25075" lon="-1.65658">
        <ele>-84</ele>
        <time>2011-11-26T14:08:51Z</time>
      </trkpt>
      <trkpt lat="47.25085" lon="-1.65666">
        <ele>-84.5</ele>
        <time>2011-11-26T14:08:55Z</time>
      </trkpt>
      <trkpt lat="47.25097" lon="-1.65671">
        <ele>-85</ele>
        <time>2011-11-26T14:08:58Z</time>
      </trkpt>
      <trkpt lat="47.25108" lon="-1.65676">
        <ele>-85</ele>
        <time>2011-11-26T14:09:01Z</time>
      </trkpt>
      <trkpt lat="47.2512" lon="-1.6568">
        <ele>-85</ele>
        <time>2011-11-26T14:09:04Z</time>
      </trkpt>
      <trkpt lat="47.25131" lon="-1.65684">
        <ele>-86.75</ele>
        <time>2011-11-26T14:09:08Z</time>
      </trkpt>
      <trkpt lat="47.2514" lon="-1.65687">
        <ele>-88.25</ele>
        <time>2011-11-26T14:09:11Z</time>
      </trkpt>
      <trkpt lat="47.25149" lon="-1.6569">
        <ele>-89.75</ele>
        <time>2011-11-26T14:09:14Z</time>
      </trkpt>
      <trkpt lat="47.25161" lon="-1.65693">
        <ele>-90.25</ele>
        <time>2011-11-26T14:09:18Z</time>
      </trkpt>
      <trkpt lat="47.25171" lon="-1.65698">
        <ele>-90.5</ele>
        <time>2011-11-26T14:09:22Z</time>
      </trkpt>
      <trkpt lat="47.25178" lon="-1.6571">
        <ele>-91</ele>
        <time>2011-11-26T14:09:26Z</time>
      </trkpt>
      <trkpt lat="47.25182" lon="-1.65723">
        <ele>-91</ele>
        <time>2011-11-26T14:09:29Z</time>
      </trkpt>
      <trkpt lat="47.25186" lon="-1.65738">
        <ele>-91.25</ele>
        <time>2011-11-26T14:09:32Z</time>
      </trkpt>
      <trkpt lat="47.2519" lon="-1.65753">
        <ele>-91.25</ele>
        <time>2011-11-26T14:09:36Z</time>
      </trkpt>
      <trkpt lat="47.25195" lon="-1.65768">
        <ele>-91.5</ele>
        <time>2011-11-26T14:09:40Z</time>
      </trkpt>
      <trkpt lat="47.25199" lon="-1.65782">
        <ele>-88.5</ele>
        <time>2011-11-26T14:09:44Z</time>
      </trkpt>
      <trkpt lat="47.25203" lon="-1.65795">
        <ele>-88.75</ele>
        <time>2011-11-26T14:09:49Z</time>
      </trkpt>
      <trkpt lat="47.25209" lon="-1.65808">
        <ele>-90</ele>
        <time>2011-11-26T14:09:54Z</time>
      </trkpt>
      <trkpt lat="47.25214" lon="-1.65822">
        <ele>-91.5</ele>
        <time>2011-11-26T14:09:58Z</time>
      </trkpt>
      <trkpt lat="47.25218" lon="-1.65835">
        <ele>-92.5</ele>
        <time>2011-11-26T14:10:03Z</time>
      </trkpt>
      <trkpt lat="47.25222" lon="-1.65851">
        <ele>-93.5</ele>
        <time>2011-11-26T14:10:07Z</time>
      </trkpt>
      <trkpt lat="47.25225" lon="-1.65865">
        <ele>-93</ele>
        <time>2011-11-26T14:10:10Z</time>
      </trkpt>
      <trkpt lat="47.25229" lon="-1.65879">
        <ele>-93.75</ele>
        <time>2011-11-26T14:10:14Z</time>
      </trkpt>
      <trkpt lat="47.25233" lon="-1.65893">
        <ele>-94</ele>
        <time>2011-11-26T14:10:17Z</time>
      </trkpt>
      <trkpt lat="47.25237" lon="-1.65906">
        <ele>-94.75</ele>
        <time>2011-11-26T14:10:20Z</time>
      </trkpt>
      <trkpt lat="47.25241" lon="-1.65919">
        <ele>-95.25</ele>
        <time>2011-11-26T14:10:23Z</time>
      </trkpt>
      <trkpt lat="47.25246" lon="-1.65934">
        <ele>-95.75</ele>
        <time>2011-11-26T14:10:26Z</time>
      </trkpt>
      <trkpt lat="47.25253" lon="-1.65952">
        <ele>-95</ele>
        <time>2011-11-26T14:10:30Z</time>
      </trkpt>
      <trkpt lat="47.25258" lon="-1.65967">
        <ele>-95</ele>
        <time>2011-11-26T14:10:33Z</time>
      </trkpt>
      <trkpt lat="47.25264" lon="-1.65982">
        <ele>-95.25</ele>
        <time>2011-11-26T14:10:36Z</time>
      </trkpt>
      <trkpt lat="47.25271" lon="-1.65996">
        <ele>-96</ele>
        <time>2011-11-26T14:10:39Z</time>
      </trkpt>
      <trkpt lat="47.25276" lon="-1.66007">
        <ele>-96</ele>
        <time>2011-11-26T14:10:41Z</time>
      </trkpt>
      <trkpt lat="47.25282" lon="-1.66019">
        <ele>-96</ele>
        <time>2011-11-26T14:10:44Z</time>
      </trkpt>
      <trkpt lat="47.25287" lon="-1.66031">
        <ele>-95.5</ele>
        <time>2011-11-26T14:10:47Z</time>
      </trkpt>
      <trkpt lat="47.25293" lon="-1.66042">
        <ele>-94</ele>
        <time>2011-11-26T14:10:54Z</time>
      </trkpt>
      <trkpt lat="47.25299" lon="-1.66053">
        <ele>-94</ele>
        <time>2011-11-26T14:11:00Z</time>
      </trkpt>
      <trkpt lat="47.25306" lon="-1.66065">
        <ele>-94</ele>
        <time>2011-11-26T14:11:04Z</time>
      </trkpt>
      <trkpt lat="47.25312" lon="-1.66077">
        <ele>-94</ele>
        <time>2011-11-26T14:11:09Z</time>
      </trkpt>
      <trkpt lat="47.25318" lon="-1.66088">
        <ele>-93.25</ele>
        <time>2011-11-26T14:11:16Z</time>
      </trkpt>
      <trkpt lat="47.25322" lon="-1.66103">
        <ele>-94</ele>
        <time>2011-11-26T14:12:28Z</time>
      </trkpt>
      <trkpt lat="47.25322" lon="-1.66119">
        <ele>-94</ele>
        <time>2011-11-26T14:12:31Z</time>
      </trkpt>
      <trkpt lat="47.25321" lon="-1.66137">
        <ele>-94</ele>
        <time>2011-11-26T14:12:34Z</time>
      </trkpt>
      <trkpt lat="47.2532" lon="-1.66156">
        <ele>-93.75</ele>
        <time>2011-11-26T14:12:37Z</time>
      </trkpt>
      <trkpt lat="47.2532" lon="-1.6617">
        <ele>-93</ele>
        <time>2011-11-26T14:12:39Z</time>
      </trkpt>
      <trkpt lat="47.2532" lon="-1.66188">
        <ele>-92</ele>
        <time>2011-11-26T14:12:43Z</time>
      </trkpt>
      <trkpt lat="47.2532" lon="-1.66205">
        <ele>-92</ele>
        <time>2011-11-26T14:12:46Z</time>
      </trkpt>
      <trkpt lat="47.2532" lon="-1.66222">
        <ele>-92</ele>
        <time>2011-11-26T14:12:49Z</time>
      </trkpt>
      <trkpt lat="47.25321" lon="-1.66242">
        <ele>-92</ele>
        <time>2011-11-26T14:12:52Z</time>
      </trkpt>
      <trkpt lat="47.25321" lon="-1.66259">
        <ele>-91.5</ele>
        <time>2011-11-26T14:12:55Z</time>
      </trkpt>
      <trkpt lat="47.25321" lon="-1.66274">
        <ele>-91.5</ele>
        <time>2011-11-26T14:12:57Z</time>
      </trkpt>
      <trkpt lat="47.25321" lon="-1.66288">
        <ele>-91.5</ele>
        <time>2011-11-26T14:12:59Z</time>
      </trkpt>
      <trkpt lat="47.25322" lon="-1.66302">
        <ele>-91</ele>
        <time>2011-11-26T14:13:01Z</time>
      </trkpt>
      <trkpt lat="47.25323" lon="-1.66315">
        <ele>-91</ele>
        <time>2011-11-26T14:13:03Z</time>
      </trkpt>
      <trkpt lat="47.25324" lon="-1.6633">
        <ele>-91</ele>
        <time>2011-11-26T14:13:05Z</time>
      </trkpt>
      <trkpt lat="47.25324" lon="-1.66346">
        <ele>-91</ele>
        <time>2011-11-26T14:13:08Z</time>
      </trkpt>
      <trkpt lat="47.25325" lon="-1.66359">
        <ele>-91</ele>
        <time>2011-11-26T14:13:10Z</time>
      </trkpt>
      <trkpt lat="47.25325" lon="-1.66377">
        <ele>-91</ele>
        <time>2011-11-26T14:13:13Z</time>
      </trkpt>
      <trkpt lat="47.25325" lon="-1.66395">
        <ele>-91</ele>
        <time>2011-11-26T14:13:16Z</time>
      </trkpt>
      <trkpt lat="47.25325" lon="-1.66414">
        <ele>-90.5</ele>
        <time>2011-11-26T14:13:19Z</time>
      </trkpt>
      <trkpt lat="47.25325" lon="-1.66428">
        <ele>-89.75</ele>
        <time>2011-11-26T14:13:22Z</time>
      </trkpt>
      <trkpt lat="47.25325" lon="-1.66441">
        <ele>-89</ele>
        <time>2011-11-26T14:13:25Z</time>
      </trkpt>
      <trkpt lat="47.25326" lon="-1.66457">
        <ele>-87.75</ele>
        <time>2011-11-26T14:13:29Z</time>
      </trkpt>
      <trkpt lat="47.25325" lon="-1.66476">
        <ele>-86.5</ele>
        <time>2011-11-26T14:13:32Z</time>
      </trkpt>
      <trkpt lat="47.25326" lon="-1.66491">
        <ele>-86</ele>
        <time>2011-11-26T14:13:34Z</time>
      </trkpt>
      <trkpt lat="47.25327" lon="-1.66507">
        <ele>-86</ele>
        <time>2011-11-26T14:13:36Z</time>
      </trkpt>
      <trkpt lat="47.25328" lon="-1.66521">
        <ele>-86.25</ele>
        <time>2011-11-26T14:13:39Z</time>
      </trkpt>
      <trkpt lat="47.2533" lon="-1.66538">
        <ele>-87.75</ele>
        <time>2011-11-26T14:13:43Z</time>
      </trkpt>
      <trkpt lat="47.25332" lon="-1.66553">
        <ele>-89</ele>
        <time>2011-11-26T14:13:47Z</time>
      </trkpt>
      <trkpt lat="47.25334" lon="-1.6657">
        <ele>-89.75</ele>
        <time>2011-11-26T14:13:51Z</time>
      </trkpt>
      <trkpt lat="47.25335" lon="-1.66586">
        <ele>-90.5</ele>
        <time>2011-11-26T14:13:55Z</time>
      </trkpt>
      <trkpt lat="47.25335" lon="-1.66603">
        <ele>-91</ele>
        <time>2011-11-26T14:13:58Z</time>
      </trkpt>
      <trkpt lat="47.25336" lon="-1.66619">
        <ele>-91.25</ele>
        <time>2011-11-26T14:14:01Z</time>
      </trkpt>
      <trkpt lat="47.25336" lon="-1.66634">
        <ele>-92</ele>
        <time>2011-11-26T14:14:04Z</time>
      </trkpt>
      <trkpt lat="47.25335" lon="-1.66649">
        <ele>-92</ele>
        <time>2011-11-26T14:14:07Z</time>
      </trkpt>
      <trkpt lat="47.25335" lon="-1.66665">
        <ele>-92</ele>
        <time>2011-11-26T14:14:11Z</time>
      </trkpt>
      <trkpt lat="47.25335" lon="-1.6668">
        <ele>-92.75</ele>
        <time>2011-11-26T14:14:14Z</time>
      </trkpt>
      <trkpt lat="47.25335" lon="-1.66697">
        <ele>-93</ele>
        <time>2011-11-26T14:14:18Z</time>
      </trkpt>
      <trkpt lat="47.25335" lon="-1.66712">
        <ele>-93</ele>
        <time>2011-11-26T14:14:22Z</time>
      </trkpt>
      <trkpt lat="47.25335" lon="-1.66728">
        <ele>-93</ele>
        <time>2011-11-26T14:14:27Z</time>
      </trkpt>
      <trkpt lat="47.25335" lon="-1.66742">
        <ele>-93.25</ele>
        <time>2011-11-26T14:14:31Z</time>
      </trkpt>
      <trkpt lat="47.25335" lon="-1.66756">
        <ele>-94</ele>
        <time>2011-11-26T14:14:34Z</time>
      </trkpt>
      <trkpt lat="47.25336" lon="-1.6677">
        <ele>-94</ele>
        <time>2011-11-26T14:14:38Z</time>
      </trkpt>
      <trkpt lat="47.25336" lon="-1.66783">
        <ele>-94.75</ele>
        <time>2011-11-26T14:14:41Z</time>
      </trkpt>
      <trkpt lat="47.25336" lon="-1.66799">
        <ele>-95</ele>
        <time>2011-11-26T14:14:45Z</time>
      </trkpt>
      <trkpt lat="47.25336" lon="-1.66816">
        <ele>-95.5</ele>
        <time>2011-11-26T14:14:50Z</time>
      </trkpt>
      <trkpt lat="47.25335" lon="-1.66831">
        <ele>-96.75</ele>
        <time>2011-11-26T14:14:54Z</time>
      </trkpt>
      <trkpt lat="47.25335" lon="-1.66845">
        <ele>-97</ele>
        <time>2011-11-26T14:15:03Z</time>
      </trkpt>
      <trkpt lat="47.25343" lon="-1.66852">
        <ele>-92.5</ele>
        <time>2011-11-26T14:15:18Z</time>
      </trkpt>
      <trkpt lat="47.25355" lon="-1.66854">
        <ele>-92</ele>
        <time>2011-11-26T14:15:23Z</time>
      </trkpt>
      <trkpt lat="47.25366" lon="-1.66856">
        <ele>-92</ele>
        <time>2011-11-26T14:15:26Z</time>
      </trkpt>
      <trkpt lat="47.25378" lon="-1.66857">
        <ele>-92</ele>
        <time>2011-11-26T14:15:29Z</time>
      </trkpt>
      <trkpt lat="47.25387" lon="-1.66858">
        <ele>-92.5</ele>
        <time>2011-11-26T14:15:33Z</time>
      </trkpt>
      <trkpt lat="47.25398" lon="-1.66859">
        <ele>-93</ele>
        <time>2011-11-26T14:15:37Z</time>
      </trkpt>
      <trkpt lat="47.25407" lon="-1.66861">
        <ele>-93.75</ele>
        <time>2011-11-26T14:15:41Z</time>
      </trkpt>
      <trkpt lat="47.25412" lon="-1.66875">
        <ele>-96.25</ele>
        <time>2011-11-26T14:16:00Z</time>
      </trkpt>
      <trkpt lat="47.25408" lon="-1.66886">
        <ele>-96.75</ele>
        <time>2011-11-26T14:16:08Z</time>
      </trkpt>
      <trkpt lat="47.254" lon="-1.66895">
        <ele>-98.75</ele>
        <time>2011-11-26T14:16:16Z</time>
      </trkpt>
      <trkpt lat="47.25399" lon="-1.6691">
        <ele>-99.25</ele>
        <time>2011-11-26T14:16:19Z</time>
      </trkpt>
      <trkpt lat="47.254" lon="-1.66928">
        <ele>-98</ele>
        <time>2011-11-26T14:16:22Z</time>
      </trkpt>
      <trkpt lat="47.25401" lon="-1.66945">
        <ele>-97.75</ele>
        <time>2011-11-26T14:16:25Z</time>
      </trkpt>
      <trkpt lat="47.25402" lon="-1.66964">
        <ele>-98</ele>
        <time>2011-11-26T14:16:28Z</time>
      </trkpt>
      <trkpt lat="47.25403" lon="-1.66978">
        <ele>-98.25</ele>
        <time>2011-11-26T14:16:31Z</time>
      </trkpt>
      <trkpt lat="47.25404" lon="-1.66995">
        <ele>-99.25</ele>
        <time>2011-11-26T14:16:34Z</time>
      </trkpt>
      <trkpt lat="47.25405" lon="-1.67012">
        <ele>-99.75</ele>
        <time>2011-11-26T14:16:37Z</time>
      </trkpt>
      <trkpt lat="47.25406" lon="-1.6703">
        <ele>-100.25</ele>
        <time>2011-11-26T14:16:40Z</time>
      </trkpt>
      <trkpt lat="47.25407" lon="-1.67045">
        <ele>-100.25</ele>
        <time>2011-11-26T14:16:43Z</time>
      </trkpt>
      <trkpt lat="47.25409" lon="-1.67059">
        <ele>-99.25</ele>
        <time>2011-11-26T14:16:45Z</time>
      </trkpt>
      <trkpt lat="47.25411" lon="-1.67079">
        <ele>-97.5</ele>
        <time>2011-11-26T14:16:48Z</time>
      </trkpt>
      <trkpt lat="47.25413" lon="-1.67094">
        <ele>-96</ele>
        <time>2011-11-26T14:16:50Z</time>
      </trkpt>
      <trkpt lat="47.25414" lon="-1.67109">
        <ele>-95</ele>
        <time>2011-11-26T14:16:52Z</time>
      </trkpt>
      <trkpt lat="47.25414" lon="-1.67127">
        <ele>-95.25</ele>
        <time>2011-11-26T14:16:54Z</time>
      </trkpt>
      <trkpt lat="47.25414" lon="-1.67145">
        <ele>-96.25</ele>
        <time>2011-11-26T14:16:57Z</time>
      </trkpt>
      <trkpt lat="47.25415" lon="-1.6716">
        <ele>-97</ele>
        <time>2011-11-26T14:16:59Z</time>
      </trkpt>
      <trkpt lat="47.25416" lon="-1.67178">
        <ele>-96.75</ele>
        <time>2011-11-26T14:17:02Z</time>
      </trkpt>
      <trkpt lat="47.25416" lon="-1.67196">
        <ele>-96.75</ele>
        <time>2011-11-26T14:17:05Z</time>
      </trkpt>
      <trkpt lat="47.25419" lon="-1.67213">
        <ele>-94.5</ele>
        <time>2011-11-26T14:17:08Z</time>
      </trkpt>
      <trkpt lat="47.25421" lon="-1.67231">
        <ele>-92.75</ele>
        <time>2011-11-26T14:17:10Z</time>
      </trkpt>
      <trkpt lat="47.25421" lon="-1.67249">
        <ele>-92.75</ele>
        <time>2011-11-26T14:17:12Z</time>
      </trkpt>
      <trkpt lat="47.25422" lon="-1.67266">
        <ele>-92</ele>
        <time>2011-11-26T14:17:14Z</time>
      </trkpt>
      <trkpt lat="47.25422" lon="-1.67282">
        <ele>-91.25</ele>
        <time>2011-11-26T14:17:16Z</time>
      </trkpt>
      <trkpt lat="47.25423" lon="-1.67299">
        <ele>-90.5</ele>
        <time>2011-11-26T14:17:18Z</time>
      </trkpt>
      <trkpt lat="47.25425" lon="-1.67318">
        <ele>-90</ele>
        <time>2011-11-26T14:17:21Z</time>
      </trkpt>
      <trkpt lat="47.25429" lon="-1.67332">
        <ele>-90</ele>
        <time>2011-11-26T14:17:23Z</time>
      </trkpt>
      <trkpt lat="47.25438" lon="-1.67343">
        <ele>-90.5</ele>
        <time>2011-11-26T14:17:26Z</time>
      </trkpt>
      <trkpt lat="47.25445" lon="-1.67353">
        <ele>-91</ele>
        <time>2011-11-26T14:17:29Z</time>
      </trkpt>
      <trkpt lat="47.25452" lon="-1.67366">
        <ele>-92</ele>
        <time>2011-11-26T14:17:33Z</time>
      </trkpt>
      <trkpt lat="47.25457" lon="-1.67377">
        <ele>-92</ele>
        <time>2011-11-26T14:17:49Z</time>
      </trkpt>
      <trkpt lat="47.25462" lon="-1.67387">
        <ele>-92</ele>
        <time>2011-11-26T14:18:05Z</time>
      </trkpt>
      <trkpt lat="47.25468" lon="-1.67399">
        <ele>-92</ele>
        <time>2011-11-26T14:18:14Z</time>
      </trkpt>
      <trkpt lat="47.25476" lon="-1.67409">
        <ele>-91.25</ele>
        <time>2011-11-26T14:18:18Z</time>
      </trkpt>
      <trkpt lat="47.25485" lon="-1.67423">
        <ele>-90</ele>
        <time>2011-11-26T14:18:22Z</time>
      </trkpt>
      <trkpt lat="47.2549" lon="-1.67437">
        <ele>-89</ele>
        <time>2011-11-26T14:18:26Z</time>
      </trkpt>
      <trkpt lat="47.25493" lon="-1.67455">
        <ele>-87.5</ele>
        <time>2011-11-26T14:18:30Z</time>
      </trkpt>
      <trkpt lat="47.25497" lon="-1.67474">
        <ele>-87.5</ele>
        <time>2011-11-26T14:18:33Z</time>
      </trkpt>
      <trkpt lat="47.25502" lon="-1.67488">
        <ele>-89</ele>
        <time>2011-11-26T14:18:38Z</time>
      </trkpt>
      <trkpt lat="47.25511" lon="-1.67494">
        <ele>-92</ele>
        <time>2011-11-26T14:18:44Z</time>
      </trkpt>
      <trkpt lat="47.2551" lon="-1.67479">
        <ele>-96.25</ele>
        <time>2011-11-26T14:18:51Z</time>
      </trkpt>
      <trkpt lat="47.25507" lon="-1.67463">
        <ele>-100.5</ele>
        <time>2011-11-26T14:18:54Z</time>
      </trkpt>
      <trkpt lat="47.25507" lon="-1.6745">
        <ele>-102.5</ele>
        <time>2011-11-26T14:18:56Z</time>
      </trkpt>
      <trkpt lat="47.25506" lon="-1.6743">
        <ele>-104.25</ele>
        <time>2011-11-26T14:18:59Z</time>
      </trkpt>
      <trkpt lat="47.25502" lon="-1.67413">
        <ele>-105.75</ele>
        <time>2011-11-26T14:19:03Z</time>
      </trkpt>
      <trkpt lat="47.25497" lon="-1.67401">
        <ele>-108.75</ele>
        <time>2011-11-26T14:19:07Z</time>
      </trkpt>
      <trkpt lat="47.2549" lon="-1.6739">
        <ele>-108.75</ele>
        <time>2011-11-26T14:19:11Z</time>
      </trkpt>
      <trkpt lat="47.25479" lon="-1.67381">
        <ele>-109.5</ele>
        <time>2011-11-26T14:19:14Z</time>
      </trkpt>
      <trkpt lat="47.2547" lon="-1.67375">
        <ele>-110.5</ele>
        <time>2011-11-26T14:19:17Z</time>
      </trkpt>
      <trkpt lat="47.25461" lon="-1.67366">
        <ele>-113.5</ele>
        <time>2011-11-26T14:19:20Z</time>
      </trkpt>
      <trkpt lat="47.25454" lon="-1.67352">
        <ele>-111.5</ele>
        <time>2011-11-26T14:19:23Z</time>
      </trkpt>
      <trkpt lat="47.25449" lon="-1.67341">
        <ele>-101.5</ele>
        <time>2011-11-26T14:19:30Z</time>
      </trkpt>
      <trkpt lat="47.25441" lon="-1.67347">
        <ele>-91.5</ele>
        <time>2011-11-26T14:19:50Z</time>
      </trkpt>
      <trkpt lat="47.25448" lon="-1.6736">
        <ele>-92</ele>
        <time>2011-11-26T14:19:58Z</time>
      </trkpt>
      <trkpt lat="47.25455" lon="-1.67373">
        <ele>-92</ele>
        <time>2011-11-26T14:20:02Z</time>
      </trkpt>
      <trkpt lat="47.25462" lon="-1.67385">
        <ele>-92.25</ele>
        <time>2011-11-26T14:20:06Z</time>
      </trkpt>
      <trkpt lat="47.25467" lon="-1.67398">
        <ele>-92</ele>
        <time>2011-11-26T14:20:10Z</time>
      </trkpt>
      <trkpt lat="47.25476" lon="-1.67409">
        <ele>-91</ele>
        <time>2011-11-26T14:20:20Z</time>
      </trkpt>
      <trkpt lat="47.25483" lon="-1.67422">
        <ele>-91</ele>
        <time>2011-11-26T14:20:23Z</time>
      </trkpt>
      <trkpt lat="47.25488" lon="-1.67437">
        <ele>-90.5</ele>
        <time>2011-11-26T14:20:27Z</time>
      </trkpt>
      <trkpt lat="47.25492" lon="-1.6745">
        <ele>-90.25</ele>
        <time>2011-11-26T14:20:30Z</time>
      </trkpt>
      <trkpt lat="47.25495" lon="-1.67467">
        <ele>-90</ele>
        <time>2011-11-26T14:20:33Z</time>
      </trkpt>
      <trkpt lat="47.25499" lon="-1.6748">
        <ele>-90</ele>
        <time>2011-11-26T14:20:35Z</time>
      </trkpt>
      <trkpt lat="47.25507" lon="-1.67492">
        <ele>-90.5</ele>
        <time>2011-11-26T14:20:39Z</time>
      </trkpt>
      <trkpt lat="47.25514" lon="-1.67482">
        <ele>-96</ele>
        <time>2011-11-26T14:20:46Z</time>
      </trkpt>
      <trkpt lat="47.25511" lon="-1.67466">
        <ele>-102.75</ele>
        <time>2011-11-26T14:20:51Z</time>
      </trkpt>
      <trkpt lat="47.25509" lon="-1.67451">
        <ele>-105.5</ele>
        <time>2011-11-26T14:20:54Z</time>
      </trkpt>
      <trkpt lat="47.25506" lon="-1.67436">
        <ele>-108.25</ele>
        <time>2011-11-26T14:20:57Z</time>
      </trkpt>
      <trkpt lat="47.25501" lon="-1.67421">
        <ele>-110.75</ele>
        <time>2011-11-26T14:21:00Z</time>
      </trkpt>
      <trkpt lat="47.255" lon="-1.67402">
        <ele>-110</ele>
        <time>2011-11-26T14:21:04Z</time>
      </trkpt>
      <trkpt lat="47.25495" lon="-1.67389">
        <ele>-105.75</ele>
        <time>2011-11-26T14:21:08Z</time>
      </trkpt>
      <trkpt lat="47.25486" lon="-1.67379">
        <ele>-105.25</ele>
        <time>2011-11-26T14:21:11Z</time>
      </trkpt>
      <trkpt lat="47.25478" lon="-1.67372">
        <ele>-105.75</ele>
        <time>2011-11-26T14:21:14Z</time>
      </trkpt>
      <trkpt lat="47.25468" lon="-1.67362">
        <ele>-107.5</ele>
        <time>2011-11-26T14:21:17Z</time>
      </trkpt>
      <trkpt lat="47.25461" lon="-1.67347">
        <ele>-105.25</ele>
        <time>2011-11-26T14:21:20Z</time>
      </trkpt>
      <trkpt lat="47.25451" lon="-1.67342">
        <ele>-101.5</ele>
        <time>2011-11-26T14:21:24Z</time>
      </trkpt>
      <trkpt lat="47.25443" lon="-1.67349">
        <ele>-98.25</ele>
        <time>2011-11-26T14:21:28Z</time>
      </trkpt>
      <trkpt lat="47.25448" lon="-1.67361">
        <ele>-96</ele>
        <time>2011-11-26T14:21:36Z</time>
      </trkpt>
      <trkpt lat="47.25456" lon="-1.67373">
        <ele>-95</ele>
        <time>2011-11-26T14:21:41Z</time>
      </trkpt>
      <trkpt lat="47.25462" lon="-1.67384">
        <ele>-94.5</ele>
        <time>2011-11-26T14:21:45Z</time>
      </trkpt>
      <trkpt lat="47.25466" lon="-1.67396">
        <ele>-93.75</ele>
        <time>2011-11-26T14:21:50Z</time>
      </trkpt>
      <trkpt lat="47.2547" lon="-1.6741">
        <ele>-91</ele>
        <time>2011-11-26T14:21:58Z</time>
      </trkpt>
      <trkpt lat="47.25473" lon="-1.67424">
        <ele>-90</ele>
        <time>2011-11-26T14:22:01Z</time>
      </trkpt>
      <trkpt lat="47.25479" lon="-1.67441">
        <ele>-89.5</ele>
        <time>2011-11-26T14:22:05Z</time>
      </trkpt>
      <trkpt lat="47.25482" lon="-1.67455">
        <ele>-89.75</ele>
        <time>2011-11-26T14:22:08Z</time>
      </trkpt>
      <trkpt lat="47.25483" lon="-1.6747">
        <ele>-90</ele>
        <time>2011-11-26T14:22:11Z</time>
      </trkpt>
      <trkpt lat="47.25488" lon="-1.67483">
        <ele>-88.75</ele>
        <time>2011-11-26T14:22:15Z</time>
      </trkpt>
      <trkpt lat="47.25499" lon="-1.67484">
        <ele>-88.25</ele>
        <time>2011-11-26T14:22:21Z</time>
      </trkpt>
      <trkpt lat="47.25506" lon="-1.67492">
        <ele>-89.25</ele>
        <time>2011-11-26T14:22:26Z</time>
      </trkpt>
      <trkpt lat="47.25513" lon="-1.67482">
        <ele>-95.75</ele>
        <time>2011-11-26T14:22:34Z</time>
      </trkpt>
      <trkpt lat="47.25512" lon="-1.67467">
        <ele>-102.25</ele>
        <time>2011-11-26T14:22:39Z</time>
      </trkpt>
      <trkpt lat="47.25509" lon="-1.67454">
        <ele>-106.75</ele>
        <time>2011-11-26T14:22:42Z</time>
      </trkpt>
      <trkpt lat="47.25504" lon="-1.67439">
        <ele>-111.75</ele>
        <time>2011-11-26T14:22:45Z</time>
      </trkpt>
      <trkpt lat="47.25499" lon="-1.67422">
        <ele>-113.25</ele>
        <time>2011-11-26T14:22:49Z</time>
      </trkpt>
      <trkpt lat="47.25496" lon="-1.67408">
        <ele>-114.75</ele>
        <time>2011-11-26T14:22:52Z</time>
      </trkpt>
      <trkpt lat="47.25489" lon="-1.67394">
        <ele>-116.25</ele>
        <time>2011-11-26T14:22:56Z</time>
      </trkpt>
      <trkpt lat="47.25481" lon="-1.67383">
        <ele>-116.25</ele>
        <time>2011-11-26T14:22:59Z</time>
      </trkpt>
      <trkpt lat="47.2547" lon="-1.67374">
        <ele>-118</ele>
        <time>2011-11-26T14:23:02Z</time>
      </trkpt>
      <trkpt lat="47.25459" lon="-1.67362">
        <ele>-117.25</ele>
        <time>2011-11-26T14:23:06Z</time>
      </trkpt>
      <trkpt lat="47.25454" lon="-1.67349">
        <ele>-111.25</ele>
        <time>2011-11-26T14:23:09Z</time>
      </trkpt>
      <trkpt lat="47.25445" lon="-1.67347">
        <ele>-105.5</ele>
        <time>2011-11-26T14:23:13Z</time>
      </trkpt>
      <trkpt lat="47.25447" lon="-1.6736">
        <ele>-99</ele>
        <time>2011-11-26T14:23:25Z</time>
      </trkpt>
      <trkpt lat="47.25453" lon="-1.67371">
        <ele>-97.75</ele>
        <time>2011-11-26T14:23:29Z</time>
      </trkpt>
      <trkpt lat="47.25459" lon="-1.67381">
        <ele>-96.5</ele>
        <time>2011-11-26T14:23:33Z</time>
      </trkpt>
      <trkpt lat="47.25465" lon="-1.67391">
        <ele>-92.75</ele>
        <time>2011-11-26T14:24:10Z</time>
      </trkpt>
      <trkpt lat="47.2547" lon="-1.67403">
        <ele>-91.5</ele>
        <time>2011-11-26T14:24:18Z</time>
      </trkpt>
      <trkpt lat="47.25473" lon="-1.67421">
        <ele>-88.5</ele>
        <time>2011-11-26T14:24:23Z</time>
      </trkpt>
      <trkpt lat="47.25478" lon="-1.67438">
        <ele>-88</ele>
        <time>2011-11-26T14:24:26Z</time>
      </trkpt>
      <trkpt lat="47.25481" lon="-1.67453">
        <ele>-88</ele>
        <time>2011-11-26T14:24:28Z</time>
      </trkpt>
      <trkpt lat="47.25483" lon="-1.6747">
        <ele>-88.5</ele>
        <time>2011-11-26T14:24:31Z</time>
      </trkpt>
      <trkpt lat="47.25486" lon="-1.67485">
        <ele>-89.75</ele>
        <time>2011-11-26T14:24:34Z</time>
      </trkpt>
      <trkpt lat="47.25496" lon="-1.67485">
        <ele>-90.5</ele>
        <time>2011-11-26T14:24:38Z</time>
      </trkpt>
      <trkpt lat="47.25507" lon="-1.67492">
        <ele>-91</ele>
        <time>2011-11-26T14:24:43Z</time>
      </trkpt>
      <trkpt lat="47.2551" lon="-1.67478">
        <ele>-97.25</ele>
        <time>2011-11-26T14:24:56Z</time>
      </trkpt>
      <trkpt lat="47.25508" lon="-1.67464">
        <ele>-101</ele>
        <time>2011-11-26T14:25:00Z</time>
      </trkpt>
      <trkpt lat="47.25506" lon="-1.6745">
        <ele>-105.5</ele>
        <time>2011-11-26T14:25:03Z</time>
      </trkpt>
      <trkpt lat="47.25503" lon="-1.67435">
        <ele>-110</ele>
        <time>2011-11-26T14:25:07Z</time>
      </trkpt>
      <trkpt lat="47.25499" lon="-1.67422">
        <ele>-113.5</ele>
        <time>2011-11-26T14:25:11Z</time>
      </trkpt>
      <trkpt lat="47.25501" lon="-1.67408">
        <ele>-114.5</ele>
        <time>2011-11-26T14:25:16Z</time>
      </trkpt>
      <trkpt lat="47.255" lon="-1.67392">
        <ele>-113</ele>
        <time>2011-11-26T14:25:21Z</time>
      </trkpt>
      <trkpt lat="47.25493" lon="-1.67383">
        <ele>-111</ele>
        <time>2011-11-26T14:25:25Z</time>
      </trkpt>
      <trkpt lat="47.25485" lon="-1.67376">
        <ele>-109.5</ele>
        <time>2011-11-26T14:25:28Z</time>
      </trkpt>
      <trkpt lat="47.25475" lon="-1.67366">
        <ele>-109.25</ele>
        <time>2011-11-26T14:25:31Z</time>
      </trkpt>
      <trkpt lat="47.25468" lon="-1.67354">
        <ele>-107.5</ele>
        <time>2011-11-26T14:25:35Z</time>
      </trkpt>
      <trkpt lat="47.25463" lon="-1.67342">
        <ele>-104.5</ele>
        <time>2011-11-26T14:25:38Z</time>
      </trkpt>
      <trkpt lat="47.25454" lon="-1.67339">
        <ele>-102.75</ele>
        <time>2011-11-26T14:25:42Z</time>
      </trkpt>
      <trkpt lat="47.25445" lon="-1.67345">
        <ele>-99.5</ele>
        <time>2011-11-26T14:25:45Z</time>
      </trkpt>
      <trkpt lat="47.25448" lon="-1.67359">
        <ele>-96</ele>
        <time>2011-11-26T14:25:57Z</time>
      </trkpt>
      <trkpt lat="47.25455" lon="-1.67372">
        <ele>-95.75</ele>
        <time>2011-11-26T14:26:02Z</time>
      </trkpt>
      <trkpt lat="47.2546" lon="-1.67383">
        <ele>-95</ele>
        <time>2011-11-26T14:26:07Z</time>
      </trkpt>
      <trkpt lat="47.25469" lon="-1.67388">
        <ele>-93</ele>
        <time>2011-11-26T14:31:18Z</time>
      </trkpt>
      <trkpt lat="47.25476" lon="-1.67398">
        <ele>-92</ele>
        <time>2011-11-26T14:31:24Z</time>
      </trkpt>
      <trkpt lat="47.25466" lon="-1.67395">
        <ele>-93.5</ele>
        <time>2011-11-26T14:31:41Z</time>
      </trkpt>
      <trkpt lat="47.25476" lon="-1.674">
        <ele>-91</ele>
        <time>2011-11-26T14:35:14Z</time>
      </trkpt>
      <trkpt lat="47.25466" lon="-1.67396">
        <ele>-92</ele>
        <time>2011-11-26T14:35:23Z</time>
      </trkpt>
      <trkpt lat="47.25461" lon="-1.67385">
        <ele>-92.75</ele>
        <time>2011-11-26T14:35:28Z</time>
      </trkpt>
      <trkpt lat="47.25455" lon="-1.67374">
        <ele>-94.25</ele>
        <time>2011-11-26T14:35:35Z</time>
      </trkpt>
      <trkpt lat="47.2545" lon="-1.67362">
        <ele>-91</ele>
        <time>2011-11-26T14:36:52Z</time>
      </trkpt>
      <trkpt lat="47.25443" lon="-1.6735">
        <ele>-91</ele>
        <time>2011-11-26T14:36:59Z</time>
      </trkpt>
      <trkpt lat="47.25439" lon="-1.67337">
        <ele>-91.25</ele>
        <time>2011-11-26T14:37:04Z</time>
      </trkpt>
      <trkpt lat="47.25449" lon="-1.67331">
        <ele>-93.5</ele>
        <time>2011-11-26T14:37:08Z</time>
      </trkpt>
      <trkpt lat="47.25457" lon="-1.67337">
        <ele>-97</ele>
        <time>2011-11-26T14:37:13Z</time>
      </trkpt>
      <trkpt lat="47.25465" lon="-1.67349">
        <ele>-98.75</ele>
        <time>2011-11-26T14:37:16Z</time>
      </trkpt>
      <trkpt lat="47.25476" lon="-1.67361">
        <ele>-98.75</ele>
        <time>2011-11-26T14:37:19Z</time>
      </trkpt>
      <trkpt lat="47.25485" lon="-1.67371">
        <ele>-98.75</ele>
        <time>2011-11-26T14:37:22Z</time>
      </trkpt>
      <trkpt lat="47.25495" lon="-1.6738">
        <ele>-98.5</ele>
        <time>2011-11-26T14:37:25Z</time>
      </trkpt>
      <trkpt lat="47.255" lon="-1.67395">
        <ele>-99.5</ele>
        <time>2011-11-26T14:37:30Z</time>
      </trkpt>
      <trkpt lat="47.25503" lon="-1.67411">
        <ele>-97.5</ele>
        <time>2011-11-26T14:37:33Z</time>
      </trkpt>
      <trkpt lat="47.25505" lon="-1.67424">
        <ele>-98</ele>
        <time>2011-11-26T14:37:35Z</time>
      </trkpt>
      <trkpt lat="47.25507" lon="-1.6744">
        <ele>-99</ele>
        <time>2011-11-26T14:37:37Z</time>
      </trkpt>
      <trkpt lat="47.25509" lon="-1.67457">
        <ele>-100.25</ele>
        <time>2011-11-26T14:37:41Z</time>
      </trkpt>
      <trkpt lat="47.2551" lon="-1.67474">
        <ele>-101.75</ele>
        <time>2011-11-26T14:37:45Z</time>
      </trkpt>
      <trkpt lat="47.25503" lon="-1.67482">
        <ele>-100.75</ele>
        <time>2011-11-26T14:37:50Z</time>
      </trkpt>
      <trkpt lat="47.25494" lon="-1.6747">
        <ele>-96.25</ele>
        <time>2011-11-26T14:37:55Z</time>
      </trkpt>
      <trkpt lat="47.25491" lon="-1.67456">
        <ele>-93.5</ele>
        <time>2011-11-26T14:37:59Z</time>
      </trkpt>
      <trkpt lat="47.25488" lon="-1.6744">
        <ele>-92.5</ele>
        <time>2011-11-26T14:38:04Z</time>
      </trkpt>
      <trkpt lat="47.25484" lon="-1.67424">
        <ele>-93</ele>
        <time>2011-11-26T14:38:09Z</time>
      </trkpt>
      <trkpt lat="47.25477" lon="-1.67411">
        <ele>-93.25</ele>
        <time>2011-11-26T14:38:14Z</time>
      </trkpt>
      <trkpt lat="47.25469" lon="-1.67401">
        <ele>-94</ele>
        <time>2011-11-26T14:38:20Z</time>
      </trkpt>
      <trkpt lat="47.25463" lon="-1.6739">
        <ele>-94</ele>
        <time>2011-11-26T14:38:29Z</time>
      </trkpt>
      <trkpt lat="47.25457" lon="-1.67378">
        <ele>-94.25</ele>
        <time>2011-11-26T14:38:37Z</time>
      </trkpt>
      <trkpt lat="47.25451" lon="-1.67366">
        <ele>-94</ele>
        <time>2011-11-26T14:38:43Z</time>
      </trkpt>
      <trkpt lat="47.25446" lon="-1.67355">
        <ele>-93.5</ele>
        <time>2011-11-26T14:38:48Z</time>
      </trkpt>
      <trkpt lat="47.25439" lon="-1.67345">
        <ele>-92.5</ele>
        <time>2011-11-26T14:38:51Z</time>
      </trkpt>
      <trkpt lat="47.25431" lon="-1.67334">
        <ele>-92</ele>
        <time>2011-11-26T14:38:54Z</time>
      </trkpt>
      <trkpt lat="47.25424" lon="-1.6732">
        <ele>-92</ele>
        <time>2011-11-26T14:38:57Z</time>
      </trkpt>
      <trkpt lat="47.25422" lon="-1.67304">
        <ele>-92.75</ele>
        <time>2011-11-26T14:39:00Z</time>
      </trkpt>
      <trkpt lat="47.25422" lon="-1.6729">
        <ele>-93.25</ele>
        <time>2011-11-26T14:39:03Z</time>
      </trkpt>
      <trkpt lat="47.25421" lon="-1.67274">
        <ele>-93.75</ele>
        <time>2011-11-26T14:39:06Z</time>
      </trkpt>
      <trkpt lat="47.2542" lon="-1.6726">
        <ele>-94</ele>
        <time>2011-11-26T14:39:09Z</time>
      </trkpt>
      <trkpt lat="47.25419" lon="-1.67244">
        <ele>-94.25</ele>
        <time>2011-11-26T14:39:13Z</time>
      </trkpt>
      <trkpt lat="47.25418" lon="-1.67228">
        <ele>-95</ele>
        <time>2011-11-26T14:39:17Z</time>
      </trkpt>
      <trkpt lat="47.25416" lon="-1.67212">
        <ele>-95</ele>
        <time>2011-11-26T14:39:20Z</time>
      </trkpt>
      <trkpt lat="47.25414" lon="-1.67195">
        <ele>-94.75</ele>
        <time>2011-11-26T14:39:23Z</time>
      </trkpt>
      <trkpt lat="47.25413" lon="-1.67175">
        <ele>-94.25</ele>
        <time>2011-11-26T14:39:26Z</time>
      </trkpt>
      <trkpt lat="47.25413" lon="-1.67161">
        <ele>-94</ele>
        <time>2011-11-26T14:39:28Z</time>
      </trkpt>
      <trkpt lat="47.25412" lon="-1.67145">
        <ele>-94</ele>
        <time>2011-11-26T14:39:31Z</time>
      </trkpt>
      <trkpt lat="47.25412" lon="-1.6713">
        <ele>-94</ele>
        <time>2011-11-26T14:39:33Z</time>
      </trkpt>
      <trkpt lat="47.25411" lon="-1.67111">
        <ele>-94</ele>
        <time>2011-11-26T14:39:36Z</time>
      </trkpt>
      <trkpt lat="47.25409" lon="-1.67093">
        <ele>-94</ele>
        <time>2011-11-26T14:39:39Z</time>
      </trkpt>
      <trkpt lat="47.25408" lon="-1.67075">
        <ele>-94</ele>
        <time>2011-11-26T14:39:42Z</time>
      </trkpt>
      <trkpt lat="47.25407" lon="-1.67059">
        <ele>-93.75</ele>
        <time>2011-11-26T14:39:44Z</time>
      </trkpt>
      <trkpt lat="47.25406" lon="-1.67043">
        <ele>-93.25</ele>
        <time>2011-11-26T14:39:47Z</time>
      </trkpt>
      <trkpt lat="47.25404" lon="-1.67024">
        <ele>-93</ele>
        <time>2011-11-26T14:39:50Z</time>
      </trkpt>
      <trkpt lat="47.25404" lon="-1.67005">
        <ele>-93.75</ele>
        <time>2011-11-26T14:39:53Z</time>
      </trkpt>
      <trkpt lat="47.25404" lon="-1.66991">
        <ele>-94.5</ele>
        <time>2011-11-26T14:39:55Z</time>
      </trkpt>
      <trkpt lat="47.25402" lon="-1.66976">
        <ele>-95</ele>
        <time>2011-11-26T14:39:58Z</time>
      </trkpt>
      <trkpt lat="47.254" lon="-1.66957">
        <ele>-95</ele>
        <time>2011-11-26T14:40:01Z</time>
      </trkpt>
      <trkpt lat="47.25398" lon="-1.66939">
        <ele>-95</ele>
        <time>2011-11-26T14:40:04Z</time>
      </trkpt>
      <trkpt lat="47.25397" lon="-1.6692">
        <ele>-95</ele>
        <time>2011-11-26T14:40:07Z</time>
      </trkpt>
      <trkpt lat="47.25397" lon="-1.66906">
        <ele>-95.25</ele>
        <time>2011-11-26T14:40:09Z</time>
      </trkpt>
      <trkpt lat="47.25402" lon="-1.66889">
        <ele>-96</ele>
        <time>2011-11-26T14:40:13Z</time>
      </trkpt>
      <trkpt lat="47.2541" lon="-1.66882">
        <ele>-96.25</ele>
        <time>2011-11-26T14:40:21Z</time>
      </trkpt>
      <trkpt lat="47.25402" lon="-1.66872">
        <ele>-97</ele>
        <time>2011-11-26T14:41:37Z</time>
      </trkpt>
      <trkpt lat="47.25393" lon="-1.6687">
        <ele>-97</ele>
        <time>2011-11-26T14:41:41Z</time>
      </trkpt>
      <trkpt lat="47.25383" lon="-1.66869">
        <ele>-97.25</ele>
        <time>2011-11-26T14:41:44Z</time>
      </trkpt>
      <trkpt lat="47.25371" lon="-1.66867">
        <ele>-97.25</ele>
        <time>2011-11-26T14:41:47Z</time>
      </trkpt>
      <trkpt lat="47.25357" lon="-1.66865">
        <ele>-97</ele>
        <time>2011-11-26T14:41:50Z</time>
      </trkpt>
      <trkpt lat="47.25346" lon="-1.66863">
        <ele>-97</ele>
        <time>2011-11-26T14:41:54Z</time>
      </trkpt>
      <trkpt lat="47.25339" lon="-1.66851">
        <ele>-97.25</ele>
        <time>2011-11-26T14:41:59Z</time>
      </trkpt>
      <trkpt lat="47.25338" lon="-1.66836">
        <ele>-96.5</ele>
        <time>2011-11-26T14:42:02Z</time>
      </trkpt>
      <trkpt lat="47.25337" lon="-1.66817">
        <ele>-95</ele>
        <time>2011-11-26T14:42:06Z</time>
      </trkpt>
      <trkpt lat="47.25336" lon="-1.66802">
        <ele>-94</ele>
        <time>2011-11-26T14:42:09Z</time>
      </trkpt>
      <trkpt lat="47.25336" lon="-1.66788">
        <ele>-93.25</ele>
        <time>2011-11-26T14:42:12Z</time>
      </trkpt>
      <trkpt lat="47.25336" lon="-1.66773">
        <ele>-93</ele>
        <time>2011-11-26T14:42:15Z</time>
      </trkpt>
      <trkpt lat="47.25335" lon="-1.66758">
        <ele>-93</ele>
        <time>2011-11-26T14:42:18Z</time>
      </trkpt>
      <trkpt lat="47.25335" lon="-1.66743">
        <ele>-92.25</ele>
        <time>2011-11-26T14:42:22Z</time>
      </trkpt>
      <trkpt lat="47.25335" lon="-1.66729">
        <ele>-89</ele>
        <time>2011-11-26T14:43:08Z</time>
      </trkpt>
      <trkpt lat="47.25335" lon="-1.66712">
        <ele>-90</ele>
        <time>2011-11-26T14:43:13Z</time>
      </trkpt>
      <trkpt lat="47.25334" lon="-1.66697">
        <ele>-90</ele>
        <time>2011-11-26T14:43:16Z</time>
      </trkpt>
      <trkpt lat="47.25334" lon="-1.66676">
        <ele>-89.5</ele>
        <time>2011-11-26T14:43:19Z</time>
      </trkpt>
      <trkpt lat="47.25334" lon="-1.66662">
        <ele>-89</ele>
        <time>2011-11-26T14:43:22Z</time>
      </trkpt>
      <trkpt lat="47.25335" lon="-1.66643">
        <ele>-89</ele>
        <time>2011-11-26T14:43:25Z</time>
      </trkpt>
      <trkpt lat="47.25335" lon="-1.66625">
        <ele>-88.25</ele>
        <time>2011-11-26T14:43:28Z</time>
      </trkpt>
      <trkpt lat="47.25335" lon="-1.66606">
        <ele>-88</ele>
        <time>2011-11-26T14:43:31Z</time>
      </trkpt>
      <trkpt lat="47.25334" lon="-1.66587">
        <ele>-87.75</ele>
        <time>2011-11-26T14:43:34Z</time>
      </trkpt>
      <trkpt lat="47.25333" lon="-1.66571">
        <ele>-87</ele>
        <time>2011-11-26T14:43:38Z</time>
      </trkpt>
      <trkpt lat="47.25332" lon="-1.66556">
        <ele>-86.75</ele>
        <time>2011-11-26T14:43:42Z</time>
      </trkpt>
      <trkpt lat="47.2533" lon="-1.66537">
        <ele>-86</ele>
        <time>2011-11-26T14:43:46Z</time>
      </trkpt>
      <trkpt lat="47.25328" lon="-1.66524">
        <ele>-85.25</ele>
        <time>2011-11-26T14:43:48Z</time>
      </trkpt>
      <trkpt lat="47.25326" lon="-1.66505">
        <ele>-84</ele>
        <time>2011-11-26T14:43:52Z</time>
      </trkpt>
      <trkpt lat="47.25325" lon="-1.66485">
        <ele>-83.75</ele>
        <time>2011-11-26T14:43:55Z</time>
      </trkpt>
      <trkpt lat="47.25325" lon="-1.66467">
        <ele>-85</ele>
        <time>2011-11-26T14:43:58Z</time>
      </trkpt>
      <trkpt lat="47.25325" lon="-1.66452">
        <ele>-86</ele>
        <time>2011-11-26T14:44:01Z</time>
      </trkpt>
      <trkpt lat="47.25325" lon="-1.66437">
        <ele>-87</ele>
        <time>2011-11-26T14:44:06Z</time>
      </trkpt>
      <trkpt lat="47.25324" lon="-1.66422">
        <ele>-87.5</ele>
        <time>2011-11-26T14:44:10Z</time>
      </trkpt>
      <trkpt lat="47.25324" lon="-1.66407">
        <ele>-88</ele>
        <time>2011-11-26T14:44:13Z</time>
      </trkpt>
      <trkpt lat="47.25324" lon="-1.66389">
        <ele>-88.75</ele>
        <time>2011-11-26T14:44:17Z</time>
      </trkpt>
      <trkpt lat="47.25324" lon="-1.66375">
        <ele>-89</ele>
        <time>2011-11-26T14:44:20Z</time>
      </trkpt>
      <trkpt lat="47.25325" lon="-1.66361">
        <ele>-89</ele>
        <time>2011-11-26T14:44:23Z</time>
      </trkpt>
      <trkpt lat="47.25324" lon="-1.66347">
        <ele>-89</ele>
        <time>2011-11-26T14:44:26Z</time>
      </trkpt>
      <trkpt lat="47.25324" lon="-1.66328">
        <ele>-88.5</ele>
        <time>2011-11-26T14:44:30Z</time>
      </trkpt>
      <trkpt lat="47.25323" lon="-1.66313">
        <ele>-88</ele>
        <time>2011-11-26T14:44:33Z</time>
      </trkpt>
      <trkpt lat="47.25321" lon="-1.66296">
        <ele>-88</ele>
        <time>2011-11-26T14:44:37Z</time>
      </trkpt>
      <trkpt lat="47.25321" lon="-1.66281">
        <ele>-88</ele>
        <time>2011-11-26T14:44:41Z</time>
      </trkpt>
      <trkpt lat="47.25321" lon="-1.66264">
        <ele>-88</ele>
        <time>2011-11-26T14:44:44Z</time>
      </trkpt>
      <trkpt lat="47.2532" lon="-1.66248">
        <ele>-88</ele>
        <time>2011-11-26T14:44:47Z</time>
      </trkpt>
      <trkpt lat="47.2532" lon="-1.66234">
        <ele>-88.5</ele>
        <time>2011-11-26T14:44:50Z</time>
      </trkpt>
      <trkpt lat="47.2532" lon="-1.66218">
        <ele>-89.25</ele>
        <time>2011-11-26T14:44:54Z</time>
      </trkpt>
      <trkpt lat="47.25321" lon="-1.66204">
        <ele>-90</ele>
        <time>2011-11-26T14:44:58Z</time>
      </trkpt>
      <trkpt lat="47.25321" lon="-1.6619">
        <ele>-90.75</ele>
        <time>2011-11-26T14:45:01Z</time>
      </trkpt>
      <trkpt lat="47.25319" lon="-1.66174">
        <ele>-91</ele>
        <time>2011-11-26T14:45:04Z</time>
      </trkpt>
      <trkpt lat="47.2532" lon="-1.66155">
        <ele>-91.5</ele>
        <time>2011-11-26T14:45:07Z</time>
      </trkpt>
      <trkpt lat="47.25321" lon="-1.66138">
        <ele>-92</ele>
        <time>2011-11-26T14:45:11Z</time>
      </trkpt>
      <trkpt lat="47.25322" lon="-1.66121">
        <ele>-92</ele>
        <time>2011-11-26T14:45:14Z</time>
      </trkpt>
      <trkpt lat="47.25321" lon="-1.66103">
        <ele>-92</ele>
        <time>2011-11-26T14:45:17Z</time>
      </trkpt>
      <trkpt lat="47.25317" lon="-1.66088">
        <ele>-92.25</ele>
        <time>2011-11-26T14:45:20Z</time>
      </trkpt>
      <trkpt lat="47.25309" lon="-1.66073">
        <ele>-94</ele>
        <time>2011-11-26T14:45:24Z</time>
      </trkpt>
      <trkpt lat="47.25302" lon="-1.66062">
        <ele>-95.25</ele>
        <time>2011-11-26T14:45:27Z</time>
      </trkpt>
      <trkpt lat="47.25296" lon="-1.6605">
        <ele>-96.25</ele>
        <time>2011-11-26T14:45:30Z</time>
      </trkpt>
      <trkpt lat="47.25289" lon="-1.66036">
        <ele>-96.75</ele>
        <time>2011-11-26T14:45:33Z</time>
      </trkpt>
      <trkpt lat="47.25283" lon="-1.66025">
        <ele>-97</ele>
        <time>2011-11-26T14:45:36Z</time>
      </trkpt>
      <trkpt lat="47.25277" lon="-1.6601">
        <ele>-96.25</ele>
        <time>2011-11-26T14:45:39Z</time>
      </trkpt>
      <trkpt lat="47.25271" lon="-1.65995">
        <ele>-94.5</ele>
        <time>2011-11-26T14:45:42Z</time>
      </trkpt>
      <trkpt lat="47.25265" lon="-1.65981">
        <ele>-93.75</ele>
        <time>2011-11-26T14:45:45Z</time>
      </trkpt>
      <trkpt lat="47.25258" lon="-1.65967">
        <ele>-93.75</ele>
        <time>2011-11-26T14:45:48Z</time>
      </trkpt>
      <trkpt lat="47.25253" lon="-1.65955">
        <ele>-93.25</ele>
        <time>2011-11-26T14:45:51Z</time>
      </trkpt>
      <trkpt lat="47.25247" lon="-1.65938">
        <ele>-92.5</ele>
        <time>2011-11-26T14:45:54Z</time>
      </trkpt>
      <trkpt lat="47.25243" lon="-1.65926">
        <ele>-92.25</ele>
        <time>2011-11-26T14:45:56Z</time>
      </trkpt>
      <trkpt lat="47.25239" lon="-1.65911">
        <ele>-91.75</ele>
        <time>2011-11-26T14:45:58Z</time>
      </trkpt>
      <trkpt lat="47.25235" lon="-1.65895">
        <ele>-91</ele>
        <time>2011-11-26T14:46:01Z</time>
      </trkpt>
      <trkpt lat="47.2523" lon="-1.65875">
        <ele>-90.5</ele>
        <time>2011-11-26T14:46:03Z</time>
      </trkpt>
      <trkpt lat="47.25223" lon="-1.65856">
        <ele>-90</ele>
        <time>2011-11-26T14:46:05Z</time>
      </trkpt>
      <trkpt lat="47.25218" lon="-1.65841">
        <ele>-90</ele>
        <time>2011-11-26T14:46:07Z</time>
      </trkpt>
      <trkpt lat="47.25213" lon="-1.65826">
        <ele>-89.5</ele>
        <time>2011-11-26T14:46:09Z</time>
      </trkpt>
      <trkpt lat="47.25208" lon="-1.65812">
        <ele>-89.5</ele>
        <time>2011-11-26T14:46:11Z</time>
      </trkpt>
      <trkpt lat="47.25203" lon="-1.65795">
        <ele>-89.5</ele>
        <time>2011-11-26T14:46:13Z</time>
      </trkpt>
      <trkpt lat="47.25197" lon="-1.65778">
        <ele>-89.5</ele>
        <time>2011-11-26T14:46:16Z</time>
      </trkpt>
      <trkpt lat="47.25193" lon="-1.65763">
        <ele>-89.5</ele>
        <time>2011-11-26T14:46:18Z</time>
      </trkpt>
      <trkpt lat="47.25189" lon="-1.65749">
        <ele>-88.75</ele>
        <time>2011-11-26T14:46:20Z</time>
      </trkpt>
      <trkpt lat="47.25185" lon="-1.65737">
        <ele>-88</ele>
        <time>2011-11-26T14:46:22Z</time>
      </trkpt>
      <trkpt lat="47.25182" lon="-1.65722">
        <ele>-87.75</ele>
        <time>2011-11-26T14:46:25Z</time>
      </trkpt>
      <trkpt lat="47.25179" lon="-1.65709">
        <ele>-88.25</ele>
        <time>2011-11-26T14:46:31Z</time>
      </trkpt>
      <trkpt lat="47.25168" lon="-1.65702">
        <ele>-88.25</ele>
        <time>2011-11-26T14:46:38Z</time>
      </trkpt>
      <trkpt lat="47.25157" lon="-1.65699">
        <ele>-89.25</ele>
        <time>2011-11-26T14:46:41Z</time>
      </trkpt>
      <trkpt lat="47.25146" lon="-1.65696">
        <ele>-90</ele>
        <time>2011-11-26T14:46:43Z</time>
      </trkpt>
      <trkpt lat="47.25136" lon="-1.65693">
        <ele>-89.25</ele>
        <time>2011-11-26T14:46:45Z</time>
      </trkpt>
      <trkpt lat="47.25124" lon="-1.6569">
        <ele>-88</ele>
        <time>2011-11-26T14:46:47Z</time>
      </trkpt>
      <trkpt lat="47.25112" lon="-1.65686">
        <ele>-87.25</ele>
        <time>2011-11-26T14:46:49Z</time>
      </trkpt>
      <trkpt lat="47.251" lon="-1.65681">
        <ele>-86.25</ele>
        <time>2011-11-26T14:46:51Z</time>
      </trkpt>
      <trkpt lat="47.25088" lon="-1.65675">
        <ele>-84.75</ele>
        <time>2011-11-26T14:46:54Z</time>
      </trkpt>
      <trkpt lat="47.25077" lon="-1.65665">
        <ele>-83.25</ele>
        <time>2011-11-26T14:46:56Z</time>
      </trkpt>
      <trkpt lat="47.25071" lon="-1.6565">
        <ele>-81.5</ele>
        <time>2011-11-26T14:46:58Z</time>
      </trkpt>
      <trkpt lat="47.2507" lon="-1.65632">
        <ele>-79.75</ele>
        <time>2011-11-26T14:47:00Z</time>
      </trkpt>
      <trkpt lat="47.25072" lon="-1.65613">
        <ele>-79</ele>
        <time>2011-11-26T14:47:02Z</time>
      </trkpt>
      <trkpt lat="47.25076" lon="-1.65593">
        <ele>-79</ele>
        <time>2011-11-26T14:47:05Z</time>
      </trkpt>
      <trkpt lat="47.2508" lon="-1.65577">
        <ele>-78.75</ele>
        <time>2011-11-26T14:47:07Z</time>
      </trkpt>
      <trkpt lat="47.25084" lon="-1.65563">
        <ele>-78.25</ele>
        <time>2011-11-26T14:47:09Z</time>
      </trkpt>
      <trkpt lat="47.25088" lon="-1.65551">
        <ele>-78.5</ele>
        <time>2011-11-26T14:47:11Z</time>
      </trkpt>
      <trkpt lat="47.25094" lon="-1.65534">
        <ele>-80</ele>
        <time>2011-11-26T14:47:14Z</time>
      </trkpt>
      <trkpt lat="47.25098" lon="-1.65516">
        <ele>-81.75</ele>
        <time>2011-11-26T14:47:18Z</time>
      </trkpt>
      <trkpt lat="47.251" lon="-1.65503">
        <ele>-83</ele>
        <time>2011-11-26T14:47:21Z</time>
      </trkpt>
      <trkpt lat="47.25103" lon="-1.65486">
        <ele>-84.5</ele>
        <time>2011-11-26T14:47:25Z</time>
      </trkpt>
      <trkpt lat="47.25104" lon="-1.65471">
        <ele>-85.75</ele>
        <time>2011-11-26T14:47:29Z</time>
      </trkpt>
      <trkpt lat="47.25106" lon="-1.65455">
        <ele>-86.75</ele>
        <time>2011-11-26T14:47:33Z</time>
      </trkpt>
      <trkpt lat="47.25109" lon="-1.6544">
        <ele>-88</ele>
        <time>2011-11-26T14:47:37Z</time>
      </trkpt>
      <trkpt lat="47.25115" lon="-1.65424">
        <ele>-89.5</ele>
        <time>2011-11-26T14:47:41Z</time>
      </trkpt>
      <trkpt lat="47.25121" lon="-1.65412">
        <ele>-90.75</ele>
        <time>2011-11-26T14:47:45Z</time>
      </trkpt>
      <trkpt lat="47.25127" lon="-1.65402">
        <ele>-91</ele>
        <time>2011-11-26T14:47:48Z</time>
      </trkpt>
      <trkpt lat="47.25132" lon="-1.65389">
        <ele>-91</ele>
        <time>2011-11-26T14:47:51Z</time>
      </trkpt>
      <trkpt lat="47.25136" lon="-1.65375">
        <ele>-92</ele>
        <time>2011-11-26T14:47:55Z</time>
      </trkpt>
      <trkpt lat="47.25139" lon="-1.65362">
        <ele>-93.25</ele>
        <time>2011-11-26T14:47:58Z</time>
      </trkpt>
      <trkpt lat="47.25143" lon="-1.65349">
        <ele>-93.75</ele>
        <time>2011-11-26T14:48:02Z</time>
      </trkpt>
      <trkpt lat="47.25146" lon="-1.65333">
        <ele>-93</ele>
        <time>2011-11-26T14:48:06Z</time>
      </trkpt>
      <trkpt lat="47.2515" lon="-1.65319">
        <ele>-93.5</ele>
        <time>2011-11-26T14:48:10Z</time>
      </trkpt>
      <trkpt lat="47.25154" lon="-1.65304">
        <ele>-93.75</ele>
        <time>2011-11-26T14:48:14Z</time>
      </trkpt>
      <trkpt lat="47.25156" lon="-1.6529">
        <ele>-95.5</ele>
        <time>2011-11-26T14:48:18Z</time>
      </trkpt>
      <trkpt lat="47.25157" lon="-1.65273">
        <ele>-96</ele>
        <time>2011-11-26T14:48:22Z</time>
      </trkpt>
      <trkpt lat="47.25156" lon="-1.65257">
        <ele>-98</ele>
        <time>2011-11-26T14:48:26Z</time>
      </trkpt>
      <trkpt lat="47.25154" lon="-1.6524">
        <ele>-100</ele>
        <time>2011-11-26T14:48:30Z</time>
      </trkpt>
      <trkpt lat="47.2515" lon="-1.65224">
        <ele>-100.25</ele>
        <time>2011-11-26T14:48:34Z</time>
      </trkpt>
      <trkpt lat="47.2515" lon="-1.65208">
        <ele>-100.25</ele>
        <time>2011-11-26T14:48:38Z</time>
      </trkpt>
      <trkpt lat="47.25153" lon="-1.65192">
        <ele>-100</ele>
        <time>2011-11-26T14:48:42Z</time>
      </trkpt>
      <trkpt lat="47.25157" lon="-1.65175">
        <ele>-100</ele>
        <time>2011-11-26T14:48:46Z</time>
      </trkpt>
      <trkpt lat="47.25161" lon="-1.6516">
        <ele>-100</ele>
        <time>2011-11-26T14:48:50Z</time>
      </trkpt>
      <trkpt lat="47.25164" lon="-1.65143">
        <ele>-100.25</ele>
        <time>2011-11-26T14:48:54Z</time>
      </trkpt>
      <trkpt lat="47.25167" lon="-1.6513">
        <ele>-101</ele>
        <time>2011-11-26T14:48:57Z</time>
      </trkpt>
      <trkpt lat="47.2517" lon="-1.65115">
        <ele>-101</ele>
        <time>2011-11-26T14:49:00Z</time>
      </trkpt>
      <trkpt lat="47.25173" lon="-1.65098">
        <ele>-101.25</ele>
        <time>2011-11-26T14:49:04Z</time>
      </trkpt>
      <trkpt lat="47.25174" lon="-1.65084">
        <ele>-101.25</ele>
        <time>2011-11-26T14:49:07Z</time>
      </trkpt>
      <trkpt lat="47.25173" lon="-1.65069">
        <ele>-102.25</ele>
        <time>2011-11-26T14:49:10Z</time>
      </trkpt>
      <trkpt lat="47.25173" lon="-1.65052">
        <ele>-102.75</ele>
        <time>2011-11-26T14:49:13Z</time>
      </trkpt>
      <trkpt lat="47.25172" lon="-1.65039">
        <ele>-102.75</ele>
        <time>2011-11-26T14:49:16Z</time>
      </trkpt>
      <trkpt lat="47.25173" lon="-1.6502">
        <ele>-103.25</ele>
        <time>2011-11-26T14:49:19Z</time>
      </trkpt>
      <trkpt lat="47.25173" lon="-1.65005">
        <ele>-104</ele>
        <time>2011-11-26T14:49:22Z</time>
      </trkpt>
      <trkpt lat="47.25174" lon="-1.6499">
        <ele>-104.5</ele>
        <time>2011-11-26T14:49:24Z</time>
      </trkpt>
      <trkpt lat="47.25175" lon="-1.64974">
        <ele>-105</ele>
        <time>2011-11-26T14:49:27Z</time>
      </trkpt>
      <trkpt lat="47.25174" lon="-1.64956">
        <ele>-105</ele>
        <time>2011-11-26T14:49:30Z</time>
      </trkpt>
      <trkpt lat="47.25171" lon="-1.64936">
        <ele>-104</ele>
        <time>2011-11-26T14:49:33Z</time>
      </trkpt>
      <trkpt lat="47.25167" lon="-1.64919">
        <ele>-102.25</ele>
        <time>2011-11-26T14:49:35Z</time>
      </trkpt>
      <trkpt lat="47.25163" lon="-1.64903">
        <ele>-101</ele>
        <time>2011-11-26T14:49:38Z</time>
      </trkpt>
      <trkpt lat="47.25158" lon="-1.64886">
        <ele>-99.75</ele>
        <time>2011-11-26T14:49:41Z</time>
      </trkpt>
      <trkpt lat="47.25151" lon="-1.64872">
        <ele>-97</ele>
        <time>2011-11-26T14:49:44Z</time>
      </trkpt>
      <trkpt lat="47.2514" lon="-1.64862">
        <ele>-96.75</ele>
        <time>2011-11-26T14:49:47Z</time>
      </trkpt>
      <trkpt lat="47.25129" lon="-1.64853">
        <ele>-95.75</ele>
        <time>2011-11-26T14:49:50Z</time>
      </trkpt>
      <trkpt lat="47.25118" lon="-1.64844">
        <ele>-95.25</ele>
        <time>2011-11-26T14:49:52Z</time>
      </trkpt>
      <trkpt lat="47.25109" lon="-1.64839">
        <ele>-95</ele>
        <time>2011-11-26T14:49:54Z</time>
      </trkpt>
      <trkpt lat="47.25098" lon="-1.6483">
        <ele>-94</ele>
        <time>2011-11-26T14:49:57Z</time>
      </trkpt>
      <trkpt lat="47.25089" lon="-1.64817">
        <ele>-94.5</ele>
        <time>2011-11-26T14:50:00Z</time>
      </trkpt>
      <trkpt lat="47.25087" lon="-1.64796">
        <ele>-94.25</ele>
        <time>2011-11-26T14:50:03Z</time>
      </trkpt>
      <trkpt lat="47.25088" lon="-1.6478">
        <ele>-94.25</ele>
        <time>2011-11-26T14:50:06Z</time>
      </trkpt>
      <trkpt lat="47.25089" lon="-1.64765">
        <ele>-94.75</ele>
        <time>2011-11-26T14:50:08Z</time>
      </trkpt>
      <trkpt lat="47.2509" lon="-1.64746">
        <ele>-93.25</ele>
        <time>2011-11-26T14:50:11Z</time>
      </trkpt>
      <trkpt lat="47.25091" lon="-1.64729">
        <ele>-92.75</ele>
        <time>2011-11-26T14:50:14Z</time>
      </trkpt>
      <trkpt lat="47.25093" lon="-1.64709">
        <ele>-92.25</ele>
        <time>2011-11-26T14:50:18Z</time>
      </trkpt>
      <trkpt lat="47.25095" lon="-1.64696">
        <ele>-92.75</ele>
        <time>2011-11-26T14:50:20Z</time>
      </trkpt>
      <trkpt lat="47.25097" lon="-1.64679">
        <ele>-93.25</ele>
        <time>2011-11-26T14:50:23Z</time>
      </trkpt>
      <trkpt lat="47.25099" lon="-1.64662">
        <ele>-94</ele>
        <time>2011-11-26T14:50:26Z</time>
      </trkpt>
      <trkpt lat="47.25101" lon="-1.64643">
        <ele>-94</ele>
        <time>2011-11-26T14:50:29Z</time>
      </trkpt>
      <trkpt lat="47.25102" lon="-1.64628">
        <ele>-94</ele>
        <time>2011-11-26T14:50:32Z</time>
      </trkpt>
      <trkpt lat="47.25102" lon="-1.64615">
        <ele>-93.75</ele>
        <time>2011-11-26T14:50:34Z</time>
      </trkpt>
      <trkpt lat="47.25101" lon="-1.64601">
        <ele>-93.25</ele>
        <time>2011-11-26T14:50:36Z</time>
      </trkpt>
      <trkpt lat="47.251" lon="-1.64585">
        <ele>-93.5</ele>
        <time>2011-11-26T14:50:38Z</time>
      </trkpt>
      <trkpt lat="47.25099" lon="-1.64569">
        <ele>-94</ele>
        <time>2011-11-26T14:50:40Z</time>
      </trkpt>
      <trkpt lat="47.25097" lon="-1.64553">
        <ele>-94.25</ele>
        <time>2011-11-26T14:50:42Z</time>
      </trkpt>
      <trkpt lat="47.25096" lon="-1.64537">
        <ele>-94</ele>
        <time>2011-11-26T14:50:46Z</time>
      </trkpt>
      <trkpt lat="47.25088" lon="-1.64529">
        <ele>-92.5</ele>
        <time>2011-11-26T14:50:58Z</time>
      </trkpt>
      <trkpt lat="47.2508" lon="-1.64536">
        <ele>-94.75</ele>
        <time>2011-11-26T14:51:30Z</time>
      </trkpt>
      <trkpt lat="47.25071" lon="-1.64542">
        <ele>-93</ele>
        <time>2011-11-26T14:51:47Z</time>
      </trkpt>
      <trkpt lat="47.25064" lon="-1.6455">
        <ele>-92.75</ele>
        <time>2011-11-26T14:51:50Z</time>
      </trkpt>
      <trkpt lat="47.25054" lon="-1.6456">
        <ele>-92</ele>
        <time>2011-11-26T14:51:53Z</time>
      </trkpt>
      <trkpt lat="47.25045" lon="-1.64569">
        <ele>-92</ele>
        <time>2011-11-26T14:51:56Z</time>
      </trkpt>
      <trkpt lat="47.25035" lon="-1.64576">
        <ele>-92.25</ele>
        <time>2011-11-26T14:51:58Z</time>
      </trkpt>
      <trkpt lat="47.25027" lon="-1.64579">
        <ele>-92.25</ele>
        <time>2011-11-26T14:52:00Z</time>
      </trkpt>
      <trkpt lat="47.25018" lon="-1.64573">
        <ele>-92</ele>
        <time>2011-11-26T14:52:02Z</time>
      </trkpt>
      <trkpt lat="47.25013" lon="-1.64562">
        <ele>-92.5</ele>
        <time>2011-11-26T14:52:04Z</time>
      </trkpt>
      <trkpt lat="47.25008" lon="-1.64547">
        <ele>-93.75</ele>
        <time>2011-11-26T14:52:06Z</time>
      </trkpt>
      <trkpt lat="47.25004" lon="-1.64531">
        <ele>-95.25</ele>
        <time>2011-11-26T14:52:09Z</time>
      </trkpt>
      <trkpt lat="47.25001" lon="-1.64518">
        <ele>-96.25</ele>
        <time>2011-11-26T14:52:11Z</time>
      </trkpt>
      <trkpt lat="47.24997" lon="-1.64505">
        <ele>-96.5</ele>
        <time>2011-11-26T14:52:13Z</time>
      </trkpt>
      <trkpt lat="47.24993" lon="-1.64492">
        <ele>-96.25</ele>
        <time>2011-11-26T14:52:15Z</time>
      </trkpt>
      <trkpt lat="47.24988" lon="-1.64479">
        <ele>-96.25</ele>
        <time>2011-11-26T14:52:17Z</time>
      </trkpt>
      <trkpt lat="47.24984" lon="-1.64467">
        <ele>-97.25</ele>
        <time>2011-11-26T14:52:19Z</time>
      </trkpt>
      <trkpt lat="47.24979" lon="-1.6445">
        <ele>-98.25</ele>
        <time>2011-11-26T14:52:22Z</time>
      </trkpt>
      <trkpt lat="47.24973" lon="-1.64432">
        <ele>-97.75</ele>
        <time>2011-11-26T14:52:24Z</time>
      </trkpt>
      <trkpt lat="47.24969" lon="-1.64418">
        <ele>-97.25</ele>
        <time>2011-11-26T14:52:26Z</time>
      </trkpt>
      <trkpt lat="47.24966" lon="-1.64406">
        <ele>-98</ele>
        <time>2011-11-26T14:52:28Z</time>
      </trkpt>
      <trkpt lat="47.24962" lon="-1.6439">
        <ele>-99</ele>
        <time>2011-11-26T14:52:31Z</time>
      </trkpt>
      <trkpt lat="47.24958" lon="-1.64374">
        <ele>-100</ele>
        <time>2011-11-26T14:52:33Z</time>
      </trkpt>
      <trkpt lat="47.24955" lon="-1.64361">
        <ele>-101</ele>
        <time>2011-11-26T14:52:35Z</time>
      </trkpt>
      <trkpt lat="47.24952" lon="-1.64347">
        <ele>-102</ele>
        <time>2011-11-26T14:52:37Z</time>
      </trkpt>
      <trkpt lat="47.24949" lon="-1.64334">
        <ele>-102.75</ele>
        <time>2011-11-26T14:52:39Z</time>
      </trkpt>
      <trkpt lat="47.24945" lon="-1.64318">
        <ele>-102.25</ele>
        <time>2011-11-26T14:52:42Z</time>
      </trkpt>
      <trkpt lat="47.24941" lon="-1.64302">
        <ele>-101.25</ele>
        <time>2011-11-26T14:52:44Z</time>
      </trkpt>
      <trkpt lat="47.24937" lon="-1.64285">
        <ele>-102</ele>
        <time>2011-11-26T14:52:47Z</time>
      </trkpt>
      <trkpt lat="47.24932" lon="-1.64267">
        <ele>-98.75</ele>
        <time>2011-11-26T14:52:50Z</time>
      </trkpt>
      <trkpt lat="47.24931" lon="-1.64251">
        <ele>-95.75</ele>
        <time>2011-11-26T14:52:52Z</time>
      </trkpt>
      <trkpt lat="47.24931" lon="-1.64236">
        <ele>-95</ele>
        <time>2011-11-26T14:52:55Z</time>
      </trkpt>
      <trkpt lat="47.24927" lon="-1.64218">
        <ele>-94.75</ele>
        <time>2011-11-26T14:52:58Z</time>
      </trkpt>
      <trkpt lat="47.24925" lon="-1.64205">
        <ele>-94.25</ele>
        <time>2011-11-26T14:53:00Z</time>
      </trkpt>
      <trkpt lat="47.24922" lon="-1.64192">
        <ele>-93.5</ele>
        <time>2011-11-26T14:53:02Z</time>
      </trkpt>
      <trkpt lat="47.24917" lon="-1.64176">
        <ele>-93</ele>
        <time>2011-11-26T14:53:05Z</time>
      </trkpt>
      <trkpt lat="47.24913" lon="-1.64161">
        <ele>-93</ele>
        <time>2011-11-26T14:53:07Z</time>
      </trkpt>
      <trkpt lat="47.24907" lon="-1.64142">
        <ele>-92.5</ele>
        <time>2011-11-26T14:53:10Z</time>
      </trkpt>
      <trkpt lat="47.24904" lon="-1.6413">
        <ele>-92.75</ele>
        <time>2011-11-26T14:53:12Z</time>
      </trkpt>
      <trkpt lat="47.249" lon="-1.64116">
        <ele>-93.25</ele>
        <time>2011-11-26T14:53:14Z</time>
      </trkpt>
      <trkpt lat="47.24896" lon="-1.64098">
        <ele>-93</ele>
        <time>2011-11-26T14:53:17Z</time>
      </trkpt>
      <trkpt lat="47.24891" lon="-1.64085">
        <ele>-92.25</ele>
        <time>2011-11-26T14:53:20Z</time>
      </trkpt>
      <trkpt lat="47.24887" lon="-1.64072">
        <ele>-91.75</ele>
        <time>2011-11-26T14:53:22Z</time>
      </trkpt>
      <trkpt lat="47.24888" lon="-1.64055">
        <ele>-91.5</ele>
        <time>2011-11-26T14:53:26Z</time>
      </trkpt>
      <trkpt lat="47.24891" lon="-1.64042">
        <ele>-92.5</ele>
        <time>2011-11-26T14:53:29Z</time>
      </trkpt>
      <trkpt lat="47.24888" lon="-1.64029">
        <ele>-93.25</ele>
        <time>2011-11-26T14:53:34Z</time>
      </trkpt>
      <trkpt lat="47.24895" lon="-1.6404">
        <ele>-94.25</ele>
        <time>2011-11-26T14:54:33Z</time>
      </trkpt>
      <trkpt lat="47.24902" lon="-1.64048">
        <ele>-95</ele>
        <time>2011-11-26T14:54:36Z</time>
      </trkpt>
      <trkpt lat="47.2491" lon="-1.64057">
        <ele>-95</ele>
        <time>2011-11-26T14:54:40Z</time>
      </trkpt>
      <trkpt lat="47.24918" lon="-1.64065">
        <ele>-95.25</ele>
        <time>2011-11-26T14:54:43Z</time>
      </trkpt>
      <trkpt lat="47.24928" lon="-1.64072">
        <ele>-95</ele>
        <time>2011-11-26T14:54:46Z</time>
      </trkpt>
      <trkpt lat="47.2494" lon="-1.64073">
        <ele>-95</ele>
        <time>2011-11-26T14:54:49Z</time>
      </trkpt>
      <trkpt lat="47.24951" lon="-1.64069">
        <ele>-93.5</ele>
        <time>2011-11-26T14:54:53Z</time>
      </trkpt>
      <trkpt lat="47.2496" lon="-1.64065">
        <ele>-91.5</ele>
        <time>2011-11-26T14:54:55Z</time>
      </trkpt>
      <trkpt lat="47.24972" lon="-1.6406">
        <ele>-89.5</ele>
        <time>2011-11-26T14:54:58Z</time>
      </trkpt>
      <trkpt lat="47.24981" lon="-1.64053">
        <ele>-88.25</ele>
        <time>2011-11-26T14:55:01Z</time>
      </trkpt>
      <trkpt lat="47.24987" lon="-1.64042">
        <ele>-90.5</ele>
        <time>2011-11-26T14:55:07Z</time>
      </trkpt>
      <trkpt lat="47.24991" lon="-1.64029">
        <ele>-94.25</ele>
        <time>2011-11-26T14:55:12Z</time>
      </trkpt>
      <trkpt lat="47.24994" lon="-1.64016">
        <ele>-95.5</ele>
        <time>2011-11-26T14:55:16Z</time>
      </trkpt>
      <trkpt lat="47.24995" lon="-1.64001">
        <ele>-95.75</ele>
        <time>2011-11-26T14:55:21Z</time>
      </trkpt>
      <trkpt lat="47.24993" lon="-1.63988">
        <ele>-97</ele>
        <time>2011-11-26T14:55:25Z</time>
      </trkpt>
      <trkpt lat="47.24994" lon="-1.63975">
        <ele>-101.75</ele>
        <time>2011-11-26T14:55:34Z</time>
      </trkpt>
      <trkpt lat="47.25001" lon="-1.63964">
        <ele>-101.5</ele>
        <time>2011-11-26T14:55:44Z</time>
      </trkpt>
      <trkpt lat="47.25009" lon="-1.63956">
        <ele>-102.75</ele>
        <time>2011-11-26T14:55:47Z</time>
      </trkpt>
      <trkpt lat="47.25021" lon="-1.63948">
        <ele>-103</ele>
        <time>2011-11-26T14:55:50Z</time>
      </trkpt>
      <trkpt lat="47.25032" lon="-1.63938">
        <ele>-102.5</ele>
        <time>2011-11-26T14:55:54Z</time>
      </trkpt>
      <trkpt lat="47.25039" lon="-1.6393">
        <ele>-102.25</ele>
        <time>2011-11-26T14:55:57Z</time>
      </trkpt>
      <trkpt lat="47.25047" lon="-1.63923">
        <ele>-101.5</ele>
        <time>2011-11-26T14:56:01Z</time>
      </trkpt>
      <trkpt lat="47.25056" lon="-1.63916">
        <ele>-100.5</ele>
        <time>2011-11-26T14:56:03Z</time>
      </trkpt>
      <trkpt lat="47.25064" lon="-1.63908">
        <ele>-100</ele>
        <time>2011-11-26T14:56:05Z</time>
      </trkpt>
      <trkpt lat="47.25074" lon="-1.63898">
        <ele>-100</ele>
        <time>2011-11-26T14:56:08Z</time>
      </trkpt>
      <trkpt lat="47.25082" lon="-1.63889">
        <ele>-100</ele>
        <time>2011-11-26T14:56:10Z</time>
      </trkpt>
      <trkpt lat="47.25091" lon="-1.6388">
        <ele>-100</ele>
        <time>2011-11-26T14:56:13Z</time>
      </trkpt>
      <trkpt lat="47.25097" lon="-1.6387">
        <ele>-100</ele>
        <time>2011-11-26T14:56:15Z</time>
      </trkpt>
      <trkpt lat="47.25104" lon="-1.63858">
        <ele>-100</ele>
        <time>2011-11-26T14:56:17Z</time>
      </trkpt>
      <trkpt lat="47.2511" lon="-1.63845">
        <ele>-99.5</ele>
        <time>2011-11-26T14:56:19Z</time>
      </trkpt>
      <trkpt lat="47.25118" lon="-1.63833">
        <ele>-98.75</ele>
        <time>2011-11-26T14:56:21Z</time>
      </trkpt>
      <trkpt lat="47.25126" lon="-1.63823">
        <ele>-99.75</ele>
        <time>2011-11-26T14:56:23Z</time>
      </trkpt>
      <trkpt lat="47.25136" lon="-1.63815">
        <ele>-101.25</ele>
        <time>2011-11-26T14:56:26Z</time>
      </trkpt>
      <trkpt lat="47.25146" lon="-1.63808">
        <ele>-101.25</ele>
        <time>2011-11-26T14:56:28Z</time>
      </trkpt>
      <trkpt lat="47.25155" lon="-1.63802">
        <ele>-100.5</ele>
        <time>2011-11-26T14:56:30Z</time>
      </trkpt>
      <trkpt lat="47.25164" lon="-1.63797">
        <ele>-99.5</ele>
        <time>2011-11-26T14:56:32Z</time>
      </trkpt>
      <trkpt lat="47.25174" lon="-1.63794">
        <ele>-98.75</ele>
        <time>2011-11-26T14:56:34Z</time>
      </trkpt>
      <trkpt lat="47.25185" lon="-1.63796">
        <ele>-98.25</ele>
        <time>2011-11-26T14:56:36Z</time>
      </trkpt>
      <trkpt lat="47.25197" lon="-1.63801">
        <ele>-98.5</ele>
        <time>2011-11-26T14:56:38Z</time>
      </trkpt>
      <trkpt lat="47.25208" lon="-1.63807">
        <ele>-99.25</ele>
        <time>2011-11-26T14:56:41Z</time>
      </trkpt>
      <trkpt lat="47.25216" lon="-1.63813">
        <ele>-99.75</ele>
        <time>2011-11-26T14:56:43Z</time>
      </trkpt>
      <trkpt lat="47.2523" lon="-1.63818">
        <ele>-100.25</ele>
        <time>2011-11-26T14:56:46Z</time>
      </trkpt>
      <trkpt lat="47.25242" lon="-1.63818">
        <ele>-99.75</ele>
        <time>2011-11-26T14:56:48Z</time>
      </trkpt>
      <trkpt lat="47.25255" lon="-1.63815">
        <ele>-98.5</ele>
        <time>2011-11-26T14:56:51Z</time>
      </trkpt>
      <trkpt lat="47.25264" lon="-1.6381">
        <ele>-97.25</ele>
        <time>2011-11-26T14:56:53Z</time>
      </trkpt>
      <trkpt lat="47.25273" lon="-1.63802">
        <ele>-97.5</ele>
        <time>2011-11-26T14:56:56Z</time>
      </trkpt>
      <trkpt lat="47.25282" lon="-1.63793">
        <ele>-98.25</ele>
        <time>2011-11-26T14:56:59Z</time>
      </trkpt>
      <trkpt lat="47.25293" lon="-1.6378">
        <ele>-99.75</ele>
        <time>2011-11-26T14:57:02Z</time>
      </trkpt>
      <trkpt lat="47.25297" lon="-1.63765">
        <ele>-100.5</ele>
        <time>2011-11-26T14:57:05Z</time>
      </trkpt>
      <trkpt lat="47.25299" lon="-1.63751">
        <ele>-101.25</ele>
        <time>2011-11-26T14:57:07Z</time>
      </trkpt>
      <trkpt lat="47.25302" lon="-1.63735">
        <ele>-103.75</ele>
        <time>2011-11-26T14:57:11Z</time>
      </trkpt>
      <trkpt lat="47.25304" lon="-1.63722">
        <ele>-108</ele>
        <time>2011-11-26T14:57:20Z</time>
      </trkpt>
      <trkpt lat="47.25297" lon="-1.63711">
        <ele>-110.5</ele>
        <time>2011-11-26T14:58:45Z</time>
      </trkpt>
      <trkpt lat="47.25285" lon="-1.63708">
        <ele>-113.5</ele>
        <time>2011-11-26T14:58:50Z</time>
      </trkpt>
      <trkpt lat="47.25274" lon="-1.63707">
        <ele>-116</ele>
        <time>2011-11-26T14:58:54Z</time>
      </trkpt>
      <trkpt lat="47.25265" lon="-1.63705">
        <ele>-116.5</ele>
        <time>2011-11-26T14:58:57Z</time>
      </trkpt>
      <trkpt lat="47.25254" lon="-1.63702">
        <ele>-117</ele>
        <time>2011-11-26T14:59:02Z</time>
      </trkpt>
      <trkpt lat="47.25244" lon="-1.63699">
        <ele>-118.25</ele>
        <time>2011-11-26T14:59:07Z</time>
      </trkpt>
      <trkpt lat="47.25235" lon="-1.63688">
        <ele>-117.5</ele>
        <time>2011-11-26T14:59:11Z</time>
      </trkpt>
      <trkpt lat="47.25226" lon="-1.63682">
        <ele>-116.5</ele>
        <time>2011-11-26T14:59:15Z</time>
      </trkpt>
      <trkpt lat="47.25218" lon="-1.63678">
        <ele>-114</ele>
        <time>2011-11-26T14:59:18Z</time>
      </trkpt>
      <trkpt lat="47.25208" lon="-1.63671">
        <ele>-111.75</ele>
        <time>2011-11-26T14:59:21Z</time>
      </trkpt>
      <trkpt lat="47.252" lon="-1.63665">
        <ele>-109.75</ele>
        <time>2011-11-26T14:59:24Z</time>
      </trkpt>
      <trkpt lat="47.25191" lon="-1.63657">
        <ele>-108.5</ele>
        <time>2011-11-26T14:59:29Z</time>
      </trkpt>
      <trkpt lat="47.25185" lon="-1.63648">
        <ele>-109</ele>
        <time>2011-11-26T14:59:33Z</time>
      </trkpt>
      <trkpt lat="47.25177" lon="-1.63636">
        <ele>-106.5</ele>
        <time>2011-11-26T14:59:39Z</time>
      </trkpt>
      <trkpt lat="47.25167" lon="-1.63636">
        <ele>-106.5</ele>
        <time>2011-11-26T14:59:43Z</time>
      </trkpt>
      <trkpt lat="47.25157" lon="-1.6364">
        <ele>-108.5</ele>
        <time>2011-11-26T14:59:48Z</time>
      </trkpt>
      <trkpt lat="47.25149" lon="-1.63645">
        <ele>-105.5</ele>
        <time>2011-11-26T15:00:23Z</time>
      </trkpt>
      <trkpt lat="47.25148" lon="-1.63632">
        <ele>-110.25</ele>
        <time>2011-11-26T15:01:32Z</time>
      </trkpt>
      <trkpt lat="47.25141" lon="-1.63639">
        <ele>-107</ele>
        <time>2011-11-26T15:02:02Z</time>
      </trkpt>
      <trkpt lat="47.2514" lon="-1.63656">
        <ele>-102.25</ele>
        <time>2011-11-26T15:02:20Z</time>
      </trkpt>
      <trkpt lat="47.25135" lon="-1.63676">
        <ele>-104.5</ele>
        <time>2011-11-26T15:02:23Z</time>
      </trkpt>
      <trkpt lat="47.25127" lon="-1.63689">
        <ele>-105.75</ele>
        <time>2011-11-26T15:02:26Z</time>
      </trkpt>
      <trkpt lat="47.25117" lon="-1.63698">
        <ele>-107</ele>
        <time>2011-11-26T15:02:28Z</time>
      </trkpt>
      <trkpt lat="47.25108" lon="-1.63704">
        <ele>-108.5</ele>
        <time>2011-11-26T15:02:30Z</time>
      </trkpt>
      <trkpt lat="47.251" lon="-1.63711">
        <ele>-109.75</ele>
        <time>2011-11-26T15:02:32Z</time>
      </trkpt>
      <trkpt lat="47.25089" lon="-1.63724">
        <ele>-110</ele>
        <time>2011-11-26T15:02:35Z</time>
      </trkpt>
      <trkpt lat="47.25082" lon="-1.63735">
        <ele>-110.25</ele>
        <time>2011-11-26T15:02:37Z</time>
      </trkpt>
      <trkpt lat="47.2508" lon="-1.63751">
        <ele>-112.25</ele>
        <time>2011-11-26T15:02:40Z</time>
      </trkpt>
      <trkpt lat="47.25084" lon="-1.63764">
        <ele>-114.5</ele>
        <time>2011-11-26T15:02:42Z</time>
      </trkpt>
      <trkpt lat="47.25091" lon="-1.63774">
        <ele>-116.5</ele>
        <time>2011-11-26T15:02:44Z</time>
      </trkpt>
      <trkpt lat="47.25099" lon="-1.63785">
        <ele>-116.5</ele>
        <time>2011-11-26T15:02:46Z</time>
      </trkpt>
      <trkpt lat="47.25107" lon="-1.63797">
        <ele>-115.25</ele>
        <time>2011-11-26T15:02:48Z</time>
      </trkpt>
      <trkpt lat="47.25114" lon="-1.6381">
        <ele>-113.75</ele>
        <time>2011-11-26T15:02:50Z</time>
      </trkpt>
      <trkpt lat="47.25123" lon="-1.63819">
        <ele>-110.5</ele>
        <time>2011-11-26T15:02:53Z</time>
      </trkpt>
      <trkpt lat="47.25133" lon="-1.63819">
        <ele>-107.5</ele>
        <time>2011-11-26T15:02:55Z</time>
      </trkpt>
      <trkpt lat="47.25142" lon="-1.63814">
        <ele>-105.75</ele>
        <time>2011-11-26T15:02:57Z</time>
      </trkpt>
      <trkpt lat="47.25152" lon="-1.63808">
        <ele>-104.25</ele>
        <time>2011-11-26T15:02:59Z</time>
      </trkpt>
      <trkpt lat="47.25163" lon="-1.63803">
        <ele>-103</ele>
        <time>2011-11-26T15:03:02Z</time>
      </trkpt>
      <trkpt lat="47.25174" lon="-1.638">
        <ele>-101.75</ele>
        <time>2011-11-26T15:03:04Z</time>
      </trkpt>
      <trkpt lat="47.25184" lon="-1.63801">
        <ele>-101.5</ele>
        <time>2011-11-26T15:03:06Z</time>
      </trkpt>
      <trkpt lat="47.25193" lon="-1.63806">
        <ele>-101.5</ele>
        <time>2011-11-26T15:03:08Z</time>
      </trkpt>
      <trkpt lat="47.25203" lon="-1.63812">
        <ele>-100.75</ele>
        <time>2011-11-26T15:03:10Z</time>
      </trkpt>
      <trkpt lat="47.25217" lon="-1.63819">
        <ele>-100.5</ele>
        <time>2011-11-26T15:03:13Z</time>
      </trkpt>
      <trkpt lat="47.25231" lon="-1.63823">
        <ele>-100.5</ele>
        <time>2011-11-26T15:03:15Z</time>
      </trkpt>
      <trkpt lat="47.25243" lon="-1.63822">
        <ele>-99.5</ele>
        <time>2011-11-26T15:03:17Z</time>
      </trkpt>
      <trkpt lat="47.25255" lon="-1.63818">
        <ele>-97.5</ele>
        <time>2011-11-26T15:03:19Z</time>
      </trkpt>
      <trkpt lat="47.25266" lon="-1.63812">
        <ele>-96.5</ele>
        <time>2011-11-26T15:03:21Z</time>
      </trkpt>
      <trkpt lat="47.25275" lon="-1.63804">
        <ele>-95.75</ele>
        <time>2011-11-26T15:03:23Z</time>
      </trkpt>
      <trkpt lat="47.25284" lon="-1.63794">
        <ele>-95</ele>
        <time>2011-11-26T15:03:25Z</time>
      </trkpt>
      <trkpt lat="47.25293" lon="-1.63783">
        <ele>-95.5</ele>
        <time>2011-11-26T15:03:28Z</time>
      </trkpt>
      <trkpt lat="47.25299" lon="-1.63768">
        <ele>-96.75</ele>
        <time>2011-11-26T15:03:31Z</time>
      </trkpt>
      <trkpt lat="47.253" lon="-1.63751">
        <ele>-100</ele>
        <time>2011-11-26T15:03:35Z</time>
      </trkpt>
      <trkpt lat="47.25303" lon="-1.63733">
        <ele>-105.25</ele>
        <time>2011-11-26T15:03:39Z</time>
      </trkpt>
      <trkpt lat="47.25301" lon="-1.63719">
        <ele>-110.25</ele>
        <time>2011-11-26T15:03:44Z</time>
      </trkpt>
      <trkpt lat="47.25292" lon="-1.63715">
        <ele>-117</ele>
        <time>2011-11-26T15:03:50Z</time>
      </trkpt>
      <trkpt lat="47.2528" lon="-1.63711">
        <ele>-118.25</ele>
        <time>2011-11-26T15:03:53Z</time>
      </trkpt>
      <trkpt lat="47.25268" lon="-1.63709">
        <ele>-119.75</ele>
        <time>2011-11-26T15:03:57Z</time>
      </trkpt>
      <trkpt lat="47.25259" lon="-1.63705">
        <ele>-120.25</ele>
        <time>2011-11-26T15:04:00Z</time>
      </trkpt>
      <trkpt lat="47.25249" lon="-1.63701">
        <ele>-120.25</ele>
        <time>2011-11-26T15:04:06Z</time>
      </trkpt>
      <trkpt lat="47.25241" lon="-1.63692">
        <ele>-121</ele>
        <time>2011-11-26T15:04:10Z</time>
      </trkpt>
      <trkpt lat="47.25231" lon="-1.63684">
        <ele>-121</ele>
        <time>2011-11-26T15:04:14Z</time>
      </trkpt>
      <trkpt lat="47.25222" lon="-1.63679">
        <ele>-121</ele>
        <time>2011-11-26T15:04:17Z</time>
      </trkpt>
      <trkpt lat="47.25212" lon="-1.6367">
        <ele>-119.25</ele>
        <time>2011-11-26T15:04:22Z</time>
      </trkpt>
      <trkpt lat="47.25203" lon="-1.63663">
        <ele>-119.25</ele>
        <time>2011-11-26T15:04:27Z</time>
      </trkpt>
      <trkpt lat="47.25195" lon="-1.63651">
        <ele>-120</ele>
        <time>2011-11-26T15:04:32Z</time>
      </trkpt>
      <trkpt lat="47.2519" lon="-1.6364">
        <ele>-120.75</ele>
        <time>2011-11-26T15:04:36Z</time>
      </trkpt>
      <trkpt lat="47.25181" lon="-1.63636">
        <ele>-118.5</ele>
        <time>2011-11-26T15:04:39Z</time>
      </trkpt>
      <trkpt lat="47.2517" lon="-1.63636">
        <ele>-117.5</ele>
        <time>2011-11-26T15:04:42Z</time>
      </trkpt>
      <trkpt lat="47.25161" lon="-1.6364">
        <ele>-119</ele>
        <time>2011-11-26T15:04:46Z</time>
      </trkpt>
      <trkpt lat="47.25152" lon="-1.6364">
        <ele>-120.25</ele>
        <time>2011-11-26T15:05:09Z</time>
      </trkpt>
      <trkpt lat="47.25152" lon="-1.63657">
        <ele>-121.25</ele>
        <time>2011-11-26T15:05:21Z</time>
      </trkpt>
      <trkpt lat="47.2515" lon="-1.63671">
        <ele>-121.25</ele>
        <time>2011-11-26T15:05:24Z</time>
      </trkpt>
      <trkpt lat="47.25143" lon="-1.63682">
        <ele>-121</ele>
        <time>2011-11-26T15:05:26Z</time>
      </trkpt>
      <trkpt lat="47.25134" lon="-1.6369">
        <ele>-121</ele>
        <time>2011-11-26T15:05:28Z</time>
      </trkpt>
      <trkpt lat="47.25125" lon="-1.63696">
        <ele>-121.25</ele>
        <time>2011-11-26T15:05:30Z</time>
      </trkpt>
      <trkpt lat="47.25116" lon="-1.63702">
        <ele>-121.75</ele>
        <time>2011-11-26T15:05:32Z</time>
      </trkpt>
      <trkpt lat="47.25105" lon="-1.63711">
        <ele>-122.5</ele>
        <time>2011-11-26T15:05:34Z</time>
      </trkpt>
      <trkpt lat="47.25095" lon="-1.63722">
        <ele>-121.5</ele>
        <time>2011-11-26T15:05:37Z</time>
      </trkpt>
      <trkpt lat="47.25087" lon="-1.63735">
        <ele>-118</ele>
        <time>2011-11-26T15:05:39Z</time>
      </trkpt>
      <trkpt lat="47.25082" lon="-1.63751">
        <ele>-116</ele>
        <time>2011-11-26T15:05:41Z</time>
      </trkpt>
      <trkpt lat="47.2508" lon="-1.63765">
        <ele>-116</ele>
        <time>2011-11-26T15:05:43Z</time>
      </trkpt>
      <trkpt lat="47.25087" lon="-1.63779">
        <ele>-116.5</ele>
        <time>2011-11-26T15:05:46Z</time>
      </trkpt>
      <trkpt lat="47.25096" lon="-1.63792">
        <ele>-117.25</ele>
        <time>2011-11-26T15:05:48Z</time>
      </trkpt>
      <trkpt lat="47.25103" lon="-1.63804">
        <ele>-117.5</ele>
        <time>2011-11-26T15:05:50Z</time>
      </trkpt>
      <trkpt lat="47.25113" lon="-1.63816">
        <ele>-114.25</ele>
        <time>2011-11-26T15:05:52Z</time>
      </trkpt>
      <trkpt lat="47.25123" lon="-1.63825">
        <ele>-109.25</ele>
        <time>2011-11-26T15:05:54Z</time>
      </trkpt>
      <trkpt lat="47.25133" lon="-1.63824">
        <ele>-106</ele>
        <time>2011-11-26T15:05:56Z</time>
      </trkpt>
      <trkpt lat="47.25144" lon="-1.63815">
        <ele>-102.75</ele>
        <time>2011-11-26T15:05:58Z</time>
      </trkpt>
      <trkpt lat="47.25157" lon="-1.63805">
        <ele>-100</ele>
        <time>2011-11-26T15:06:01Z</time>
      </trkpt>
      <trkpt lat="47.25169" lon="-1.63799">
        <ele>-98</ele>
        <time>2011-11-26T15:06:03Z</time>
      </trkpt>
      <trkpt lat="47.2518" lon="-1.63797">
        <ele>-96.75</ele>
        <time>2011-11-26T15:06:05Z</time>
      </trkpt>
      <trkpt lat="47.25192" lon="-1.63803">
        <ele>-98.25</ele>
        <time>2011-11-26T15:06:08Z</time>
      </trkpt>
      <trkpt lat="47.25202" lon="-1.63809">
        <ele>-99</ele>
        <time>2011-11-26T15:06:10Z</time>
      </trkpt>
      <trkpt lat="47.25211" lon="-1.63816">
        <ele>-99.5</ele>
        <time>2011-11-26T15:06:12Z</time>
      </trkpt>
      <trkpt lat="47.25223" lon="-1.6382">
        <ele>-99</ele>
        <time>2011-11-26T15:06:15Z</time>
      </trkpt>
      <trkpt lat="47.25237" lon="-1.6382">
        <ele>-97</ele>
        <time>2011-11-26T15:06:17Z</time>
      </trkpt>
      <trkpt lat="47.25249" lon="-1.63817">
        <ele>-95.25</ele>
        <time>2011-11-26T15:06:19Z</time>
      </trkpt>
      <trkpt lat="47.25259" lon="-1.63812">
        <ele>-93.5</ele>
        <time>2011-11-26T15:06:21Z</time>
      </trkpt>
      <trkpt lat="47.2527" lon="-1.63804">
        <ele>-91</ele>
        <time>2011-11-26T15:06:24Z</time>
      </trkpt>
      <trkpt lat="47.25279" lon="-1.63795">
        <ele>-89.75</ele>
        <time>2011-11-26T15:06:26Z</time>
      </trkpt>
      <trkpt lat="47.25288" lon="-1.63785">
        <ele>-88.5</ele>
        <time>2011-11-26T15:06:29Z</time>
      </trkpt>
      <trkpt lat="47.25295" lon="-1.63769">
        <ele>-88.75</ele>
        <time>2011-11-26T15:06:32Z</time>
      </trkpt>
      <trkpt lat="47.25298" lon="-1.63753">
        <ele>-93.5</ele>
        <time>2011-11-26T15:06:36Z</time>
      </trkpt>
      <trkpt lat="47.253" lon="-1.63739">
        <ele>-99.75</ele>
        <time>2011-11-26T15:06:40Z</time>
      </trkpt>
      <trkpt lat="47.25304" lon="-1.63727">
        <ele>-106.5</ele>
        <time>2011-11-26T15:06:48Z</time>
      </trkpt>
      <trkpt lat="47.2531" lon="-1.63718">
        <ele>-112.25</ele>
        <time>2011-11-26T15:07:36Z</time>
      </trkpt>
      <trkpt lat="47.25301" lon="-1.63721">
        <ele>-110</ele>
        <time>2011-11-26T15:08:22Z</time>
      </trkpt>
      <trkpt lat="47.2531" lon="-1.63716">
        <ele>-121</ele>
        <time>2011-11-26T15:10:12Z</time>
      </trkpt>
      <trkpt lat="47.25301" lon="-1.6372">
        <ele>-108</ele>
        <time>2011-11-26T15:11:02Z</time>
      </trkpt>
      <trkpt lat="47.2531" lon="-1.63715">
        <ele>-97</ele>
        <time>2011-11-26T15:11:48Z</time>
      </trkpt>
      <trkpt lat="47.25302" lon="-1.63708">
        <ele>-103.25</ele>
        <time>2011-11-26T15:12:26Z</time>
      </trkpt>
      <trkpt lat="47.25305" lon="-1.63691">
        <ele>-108</ele>
        <time>2011-11-26T15:12:36Z</time>
      </trkpt>
      <trkpt lat="47.25307" lon="-1.63673">
        <ele>-107.75</ele>
        <time>2011-11-26T15:12:39Z</time>
      </trkpt>
      <trkpt lat="47.25309" lon="-1.63654">
        <ele>-107</ele>
        <time>2011-11-26T15:12:42Z</time>
      </trkpt>
      <trkpt lat="47.2531" lon="-1.63636">
        <ele>-107.5</ele>
        <time>2011-11-26T15:12:45Z</time>
      </trkpt>
      <trkpt lat="47.25305" lon="-1.6362">
        <ele>-110</ele>
        <time>2011-11-26T15:12:49Z</time>
      </trkpt>
      <trkpt lat="47.25297" lon="-1.63611">
        <ele>-112.5</ele>
        <time>2011-11-26T15:12:51Z</time>
      </trkpt>
      <trkpt lat="47.25289" lon="-1.63604">
        <ele>-114.5</ele>
        <time>2011-11-26T15:12:53Z</time>
      </trkpt>
      <trkpt lat="47.25281" lon="-1.63597">
        <ele>-115.75</ele>
        <time>2011-11-26T15:12:55Z</time>
      </trkpt>
      <trkpt lat="47.25273" lon="-1.63588">
        <ele>-116.75</ele>
        <time>2011-11-26T15:12:57Z</time>
      </trkpt>
      <trkpt lat="47.25263" lon="-1.63578">
        <ele>-118.25</ele>
        <time>2011-11-26T15:12:59Z</time>
      </trkpt>
      <trkpt lat="47.25254" lon="-1.63568">
        <ele>-118.75</ele>
        <time>2011-11-26T15:13:01Z</time>
      </trkpt>
      <trkpt lat="47.25246" lon="-1.63557">
        <ele>-117.25</ele>
        <time>2011-11-26T15:13:04Z</time>
      </trkpt>
      <trkpt lat="47.25239" lon="-1.63547">
        <ele>-116</ele>
        <time>2011-11-26T15:13:06Z</time>
      </trkpt>
      <trkpt lat="47.2523" lon="-1.63536">
        <ele>-115.25</ele>
        <time>2011-11-26T15:13:09Z</time>
      </trkpt>
      <trkpt lat="47.25221" lon="-1.63526">
        <ele>-114.75</ele>
        <time>2011-11-26T15:13:12Z</time>
      </trkpt>
      <trkpt lat="47.25211" lon="-1.63518">
        <ele>-115</ele>
        <time>2011-11-26T15:13:15Z</time>
      </trkpt>
      <trkpt lat="47.252" lon="-1.63517">
        <ele>-115.75</ele>
        <time>2011-11-26T15:13:19Z</time>
      </trkpt>
      <trkpt lat="47.25187" lon="-1.63522">
        <ele>-115</ele>
        <time>2011-11-26T15:13:22Z</time>
      </trkpt>
      <trkpt lat="47.25176" lon="-1.63526">
        <ele>-114</ele>
        <time>2011-11-26T15:13:25Z</time>
      </trkpt>
      <trkpt lat="47.25165" lon="-1.63525">
        <ele>-114</ele>
        <time>2011-11-26T15:13:29Z</time>
      </trkpt>
      <trkpt lat="47.25158" lon="-1.63517">
        <ele>-114</ele>
        <time>2011-11-26T15:13:31Z</time>
      </trkpt>
      <trkpt lat="47.25151" lon="-1.63504">
        <ele>-114.5</ele>
        <time>2011-11-26T15:13:33Z</time>
      </trkpt>
      <trkpt lat="47.25145" lon="-1.63492">
        <ele>-114.5</ele>
        <time>2011-11-26T15:13:35Z</time>
      </trkpt>
      <trkpt lat="47.25139" lon="-1.63481">
        <ele>-114</ele>
        <time>2011-11-26T15:13:37Z</time>
      </trkpt>
      <trkpt lat="47.25133" lon="-1.6347">
        <ele>-114</ele>
        <time>2011-11-26T15:13:39Z</time>
      </trkpt>
      <trkpt lat="47.25125" lon="-1.63462">
        <ele>-114</ele>
        <time>2011-11-26T15:13:41Z</time>
      </trkpt>
      <trkpt lat="47.25115" lon="-1.63458">
        <ele>-113.25</ele>
        <time>2011-11-26T15:13:44Z</time>
      </trkpt>
      <trkpt lat="47.25104" lon="-1.63461">
        <ele>-112.75</ele>
        <time>2011-11-26T15:13:47Z</time>
      </trkpt>
      <trkpt lat="47.25094" lon="-1.63464">
        <ele>-113.75</ele>
        <time>2011-11-26T15:13:50Z</time>
      </trkpt>
      <trkpt lat="47.25083" lon="-1.63464">
        <ele>-115.5</ele>
        <time>2011-11-26T15:13:53Z</time>
      </trkpt>
      <trkpt lat="47.25071" lon="-1.63464">
        <ele>-116.5</ele>
        <time>2011-11-26T15:13:57Z</time>
      </trkpt>
      <trkpt lat="47.25061" lon="-1.63465">
        <ele>-117.25</ele>
        <time>2011-11-26T15:13:59Z</time>
      </trkpt>
      <trkpt lat="47.25049" lon="-1.63461">
        <ele>-118</ele>
        <time>2011-11-26T15:14:02Z</time>
      </trkpt>
      <trkpt lat="47.25039" lon="-1.63457">
        <ele>-119</ele>
        <time>2011-11-26T15:14:05Z</time>
      </trkpt>
      <trkpt lat="47.25029" lon="-1.63454">
        <ele>-120</ele>
        <time>2011-11-26T15:14:08Z</time>
      </trkpt>
      <trkpt lat="47.25017" lon="-1.6345">
        <ele>-120.75</ele>
        <time>2011-11-26T15:14:11Z</time>
      </trkpt>
      <trkpt lat="47.25007" lon="-1.63449">
        <ele>-121.75</ele>
        <time>2011-11-26T15:14:14Z</time>
      </trkpt>
      <trkpt lat="47.24994" lon="-1.6345">
        <ele>-121</ele>
        <time>2011-11-26T15:14:17Z</time>
      </trkpt>
      <trkpt lat="47.24981" lon="-1.63451">
        <ele>-119</ele>
        <time>2011-11-26T15:14:20Z</time>
      </trkpt>
      <trkpt lat="47.24971" lon="-1.63454">
        <ele>-120.25</ele>
        <time>2011-11-26T15:14:23Z</time>
      </trkpt>
      <trkpt lat="47.2496" lon="-1.63461">
        <ele>-123.25</ele>
        <time>2011-11-26T15:14:27Z</time>
      </trkpt>
      <trkpt lat="47.24953" lon="-1.63469">
        <ele>-122.75</ele>
        <time>2011-11-26T15:14:29Z</time>
      </trkpt>
      <trkpt lat="47.24946" lon="-1.63478">
        <ele>-120.5</ele>
        <time>2011-11-26T15:14:31Z</time>
      </trkpt>
      <trkpt lat="47.24937" lon="-1.63485">
        <ele>-118</ele>
        <time>2011-11-26T15:14:33Z</time>
      </trkpt>
      <trkpt lat="47.24929" lon="-1.63492">
        <ele>-115.5</ele>
        <time>2011-11-26T15:14:35Z</time>
      </trkpt>
      <trkpt lat="47.2492" lon="-1.635">
        <ele>-113</ele>
        <time>2011-11-26T15:14:37Z</time>
      </trkpt>
      <trkpt lat="47.2491" lon="-1.63509">
        <ele>-112.25</ele>
        <time>2011-11-26T15:14:40Z</time>
      </trkpt>
      <trkpt lat="47.249" lon="-1.63519">
        <ele>-113.5</ele>
        <time>2011-11-26T15:14:42Z</time>
      </trkpt>
      <trkpt lat="47.24892" lon="-1.63526">
        <ele>-114.25</ele>
        <time>2011-11-26T15:14:44Z</time>
      </trkpt>
      <trkpt lat="47.24881" lon="-1.63534">
        <ele>-115.25</ele>
        <time>2011-11-26T15:14:47Z</time>
      </trkpt>
      <trkpt lat="47.2487" lon="-1.63541">
        <ele>-113.75</ele>
        <time>2011-11-26T15:14:50Z</time>
      </trkpt>
      <trkpt lat="47.24859" lon="-1.63547">
        <ele>-111.75</ele>
        <time>2011-11-26T15:14:52Z</time>
      </trkpt>
      <trkpt lat="47.2485" lon="-1.63548">
        <ele>-111.75</ele>
        <time>2011-11-26T15:14:54Z</time>
      </trkpt>
      <trkpt lat="47.24837" lon="-1.63542">
        <ele>-114.25</ele>
        <time>2011-11-26T15:14:57Z</time>
      </trkpt>
      <trkpt lat="47.24827" lon="-1.63534">
        <ele>-117.25</ele>
        <time>2011-11-26T15:15:01Z</time>
      </trkpt>
      <trkpt lat="47.24819" lon="-1.63528">
        <ele>-118.5</ele>
        <time>2011-11-26T15:15:06Z</time>
      </trkpt>
      <trkpt lat="47.24813" lon="-1.63518">
        <ele>-114</ele>
        <time>2011-11-26T15:15:16Z</time>
      </trkpt>
      <trkpt lat="47.24806" lon="-1.63508">
        <ele>-114.25</ele>
        <time>2011-11-26T15:15:24Z</time>
      </trkpt>
      <trkpt lat="47.24796" lon="-1.63507">
        <ele>-113.5</ele>
        <time>2011-11-26T15:15:28Z</time>
      </trkpt>
      <trkpt lat="47.24787" lon="-1.6351">
        <ele>-111.5</ele>
        <time>2011-11-26T15:15:30Z</time>
      </trkpt>
      <trkpt lat="47.24777" lon="-1.63513">
        <ele>-110.25</ele>
        <time>2011-11-26T15:15:32Z</time>
      </trkpt>
      <trkpt lat="47.24766" lon="-1.63517">
        <ele>-109.5</ele>
        <time>2011-11-26T15:15:34Z</time>
      </trkpt>
      <trkpt lat="47.24755" lon="-1.63522">
        <ele>-109</ele>
        <time>2011-11-26T15:15:36Z</time>
      </trkpt>
      <trkpt lat="47.24745" lon="-1.63526">
        <ele>-109.25</ele>
        <time>2011-11-26T15:15:38Z</time>
      </trkpt>
      <trkpt lat="47.24731" lon="-1.63529">
        <ele>-109.75</ele>
        <time>2011-11-26T15:15:41Z</time>
      </trkpt>
      <trkpt lat="47.24718" lon="-1.63532">
        <ele>-110</ele>
        <time>2011-11-26T15:15:43Z</time>
      </trkpt>
      <trkpt lat="47.24707" lon="-1.63535">
        <ele>-110.5</ele>
        <time>2011-11-26T15:15:45Z</time>
      </trkpt>
      <trkpt lat="47.24697" lon="-1.63537">
        <ele>-112</ele>
        <time>2011-11-26T15:15:47Z</time>
      </trkpt>
      <trkpt lat="47.24685" lon="-1.63538">
        <ele>-113.5</ele>
        <time>2011-11-26T15:15:50Z</time>
      </trkpt>
      <trkpt lat="47.24671" lon="-1.6354">
        <ele>-114.5</ele>
        <time>2011-11-26T15:15:52Z</time>
      </trkpt>
      <trkpt lat="47.24659" lon="-1.63542">
        <ele>-114.5</ele>
        <time>2011-11-26T15:15:54Z</time>
      </trkpt>
      <trkpt lat="47.24647" lon="-1.63545">
        <ele>-114</ele>
        <time>2011-11-26T15:15:56Z</time>
      </trkpt>
      <trkpt lat="47.24635" lon="-1.63547">
        <ele>-113.5</ele>
        <time>2011-11-26T15:15:58Z</time>
      </trkpt>
      <trkpt lat="47.24622" lon="-1.63549">
        <ele>-113</ele>
        <time>2011-11-26T15:16:00Z</time>
      </trkpt>
      <trkpt lat="47.24607" lon="-1.6355">
        <ele>-112.5</ele>
        <time>2011-11-26T15:16:03Z</time>
      </trkpt>
      <trkpt lat="47.24591" lon="-1.63549">
        <ele>-112.25</ele>
        <time>2011-11-26T15:16:05Z</time>
      </trkpt>
      <trkpt lat="47.24579" lon="-1.63549">
        <ele>-111.75</ele>
        <time>2011-11-26T15:16:07Z</time>
      </trkpt>
      <trkpt lat="47.24567" lon="-1.63549">
        <ele>-110.75</ele>
        <time>2011-11-26T15:16:09Z</time>
      </trkpt>
      <trkpt lat="47.24556" lon="-1.63551">
        <ele>-110</ele>
        <time>2011-11-26T15:16:11Z</time>
      </trkpt>
      <trkpt lat="47.24546" lon="-1.63552">
        <ele>-107.25</ele>
        <time>2011-11-26T15:16:13Z</time>
      </trkpt>
      <trkpt lat="47.24533" lon="-1.63556">
        <ele>-101.5</ele>
        <time>2011-11-26T15:16:17Z</time>
      </trkpt>
      <trkpt lat="47.24525" lon="-1.63561">
        <ele>-99</ele>
        <time>2011-11-26T15:16:19Z</time>
      </trkpt>
      <trkpt lat="47.24514" lon="-1.63566">
        <ele>-97.5</ele>
        <time>2011-11-26T15:16:22Z</time>
      </trkpt>
      <trkpt lat="47.24506" lon="-1.63573">
        <ele>-94.75</ele>
        <time>2011-11-26T15:16:25Z</time>
      </trkpt>
      <trkpt lat="47.24498" lon="-1.63586">
        <ele>-89</ele>
        <time>2011-11-26T15:16:29Z</time>
      </trkpt>
      <trkpt lat="47.24489" lon="-1.63599">
        <ele>-85.75</ele>
        <time>2011-11-26T15:16:33Z</time>
      </trkpt>
      <trkpt lat="47.2448" lon="-1.63605">
        <ele>-83</ele>
        <time>2011-11-26T15:16:36Z</time>
      </trkpt>
      <trkpt lat="47.24471" lon="-1.63611">
        <ele>-81.25</ele>
        <time>2011-11-26T15:16:39Z</time>
      </trkpt>
      <trkpt lat="47.24459" lon="-1.6362">
        <ele>-80.25</ele>
        <time>2011-11-26T15:16:42Z</time>
      </trkpt>
      <trkpt lat="47.24449" lon="-1.6363">
        <ele>-80.75</ele>
        <time>2011-11-26T15:16:45Z</time>
      </trkpt>
      <trkpt lat="47.24441" lon="-1.63638">
        <ele>-81</ele>
        <time>2011-11-26T15:16:47Z</time>
      </trkpt>
      <trkpt lat="47.24433" lon="-1.63645">
        <ele>-80.25</ele>
        <time>2011-11-26T15:16:53Z</time>
      </trkpt>
      <trkpt lat="47.24427" lon="-1.63654">
        <ele>-81.75</ele>
        <time>2011-11-26T15:17:15Z</time>
      </trkpt>
      <trkpt lat="47.24418" lon="-1.63658">
        <ele>-79.75</ele>
        <time>2011-11-26T15:17:47Z</time>
      </trkpt>
      <trkpt lat="47.24407" lon="-1.63652">
        <ele>-79.75</ele>
        <time>2011-11-26T15:17:59Z</time>
      </trkpt>
      <trkpt lat="47.244" lon="-1.6364">
        <ele>-77.5</ele>
        <time>2011-11-26T15:18:03Z</time>
      </trkpt>
      <trkpt lat="47.24397" lon="-1.63628">
        <ele>-72.25</ele>
        <time>2011-11-26T15:18:38Z</time>
      </trkpt>
      <trkpt lat="47.24394" lon="-1.63615">
        <ele>-72.75</ele>
        <time>2011-11-26T15:18:41Z</time>
      </trkpt>
      <trkpt lat="47.2439" lon="-1.63601">
        <ele>-72.25</ele>
        <time>2011-11-26T15:18:44Z</time>
      </trkpt>
      <trkpt lat="47.24384" lon="-1.63582">
        <ele>-71.5</ele>
        <time>2011-11-26T15:18:46Z</time>
      </trkpt>
      <trkpt lat="47.24381" lon="-1.63569">
        <ele>-71</ele>
        <time>2011-11-26T15:18:48Z</time>
      </trkpt>
      <trkpt lat="47.24382" lon="-1.6355">
        <ele>-71</ele>
        <time>2011-11-26T15:18:51Z</time>
      </trkpt>
      <trkpt lat="47.24383" lon="-1.63534">
        <ele>-70.75</ele>
        <time>2011-11-26T15:18:56Z</time>
      </trkpt>
      <trkpt lat="47.24389" lon="-1.6352">
        <ele>-71.75</ele>
        <time>2011-11-26T15:19:00Z</time>
      </trkpt>
      <trkpt lat="47.24394" lon="-1.63508">
        <ele>-72.25</ele>
        <time>2011-11-26T15:19:05Z</time>
      </trkpt>
      <trkpt lat="47.24396" lon="-1.63495">
        <ele>-73</ele>
        <time>2011-11-26T15:19:08Z</time>
      </trkpt>
      <trkpt lat="47.24396" lon="-1.63478">
        <ele>-73.25</ele>
        <time>2011-11-26T15:19:11Z</time>
      </trkpt>
      <trkpt lat="47.24393" lon="-1.63458">
        <ele>-74</ele>
        <time>2011-11-26T15:19:14Z</time>
      </trkpt>
      <trkpt lat="47.24389" lon="-1.63441">
        <ele>-74</ele>
        <time>2011-11-26T15:19:18Z</time>
      </trkpt>
      <trkpt lat="47.24385" lon="-1.63426">
        <ele>-74.75</ele>
        <time>2011-11-26T15:19:22Z</time>
      </trkpt>
      <trkpt lat="47.24378" lon="-1.63416">
        <ele>-78.5</ele>
        <time>2011-11-26T15:19:31Z</time>
      </trkpt>
      <trkpt lat="47.24374" lon="-1.63401">
        <ele>-79</ele>
        <time>2011-11-26T15:19:37Z</time>
      </trkpt>
      <trkpt lat="47.24379" lon="-1.63385">
        <ele>-80.5</ele>
        <time>2011-11-26T15:19:40Z</time>
      </trkpt>
      <trkpt lat="47.24381" lon="-1.63371">
        <ele>-80.75</ele>
        <time>2011-11-26T15:19:42Z</time>
      </trkpt>
      <trkpt lat="47.24381" lon="-1.63358">
        <ele>-79.5</ele>
        <time>2011-11-26T15:19:45Z</time>
      </trkpt>
      <trkpt lat="47.24377" lon="-1.63345">
        <ele>-79.25</ele>
        <time>2011-11-26T15:19:47Z</time>
      </trkpt>
      <trkpt lat="47.24371" lon="-1.63333">
        <ele>-79.5</ele>
        <time>2011-11-26T15:19:49Z</time>
      </trkpt>
      <trkpt lat="47.24366" lon="-1.63322">
        <ele>-80</ele>
        <time>2011-11-26T15:19:51Z</time>
      </trkpt>
      <trkpt lat="47.24358" lon="-1.63307">
        <ele>-81.25</ele>
        <time>2011-11-26T15:19:54Z</time>
      </trkpt>
      <trkpt lat="47.24349" lon="-1.63298">
        <ele>-82.25</ele>
        <time>2011-11-26T15:19:56Z</time>
      </trkpt>
      <trkpt lat="47.2434" lon="-1.63289">
        <ele>-83</ele>
        <time>2011-11-26T15:19:59Z</time>
      </trkpt>
      <trkpt lat="47.24332" lon="-1.6328">
        <ele>-83.5</ele>
        <time>2011-11-26T15:20:01Z</time>
      </trkpt>
      <trkpt lat="47.24325" lon="-1.6327">
        <ele>-84.25</ele>
        <time>2011-11-26T15:20:03Z</time>
      </trkpt>
      <trkpt lat="47.24317" lon="-1.63258">
        <ele>-84.5</ele>
        <time>2011-11-26T15:20:05Z</time>
      </trkpt>
      <trkpt lat="47.24308" lon="-1.63246">
        <ele>-85</ele>
        <time>2011-11-26T15:20:07Z</time>
      </trkpt>
      <trkpt lat="47.24299" lon="-1.63234">
        <ele>-85.5</ele>
        <time>2011-11-26T15:20:09Z</time>
      </trkpt>
      <trkpt lat="47.24287" lon="-1.63219">
        <ele>-84.75</ele>
        <time>2011-11-26T15:20:11Z</time>
      </trkpt>
      <trkpt lat="47.24276" lon="-1.63206">
        <ele>-83.25</ele>
        <time>2011-11-26T15:20:14Z</time>
      </trkpt>
      <trkpt lat="47.24266" lon="-1.63199">
        <ele>-82.5</ele>
        <time>2011-11-26T15:20:16Z</time>
      </trkpt>
      <trkpt lat="47.24256" lon="-1.6319">
        <ele>-81.75</ele>
        <time>2011-11-26T15:20:18Z</time>
      </trkpt>
      <trkpt lat="47.24246" lon="-1.63179">
        <ele>-80.5</ele>
        <time>2011-11-26T15:20:20Z</time>
      </trkpt>
      <trkpt lat="47.24237" lon="-1.63167">
        <ele>-79.5</ele>
        <time>2011-11-26T15:20:22Z</time>
      </trkpt>
      <trkpt lat="47.24229" lon="-1.63155">
        <ele>-78.25</ele>
        <time>2011-11-26T15:20:24Z</time>
      </trkpt>
      <trkpt lat="47.24222" lon="-1.6314">
        <ele>-77.75</ele>
        <time>2011-11-26T15:20:26Z</time>
      </trkpt>
      <trkpt lat="47.24216" lon="-1.63124">
        <ele>-77.75</ele>
        <time>2011-11-26T15:20:29Z</time>
      </trkpt>
      <trkpt lat="47.24211" lon="-1.63108">
        <ele>-76.5</ele>
        <time>2011-11-26T15:20:31Z</time>
      </trkpt>
      <trkpt lat="47.24207" lon="-1.63093">
        <ele>-75</ele>
        <time>2011-11-26T15:20:33Z</time>
      </trkpt>
      <trkpt lat="47.24204" lon="-1.6308">
        <ele>-74.5</ele>
        <time>2011-11-26T15:20:35Z</time>
      </trkpt>
      <trkpt lat="47.24201" lon="-1.63065">
        <ele>-74.75</ele>
        <time>2011-11-26T15:20:37Z</time>
      </trkpt>
      <trkpt lat="47.242" lon="-1.63046">
        <ele>-75</ele>
        <time>2011-11-26T15:20:40Z</time>
      </trkpt>
      <trkpt lat="47.24199" lon="-1.63029">
        <ele>-75.75</ele>
        <time>2011-11-26T15:20:42Z</time>
      </trkpt>
      <trkpt lat="47.242" lon="-1.63016">
        <ele>-77</ele>
        <time>2011-11-26T15:20:44Z</time>
      </trkpt>
      <trkpt lat="47.24199" lon="-1.62997">
        <ele>-79.25</ele>
        <time>2011-11-26T15:20:47Z</time>
      </trkpt>
      <trkpt lat="47.24196" lon="-1.62981">
        <ele>-80</ele>
        <time>2011-11-26T15:20:49Z</time>
      </trkpt>
      <trkpt lat="47.2419" lon="-1.62962">
        <ele>-80</ele>
        <time>2011-11-26T15:20:52Z</time>
      </trkpt>
      <trkpt lat="47.24184" lon="-1.62944">
        <ele>-80</ele>
        <time>2011-11-26T15:20:54Z</time>
      </trkpt>
      <trkpt lat="47.24179" lon="-1.62928">
        <ele>-78.5</ele>
        <time>2011-11-26T15:20:56Z</time>
      </trkpt>
      <trkpt lat="47.24172" lon="-1.62913">
        <ele>-75.25</ele>
        <time>2011-11-26T15:20:58Z</time>
      </trkpt>
      <trkpt lat="47.24167" lon="-1.62898">
        <ele>-72.75</ele>
        <time>2011-11-26T15:21:00Z</time>
      </trkpt>
      <trkpt lat="47.24163" lon="-1.62882">
        <ele>-72</ele>
        <time>2011-11-26T15:21:02Z</time>
      </trkpt>
      <trkpt lat="47.24159" lon="-1.62868">
        <ele>-72</ele>
        <time>2011-11-26T15:21:04Z</time>
      </trkpt>
      <trkpt lat="47.24152" lon="-1.62853">
        <ele>-72.5</ele>
        <time>2011-11-26T15:21:06Z</time>
      </trkpt>
      <trkpt lat="47.24143" lon="-1.62837">
        <ele>-73</ele>
        <time>2011-11-26T15:21:09Z</time>
      </trkpt>
      <trkpt lat="47.24136" lon="-1.62823">
        <ele>-73</ele>
        <time>2011-11-26T15:21:11Z</time>
      </trkpt>
      <trkpt lat="47.24131" lon="-1.62808">
        <ele>-73.25</ele>
        <time>2011-11-26T15:21:13Z</time>
      </trkpt>
      <trkpt lat="47.24127" lon="-1.62795">
        <ele>-73.75</ele>
        <time>2011-11-26T15:21:15Z</time>
      </trkpt>
      <trkpt lat="47.24121" lon="-1.62782">
        <ele>-74.25</ele>
        <time>2011-11-26T15:21:17Z</time>
      </trkpt>
      <trkpt lat="47.24114" lon="-1.62769">
        <ele>-74.75</ele>
        <time>2011-11-26T15:21:20Z</time>
      </trkpt>
      <trkpt lat="47.24109" lon="-1.62757">
        <ele>-75</ele>
        <time>2011-11-26T15:21:22Z</time>
      </trkpt>
      <trkpt lat="47.24104" lon="-1.62743">
        <ele>-75</ele>
        <time>2011-11-26T15:21:26Z</time>
      </trkpt>
      <trkpt lat="47.24103" lon="-1.62729">
        <ele>-73</ele>
        <time>2011-11-26T15:21:33Z</time>
      </trkpt>
      <trkpt lat="47.24096" lon="-1.62719">
        <ele>-75.75</ele>
        <time>2011-11-26T15:21:41Z</time>
      </trkpt>
      <trkpt lat="47.2409" lon="-1.62708">
        <ele>-76</ele>
        <time>2011-11-26T15:21:58Z</time>
      </trkpt>
      <trkpt lat="47.24087" lon="-1.62695">
        <ele>-78</ele>
        <time>2011-11-26T15:22:11Z</time>
      </trkpt>
      <trkpt lat="47.24081" lon="-1.6268">
        <ele>-81.5</ele>
        <time>2011-11-26T15:22:15Z</time>
      </trkpt>
      <trkpt lat="47.24082" lon="-1.62662">
        <ele>-82</ele>
        <time>2011-11-26T15:22:19Z</time>
      </trkpt>
      <trkpt lat="47.24088" lon="-1.62644">
        <ele>-83.25</ele>
        <time>2011-11-26T15:22:22Z</time>
      </trkpt>
      <trkpt lat="47.24092" lon="-1.62631">
        <ele>-82.5</ele>
        <time>2011-11-26T15:22:24Z</time>
      </trkpt>
      <trkpt lat="47.24096" lon="-1.62617">
        <ele>-80</ele>
        <time>2011-11-26T15:22:27Z</time>
      </trkpt>
      <trkpt lat="47.24095" lon="-1.62603">
        <ele>-75.5</ele>
        <time>2011-11-26T15:22:35Z</time>
      </trkpt>
      <trkpt lat="47.24097" lon="-1.62588">
        <ele>-69.5</ele>
        <time>2011-11-26T15:23:58Z</time>
      </trkpt>
      <trkpt lat="47.24102" lon="-1.62576">
        <ele>-70.75</ele>
        <time>2011-11-26T15:24:03Z</time>
      </trkpt>
      <trkpt lat="47.24098" lon="-1.62556">
        <ele>-71.5</ele>
        <time>2011-11-26T15:24:07Z</time>
      </trkpt>
      <trkpt lat="47.24093" lon="-1.62546">
        <ele>-73.25</ele>
        <time>2011-11-26T15:24:09Z</time>
      </trkpt>
      <trkpt lat="47.24082" lon="-1.62539">
        <ele>-75.5</ele>
        <time>2011-11-26T15:24:12Z</time>
      </trkpt>
      <trkpt lat="47.24073" lon="-1.62532">
        <ele>-76</ele>
        <time>2011-11-26T15:24:15Z</time>
      </trkpt>
      <trkpt lat="47.24066" lon="-1.62523">
        <ele>-76</ele>
        <time>2011-11-26T15:24:18Z</time>
      </trkpt>
      <trkpt lat="47.24057" lon="-1.62512">
        <ele>-76</ele>
        <time>2011-11-26T15:24:20Z</time>
      </trkpt>
      <trkpt lat="47.2405" lon="-1.62501">
        <ele>-76.25</ele>
        <time>2011-11-26T15:24:22Z</time>
      </trkpt>
      <trkpt lat="47.24041" lon="-1.62489">
        <ele>-77.25</ele>
        <time>2011-11-26T15:24:24Z</time>
      </trkpt>
      <trkpt lat="47.24032" lon="-1.62478">
        <ele>-78</ele>
        <time>2011-11-26T15:24:26Z</time>
      </trkpt>
      <trkpt lat="47.24024" lon="-1.62467">
        <ele>-77.5</ele>
        <time>2011-11-26T15:24:28Z</time>
      </trkpt>
      <trkpt lat="47.24015" lon="-1.62455">
        <ele>-75.25</ele>
        <time>2011-11-26T15:24:31Z</time>
      </trkpt>
      <trkpt lat="47.24011" lon="-1.62443">
        <ele>-72.75</ele>
        <time>2011-11-26T15:24:33Z</time>
      </trkpt>
      <trkpt lat="47.24013" lon="-1.62427">
        <ele>-72</ele>
        <time>2011-11-26T15:24:36Z</time>
      </trkpt>
      <trkpt lat="47.24017" lon="-1.62409">
        <ele>-73.25</ele>
        <time>2011-11-26T15:24:39Z</time>
      </trkpt>
      <trkpt lat="47.24017" lon="-1.62394">
        <ele>-74</ele>
        <time>2011-11-26T15:24:42Z</time>
      </trkpt>
      <trkpt lat="47.24018" lon="-1.62379">
        <ele>-75.5</ele>
        <time>2011-11-26T15:24:45Z</time>
      </trkpt>
      <trkpt lat="47.2402" lon="-1.62359">
        <ele>-82.25</ele>
        <time>2011-11-26T15:24:51Z</time>
      </trkpt>
      <trkpt lat="47.24021" lon="-1.62337">
        <ele>-83.5</ele>
        <time>2011-11-26T15:24:53Z</time>
      </trkpt>
      <trkpt lat="47.24022" lon="-1.62318">
        <ele>-80.5</ele>
        <time>2011-11-26T15:24:55Z</time>
      </trkpt>
      <trkpt lat="47.2402" lon="-1.62299">
        <ele>-75.25</ele>
        <time>2011-11-26T15:24:57Z</time>
      </trkpt>
      <trkpt lat="47.24015" lon="-1.62283">
        <ele>-73.5</ele>
        <time>2011-11-26T15:24:59Z</time>
      </trkpt>
      <trkpt lat="47.24013" lon="-1.62267">
        <ele>-72.75</ele>
        <time>2011-11-26T15:25:01Z</time>
      </trkpt>
      <trkpt lat="47.24012" lon="-1.62247">
        <ele>-72.25</ele>
        <time>2011-11-26T15:25:03Z</time>
      </trkpt>
      <trkpt lat="47.24013" lon="-1.62226">
        <ele>-71.75</ele>
        <time>2011-11-26T15:25:06Z</time>
      </trkpt>
      <trkpt lat="47.24014" lon="-1.62208">
        <ele>-71.25</ele>
        <time>2011-11-26T15:25:08Z</time>
      </trkpt>
      <trkpt lat="47.24014" lon="-1.62192">
        <ele>-70.75</ele>
        <time>2011-11-26T15:25:10Z</time>
      </trkpt>
      <trkpt lat="47.24013" lon="-1.62177">
        <ele>-70.75</ele>
        <time>2011-11-26T15:25:12Z</time>
      </trkpt>
      <trkpt lat="47.24012" lon="-1.62162">
        <ele>-71.25</ele>
        <time>2011-11-26T15:25:14Z</time>
      </trkpt>
      <trkpt lat="47.24011" lon="-1.62145">
        <ele>-71.75</ele>
        <time>2011-11-26T15:25:17Z</time>
      </trkpt>
      <trkpt lat="47.24011" lon="-1.62128">
        <ele>-71.5</ele>
        <time>2011-11-26T15:25:19Z</time>
      </trkpt>
      <trkpt lat="47.24012" lon="-1.62112">
        <ele>-70.75</ele>
        <time>2011-11-26T15:25:21Z</time>
      </trkpt>
      <trkpt lat="47.24012" lon="-1.62097">
        <ele>-69.5</ele>
        <time>2011-11-26T15:25:23Z</time>
      </trkpt>
      <trkpt lat="47.24013" lon="-1.62082">
        <ele>-67.5</ele>
        <time>2011-11-26T15:25:25Z</time>
      </trkpt>
      <trkpt lat="47.24013" lon="-1.62064">
        <ele>-65.5</ele>
        <time>2011-11-26T15:25:27Z</time>
      </trkpt>
      <trkpt lat="47.24009" lon="-1.62047">
        <ele>-66</ele>
        <time>2011-11-26T15:25:30Z</time>
      </trkpt>
      <trkpt lat="47.24003" lon="-1.62035">
        <ele>-68</ele>
        <time>2011-11-26T15:25:32Z</time>
      </trkpt>
      <trkpt lat="47.23997" lon="-1.62025">
        <ele>-69</ele>
        <time>2011-11-26T15:25:34Z</time>
      </trkpt>
      <trkpt lat="47.23991" lon="-1.62016">
        <ele>-70</ele>
        <time>2011-11-26T15:25:36Z</time>
      </trkpt>
      <trkpt lat="47.23982" lon="-1.62006">
        <ele>-71.75</ele>
        <time>2011-11-26T15:25:38Z</time>
      </trkpt>
      <trkpt lat="47.23973" lon="-1.61995">
        <ele>-73.5</ele>
        <time>2011-11-26T15:25:41Z</time>
      </trkpt>
      <trkpt lat="47.23963" lon="-1.61987">
        <ele>-74.75</ele>
        <time>2011-11-26T15:25:43Z</time>
      </trkpt>
      <trkpt lat="47.23953" lon="-1.6198">
        <ele>-77</ele>
        <time>2011-11-26T15:25:45Z</time>
      </trkpt>
      <trkpt lat="47.23944" lon="-1.61974">
        <ele>-79.5</ele>
        <time>2011-11-26T15:25:47Z</time>
      </trkpt>
      <trkpt lat="47.23931" lon="-1.61969">
        <ele>-80.75</ele>
        <time>2011-11-26T15:25:50Z</time>
      </trkpt>
      <trkpt lat="47.23921" lon="-1.61967">
        <ele>-80.25</ele>
        <time>2011-11-26T15:25:53Z</time>
      </trkpt>
      <trkpt lat="47.23909" lon="-1.61964">
        <ele>-79.25</ele>
        <time>2011-11-26T15:25:56Z</time>
      </trkpt>
      <trkpt lat="47.23895" lon="-1.61958">
        <ele>-77</ele>
        <time>2011-11-26T15:25:59Z</time>
      </trkpt>
      <trkpt lat="47.23885" lon="-1.61951">
        <ele>-75.25</ele>
        <time>2011-11-26T15:26:02Z</time>
      </trkpt>
      <trkpt lat="47.23874" lon="-1.61944">
        <ele>-72</ele>
        <time>2011-11-26T15:26:04Z</time>
      </trkpt>
      <trkpt lat="47.23864" lon="-1.61936">
        <ele>-68.75</ele>
        <time>2011-11-26T15:26:06Z</time>
      </trkpt>
      <trkpt lat="47.23854" lon="-1.61928">
        <ele>-66.75</ele>
        <time>2011-11-26T15:26:08Z</time>
      </trkpt>
      <trkpt lat="47.23846" lon="-1.61919">
        <ele>-66.25</ele>
        <time>2011-11-26T15:26:10Z</time>
      </trkpt>
      <trkpt lat="47.23837" lon="-1.61911">
        <ele>-65.5</ele>
        <time>2011-11-26T15:26:12Z</time>
      </trkpt>
      <trkpt lat="47.23826" lon="-1.619">
        <ele>-64.5</ele>
        <time>2011-11-26T15:26:14Z</time>
      </trkpt>
      <trkpt lat="47.23816" lon="-1.61889">
        <ele>-64.75</ele>
        <time>2011-11-26T15:26:17Z</time>
      </trkpt>
      <trkpt lat="47.23809" lon="-1.61878">
        <ele>-65.75</ele>
        <time>2011-11-26T15:26:19Z</time>
      </trkpt>
      <trkpt lat="47.23804" lon="-1.61867">
        <ele>-66.75</ele>
        <time>2011-11-26T15:26:21Z</time>
      </trkpt>
      <trkpt lat="47.23799" lon="-1.61854">
        <ele>-67.5</ele>
        <time>2011-11-26T15:26:23Z</time>
      </trkpt>
      <trkpt lat="47.23794" lon="-1.61841">
        <ele>-68.25</ele>
        <time>2011-11-26T15:26:25Z</time>
      </trkpt>
      <trkpt lat="47.23788" lon="-1.61826">
        <ele>-68</ele>
        <time>2011-11-26T15:26:27Z</time>
      </trkpt>
      <trkpt lat="47.23781" lon="-1.6181">
        <ele>-67.5</ele>
        <time>2011-11-26T15:26:29Z</time>
      </trkpt>
      <trkpt lat="47.23774" lon="-1.61796">
        <ele>-68.25</ele>
        <time>2011-11-26T15:26:32Z</time>
      </trkpt>
      <trkpt lat="47.23768" lon="-1.61783">
        <ele>-69.25</ele>
        <time>2011-11-26T15:26:34Z</time>
      </trkpt>
      <trkpt lat="47.23763" lon="-1.61771">
        <ele>-70.5</ele>
        <time>2011-11-26T15:26:36Z</time>
      </trkpt>
      <trkpt lat="47.23759" lon="-1.61753">
        <ele>-72.75</ele>
        <time>2011-11-26T15:26:39Z</time>
      </trkpt>
      <trkpt lat="47.23755" lon="-1.61739">
        <ele>-74</ele>
        <time>2011-11-26T15:26:41Z</time>
      </trkpt>
      <trkpt lat="47.23753" lon="-1.61724">
        <ele>-76.75</ele>
        <time>2011-11-26T15:26:43Z</time>
      </trkpt>
      <trkpt lat="47.23752" lon="-1.61708">
        <ele>-80</ele>
        <time>2011-11-26T15:26:46Z</time>
      </trkpt>
      <trkpt lat="47.23752" lon="-1.61694">
        <ele>-81.5</ele>
        <time>2011-11-26T15:26:48Z</time>
      </trkpt>
      <trkpt lat="47.23753" lon="-1.61676">
        <ele>-83.75</ele>
        <time>2011-11-26T15:26:51Z</time>
      </trkpt>
      <trkpt lat="47.23756" lon="-1.61663">
        <ele>-84.75</ele>
        <time>2011-11-26T15:26:53Z</time>
      </trkpt>
      <trkpt lat="47.23761" lon="-1.61646">
        <ele>-85</ele>
        <time>2011-11-26T15:26:56Z</time>
      </trkpt>
      <trkpt lat="47.23763" lon="-1.61631">
        <ele>-85</ele>
        <time>2011-11-26T15:26:58Z</time>
      </trkpt>
      <trkpt lat="47.23761" lon="-1.61615">
        <ele>-84.25</ele>
        <time>2011-11-26T15:27:01Z</time>
      </trkpt>
      <trkpt lat="47.23757" lon="-1.61601">
        <ele>-82.75</ele>
        <time>2011-11-26T15:27:03Z</time>
      </trkpt>
      <trkpt lat="47.23753" lon="-1.61587">
        <ele>-82</ele>
        <time>2011-11-26T15:27:05Z</time>
      </trkpt>
      <trkpt lat="47.23753" lon="-1.61571">
        <ele>-82.25</ele>
        <time>2011-11-26T15:27:07Z</time>
      </trkpt>
      <trkpt lat="47.23756" lon="-1.61555">
        <ele>-82</ele>
        <time>2011-11-26T15:27:10Z</time>
      </trkpt>
      <trkpt lat="47.23759" lon="-1.61539">
        <ele>-81.25</ele>
        <time>2011-11-26T15:27:12Z</time>
      </trkpt>
      <trkpt lat="47.23762" lon="-1.61523">
        <ele>-81.5</ele>
        <time>2011-11-26T15:27:14Z</time>
      </trkpt>
      <trkpt lat="47.23766" lon="-1.61507">
        <ele>-81</ele>
        <time>2011-11-26T15:27:16Z</time>
      </trkpt>
      <trkpt lat="47.23772" lon="-1.6149">
        <ele>-78.5</ele>
        <time>2011-11-26T15:27:18Z</time>
      </trkpt>
      <trkpt lat="47.23777" lon="-1.61469">
        <ele>-75.5</ele>
        <time>2011-11-26T15:27:20Z</time>
      </trkpt>
      <trkpt lat="47.23779" lon="-1.61448">
        <ele>-73.25</ele>
        <time>2011-11-26T15:27:23Z</time>
      </trkpt>
      <trkpt lat="47.23779" lon="-1.61432">
        <ele>-73.75</ele>
        <time>2011-11-26T15:27:25Z</time>
      </trkpt>
      <trkpt lat="47.23782" lon="-1.61416">
        <ele>-74</ele>
        <time>2011-11-26T15:27:27Z</time>
      </trkpt>
      <trkpt lat="47.23785" lon="-1.61401">
        <ele>-73.25</ele>
        <time>2011-11-26T15:27:29Z</time>
      </trkpt>
      <trkpt lat="47.23787" lon="-1.61388">
        <ele>-74.25</ele>
        <time>2011-11-26T15:27:31Z</time>
      </trkpt>
      <trkpt lat="47.23787" lon="-1.61372">
        <ele>-75</ele>
        <time>2011-11-26T15:27:33Z</time>
      </trkpt>
      <trkpt lat="47.23784" lon="-1.61356">
        <ele>-75.75</ele>
        <time>2011-11-26T15:27:36Z</time>
      </trkpt>
      <trkpt lat="47.23779" lon="-1.61344">
        <ele>-76.75</ele>
        <time>2011-11-26T15:27:38Z</time>
      </trkpt>
      <trkpt lat="47.23773" lon="-1.61333">
        <ele>-77.5</ele>
        <time>2011-11-26T15:27:40Z</time>
      </trkpt>
      <trkpt lat="47.23766" lon="-1.61324">
        <ele>-78.5</ele>
        <time>2011-11-26T15:27:42Z</time>
      </trkpt>
      <trkpt lat="47.23758" lon="-1.61317">
        <ele>-78.75</ele>
        <time>2011-11-26T15:27:44Z</time>
      </trkpt>
      <trkpt lat="47.23746" lon="-1.61308">
        <ele>-76.25</ele>
        <time>2011-11-26T15:27:47Z</time>
      </trkpt>
      <trkpt lat="47.23737" lon="-1.61302">
        <ele>-75.25</ele>
        <time>2011-11-26T15:27:50Z</time>
      </trkpt>
      <trkpt lat="47.23727" lon="-1.613">
        <ele>-76.5</ele>
        <time>2011-11-26T15:27:52Z</time>
      </trkpt>
      <trkpt lat="47.23717" lon="-1.61297">
        <ele>-78.5</ele>
        <time>2011-11-26T15:27:54Z</time>
      </trkpt>
      <trkpt lat="47.23708" lon="-1.61289">
        <ele>-79.5</ele>
        <time>2011-11-26T15:27:57Z</time>
      </trkpt>
      <trkpt lat="47.23701" lon="-1.61278">
        <ele>-78</ele>
        <time>2011-11-26T15:28:00Z</time>
      </trkpt>
      <trkpt lat="47.23694" lon="-1.61262">
        <ele>-77.5</ele>
        <time>2011-11-26T15:28:03Z</time>
      </trkpt>
      <trkpt lat="47.23688" lon="-1.61244">
        <ele>-74</ele>
        <time>2011-11-26T15:28:07Z</time>
      </trkpt>
      <trkpt lat="47.23696" lon="-1.61235">
        <ele>-74</ele>
        <time>2011-11-26T15:28:15Z</time>
      </trkpt>
      <trkpt lat="47.23701" lon="-1.61221">
        <ele>-76.75</ele>
        <time>2011-11-26T15:28:21Z</time>
      </trkpt>
      <trkpt lat="47.23702" lon="-1.61206">
        <ele>-77.75</ele>
        <time>2011-11-26T15:28:25Z</time>
      </trkpt>
      <trkpt lat="47.23704" lon="-1.61192">
        <ele>-77.75</ele>
        <time>2011-11-26T15:28:30Z</time>
      </trkpt>
      <trkpt lat="47.23702" lon="-1.61179">
        <ele>-74.25</ele>
        <time>2011-11-26T15:31:13Z</time>
      </trkpt>
      <trkpt lat="47.23702" lon="-1.61178">
        <ele>-71.25</ele>
        <time>2011-11-26T15:31:52Z</time>
      </trkpt>
    </trkseg>
  </trk>
</gpx>